Provisional Data: South Branch Tunkhannock Creek near La Plume, PA


Please select a monitoring station.
Please select start date.
Please select start date.

Toggle Unit: C/F Toggle Unit: C/F
Sample Time Temperature (C) Temperature (F) Specific Conductivity (mS/cm) pH   Turbidity (NTU+) DO (mg/L)
12/4/2020 12:00:00 AM 4.64 40.352 0.03 7.5 4.08 12.06
12/4/2020 12:15:00 AM 4.63 40.334 0.03 7.51 4.22 12.06
12/4/2020 12:30:00 AM 4.62 40.316 0.03 7.5 4.13 12.06
12/4/2020 12:45:00 AM 4.61 40.298 0.03 7.5 4.47 12.07
12/4/2020 1:00:00 AM 4.6 40.28 0.03 7.5 4.36 12.07
12/4/2020 1:15:00 AM 4.59 40.262 0.03 7.49 4.2 12.06
12/4/2020 1:30:00 AM 4.59 40.262 0.031 7.49 4.1 12.07
12/4/2020 1:45:00 AM 4.59 40.262 0.031 7.49 4.31 12.07
12/4/2020 2:00:00 AM 4.58 40.244 0.031 7.49 4.29 12.06
12/4/2020 2:15:00 AM 4.57 40.226 0.032 7.49 4.21 12.07
12/4/2020 2:30:00 AM 4.57 40.226 0.031 7.49 4.33 12.06
12/4/2020 2:45:00 AM 4.57 40.226 0.031 7.49 4.21 12.07
12/4/2020 3:00:00 AM 4.57 40.226 0.031 7.49 4.18 12.07
12/4/2020 3:15:00 AM 4.56 40.208 0.031 7.49 4.22 12.07
12/4/2020 3:30:00 AM 4.56 40.208 0.031 7.49 4.1 12.05
12/4/2020 3:45:00 AM 4.57 40.226 0.032 7.49 4.24 12.06
12/4/2020 4:00:00 AM 4.58 40.244 0.032 7.49 4.19 12.06
12/4/2020 4:15:00 AM 4.59 40.262 0.032 7.49 4.09 12.07
12/4/2020 4:30:00 AM 4.59 40.262 0.032 7.49 4.2 12.06
12/4/2020 4:45:00 AM 4.59 40.262 0.032 7.48 4.25 12.06
12/4/2020 5:00:00 AM 4.6 40.28 0.033 7.48 4.21 12.04
12/4/2020 5:15:00 AM 4.6 40.28 0.032 7.48 4.23 12.05
12/4/2020 5:30:00 AM 4.6 40.28 0.032 7.49 4.13 12.06
12/4/2020 5:45:00 AM 4.61 40.298 0.033 7.48 4.19 12.05
12/4/2020 6:00:00 AM 4.61 40.298 0.033 7.48 4.2 12.06
12/4/2020 6:15:00 AM 4.62 40.316 0.033 7.48 4.3 12.06
12/4/2020 6:30:00 AM 4.62 40.316 0.033 7.48 4.26 12.05
12/4/2020 6:45:00 AM 4.62 40.316 0.034 7.47 4.17 12.05
12/4/2020 7:00:00 AM 4.63 40.334 0.034 7.48 4.18 12.05
12/4/2020 7:15:00 AM 4.63 40.334 0.034 7.48 4.22 12.06
12/4/2020 7:30:00 AM 4.63 40.334 0.033 7.49 4.07 12.1
12/4/2020 7:45:00 AM 4.63 40.334 0.034 7.5 4.1 12.21
12/4/2020 8:00:00 AM 4.63 40.334 0.034 7.52 4.31 12.37
12/4/2020 8:15:00 AM 4.66 40.388 0.034 7.56 4.22 12.56
12/4/2020 8:30:00 AM 4.7 40.46 0.034 7.59 4.27 12.71
12/4/2020 8:45:00 AM 4.76 40.568 0.035 7.65 4.16 12.98
12/4/2020 9:00:00 AM 4.8 40.64 0.035 7.7 4.21 13.17
12/4/2020 9:15:00 AM 4.87 40.766 0.035 7.77 4.21 13.42
12/4/2020 9:30:00 AM 4.93 40.874 0.034 7.85 4.2 13.64
12/4/2020 9:45:00 AM 5.01 41.018 0.035 7.93 4.25 13.81
12/4/2020 10:00:00 AM 5.09 41.162 0.035 8.01 4.28 13.99
12/4/2020 10:15:00 AM 5.18 41.324 0.036 8.11 4.25 14.15
12/4/2020 10:30:00 AM 5.23 41.414 0.036 8.18 4.28 14.23
12/4/2020 10:45:00 AM 5.3 41.54 0.036 8.26 4.19 14.32
12/4/2020 11:00:00 AM 5.36 41.648 0.036 8.32 4.2 14.36
12/4/2020 11:15:00 AM 5.37 41.666 0.036 8.33 4.23 14.25
12/4/2020 11:30:00 AM 5.39 41.702 0.036 8.31 4.3 14.1
12/4/2020 11:45:00 AM 5.45 41.81 0.037 8.31 4.18 14.02
12/4/2020 12:00:00 PM 5.53 41.954 0.037 8.32 4.35 13.98
12/4/2020 12:15:00 PM 5.62 42.116 0.037 8.33 4.26 13.91
12/4/2020 12:30:00 PM 5.76 42.368 0.037 8.36 4.25 13.89
12/4/2020 12:45:00 PM 5.88 42.584 0.037 8.37 4.25 13.84
12/4/2020 1:00:00 PM 6 42.8 0.038 8.39 4.39 13.79
12/4/2020 1:15:00 PM 6.11 42.998 0.039 8.41 4.19 13.75
12/4/2020 1:30:00 PM 6.19 43.142 0.04 8.41 4.14 13.7
12/4/2020 1:45:00 PM 6.23 43.214 0.039 8.42 4.21 13.67
12/4/2020 2:00:00 PM 6.24 43.232 0.039 8.42 4.2 13.62
12/4/2020 2:15:00 PM 6.23 43.214 0.04 8.4 4.19 13.54
12/4/2020 2:30:00 PM 6.2 43.16 0.04 8.37 4.39 13.42
12/4/2020 2:45:00 PM 6.17 43.106 0.04 8.35 4.26 13.34
12/4/2020 3:00:00 PM 6.14 43.052 0.04 8.3 4.26 13.24
12/4/2020 3:15:00 PM 6.1 42.98 0.041 8.27 4.14 13.17
12/4/2020 3:30:00 PM 6.07 42.926 0.041 8.23 4.22 13.08
12/4/2020 3:45:00 PM 6.05 42.89 0.041 8.18 4.26 12.97
12/4/2020 4:00:00 PM 6.03 42.854 0.041 8.13 4.17 12.85
12/4/2020 4:15:00 PM 6.02 42.836 0.041 8.04 4.24 12.67
12/4/2020 4:30:00 PM 5.99 42.782 0.041 7.97 4.27 12.48
12/4/2020 4:45:00 PM 5.97 42.746 0.041 7.89 4.29 12.3
12/4/2020 5:00:00 PM 5.95 42.71 0.041 7.83 4.38 12.16
12/4/2020 5:15:00 PM 5.93 42.674 0.04 7.78 4.33 12.04
12/4/2020 5:30:00 PM 5.91 42.638 0.04 7.74 4.23 11.95
12/4/2020 5:45:00 PM 5.88 42.584 0.04 7.71 4.46 11.87
12/4/2020 6:00:00 PM 5.85 42.53 0.04 7.68 4.3 11.81
12/4/2020 6:15:00 PM 5.82 42.476 0.04 7.65 4.34 11.76
12/4/2020 6:30:00 PM 5.84 42.512 0.04 7.63 4.4 11.73
12/4/2020 6:45:00 PM 5.84 42.512 0.041 7.62 4.11 11.69
12/4/2020 7:00:00 PM 5.84 42.512 0.04 7.6 4.31 11.66
12/4/2020 7:15:00 PM 5.83 42.494 0.04 7.58 4.36 11.65
12/4/2020 7:30:00 PM 5.82 42.476 0.04 7.58 4.27 11.63
12/4/2020 7:45:00 PM 5.81 42.458 0.04 7.57 4.33 11.62
12/4/2020 8:00:00 PM 5.81 42.458 0.04 7.56 4.38 11.62
12/4/2020 8:15:00 PM 5.79 42.422 0.04 7.56 4.37 11.61
12/4/2020 8:30:00 PM 5.79 42.422 0.041 7.55 4.3 11.61
12/4/2020 8:45:00 PM 5.8 42.44 0.04 7.54 4.24 11.61
12/4/2020 9:00:00 PM 5.8 42.44 0.04 7.54 4.22 11.61
12/4/2020 9:15:00 PM 5.8 42.44 0.041 7.54 4.34 11.61
12/4/2020 9:30:00 PM 5.79 42.422 0.04 7.53 4.33 11.62
12/4/2020 9:45:00 PM 5.79 42.422 0.041 7.53 4.22 11.62
12/4/2020 10:00:00 PM 5.78 42.404 0.041 7.52 4.34 11.62
12/4/2020 10:15:00 PM 5.78 42.404 0.04 7.52 4.32 11.62
12/4/2020 10:30:00 PM 5.78 42.404 0.041 7.51 4.43 11.62
12/4/2020 10:45:00 PM 5.78 42.404 0.041 7.51 4.29 11.61
12/4/2020 11:00:00 PM 5.77 42.386 0.04 7.51 4.3 11.62
12/4/2020 11:15:00 PM 5.77 42.386 0.04 7.5 4.4 11.62
12/4/2020 11:30:00 PM 5.77 42.386 0.04 7.5 4.3 11.61
12/4/2020 11:45:00 PM 5.76 42.368 0.04 7.49 4.23 11.62
12/5/2020 12:00:00 AM 5.76 42.368 0.04 7.5 4.22 11.61
12/5/2020 12:15:00 AM 5.75 42.35 0.04 7.49 4.27 11.61
12/5/2020 12:30:00 AM 5.74 42.332 0.04 7.49 4.29 11.62
12/5/2020 12:45:00 AM 5.74 42.332 0.04 7.49 4.26 11.61
12/5/2020 1:00:00 AM 5.73 42.314 0.04 7.49 4.24 11.61
12/5/2020 1:15:00 AM 5.72 42.296 0.04 7.48 4.33 11.61
12/5/2020 1:30:00 AM 5.71 42.278 0.041 7.48 4.29 11.62
12/5/2020 1:45:00 AM 5.71 42.278 0.04 7.48 4.26 11.62
12/5/2020 2:00:00 AM 5.7 42.26 0.041 7.48 4.35 11.62
12/5/2020 2:15:00 AM 5.69 42.242 0.041 7.48 4.31 11.62
12/5/2020 2:30:00 AM 5.68 42.224 0.041 7.47 4.28 11.62
12/5/2020 2:45:00 AM 5.67 42.206 0.04 7.48 4.2 11.61
12/5/2020 3:00:00 AM 5.64 42.152 0.04 7.48 4.39 11.63
12/5/2020 3:15:00 AM 5.62 42.116 0.04 7.47 4.18 11.63
12/5/2020 3:30:00 AM 5.6 42.08 0.04 7.47 4.35 11.62
12/5/2020 3:45:00 AM 5.58 42.044 0.04 7.47 4.3 11.63
12/5/2020 4:00:00 AM 5.56 42.008 0.04 7.47 4.28 11.62
12/5/2020 4:15:00 AM 5.55 41.99 0.04 7.47 4.22 11.62
12/5/2020 4:30:00 AM 5.53 41.954 0.04 7.47 4.27 11.64
12/5/2020 4:45:00 AM 5.51 41.918 0.041 7.47 4.29 11.65
12/5/2020 5:00:00 AM 5.49 41.882 0.04 7.46 4.23 11.65
12/5/2020 5:15:00 AM 5.48 41.864 0.041 7.46 4.32 11.65
12/5/2020 5:30:00 AM 5.46 41.828 0.041 7.47 4.33 11.66
12/5/2020 5:45:00 AM 5.44 41.792 0.04 7.46 4.11 11.66
12/5/2020 6:00:00 AM 5.42 41.756 0.041 7.46 4.37 11.66
12/5/2020 6:15:00 AM 5.41 41.738 0.041 7.46 4.4 11.68
12/5/2020 6:30:00 AM 5.39 41.702 0.04 7.46 4.32 11.67
12/5/2020 6:45:00 AM 5.38 41.684 0.04 7.46 4.41 11.68
12/5/2020 7:00:00 AM 5.38 41.684 0.041 7.46 4.35 11.69
12/5/2020 7:15:00 AM 5.38 41.684 0.041 7.47 4.29 11.7
12/5/2020 7:30:00 AM 5.38 41.684 0.041 7.47 4.39 11.73
12/5/2020 7:45:00 AM 5.37 41.666 0.041 7.48 4.26 11.76
12/5/2020 8:00:00 AM 5.37 41.666 0.041 7.49 4.35 11.79
12/5/2020 8:15:00 AM 5.37 41.666 0.041 7.5 4.25 11.86
12/5/2020 8:30:00 AM 5.37 41.666 0.041 7.52 4.29 11.96
12/5/2020 8:45:00 AM 5.38 41.684 0.041 7.55 4.37 12.18
12/5/2020 9:00:00 AM 5.39 41.702 0.041 7.6 4.27 12.42
12/5/2020 9:15:00 AM 5.4 41.72 0.041 7.63 4.32 12.56
12/5/2020 9:30:00 AM 5.41 41.738 0.042 7.67 4.35 12.68
12/5/2020 9:45:00 AM 5.4 41.72 0.041 7.68 4.33 12.68
12/5/2020 10:00:00 AM 5.41 41.738 0.041 7.71 4.25 12.8
12/5/2020 10:15:00 AM 5.43 41.774 0.042 7.77 4.35 12.97
12/5/2020 10:30:00 AM 5.43 41.774 0.042 7.77 4.37 12.94
12/5/2020 10:45:00 AM 5.42 41.756 0.042 7.79 4.33 12.96
12/5/2020 11:00:00 AM 5.41 41.738 0.041 7.78 4.5 12.9
12/5/2020 11:15:00 AM 5.43 41.774 0.041 7.82 4.21 13.05
12/5/2020 11:30:00 AM 5.44 41.792 0.041 7.84 4.33 13.06
12/5/2020 11:45:00 AM 5.45 41.81 0.041 7.87 4.25 13.13
12/5/2020 12:00:00 PM 5.48 41.864 0.042 7.92 4.23 13.3
12/5/2020 12:15:00 PM 5.51 41.918 0.042 8 4.32 13.46
12/5/2020 12:30:00 PM 5.54 41.972 0.041 8.06 4.29 13.56
12/5/2020 12:45:00 PM 5.53 41.954 0.042 8.08 4.21 13.53
12/5/2020 1:00:00 PM 5.52 41.936 0.042 8.06 4.25 13.44
12/5/2020 1:15:00 PM 5.54 41.972 0.042 8.12 4.38 13.58
12/5/2020 1:30:00 PM 5.55 41.99 0.042 8.18 4.22 13.7
12/5/2020 1:45:00 PM 5.53 41.954 0.043 8.18 4.3 13.6
12/5/2020 2:00:00 PM 5.51 41.918 0.042 8.11 4.3 13.39
12/5/2020 2:15:00 PM 5.51 41.918 0.042 8.16 4.16 13.53
12/5/2020 2:30:00 PM 5.54 41.972 0.042 8.2 4.3 13.59
12/5/2020 2:45:00 PM 5.52 41.936 0.042 8.16 4.26 13.42
12/5/2020 3:00:00 PM 5.5 41.9 0.042 8.1 4.26 13.25
12/5/2020 3:15:00 PM 5.48 41.864 0.042 8.07 4.29 13.21
12/5/2020 3:30:00 PM 5.45 41.81 0.042 8.02 4.21 13.04
12/5/2020 3:45:00 PM 5.44 41.792 0.042 7.97 4.33 12.93
12/5/2020 4:00:00 PM 5.4 41.72 0.042 7.91 4.37 12.77
12/5/2020 4:15:00 PM 5.37 41.666 0.042 7.86 4.37 12.62
12/5/2020 4:30:00 PM 5.31 41.558 0.042 7.81 4.29 12.49
12/5/2020 4:45:00 PM 5.27 41.486 0.042 7.76 4.35 12.36
12/5/2020 5:00:00 PM 5.24 41.432 0.041 7.72 4.31 12.26
12/5/2020 5:15:00 PM 5.21 41.378 0.041 7.68 4.37 12.18
12/5/2020 5:30:00 PM 5.17 41.306 0.041 7.66 4.36 12.11
12/5/2020 5:45:00 PM 5.13 41.234 0.041 7.64 4.21 12.06
12/5/2020 6:00:00 PM 5.11 41.198 0.041 7.62 4.5 12.03
12/5/2020 6:15:00 PM 5.09 41.162 0.041 7.61 4.31 11.99
12/5/2020 6:30:00 PM 5.06 41.108 0.041 7.59 4.42 11.97
12/5/2020 6:45:00 PM 5.02 41.036 0.041 7.58 4.29 11.95
12/5/2020 7:00:00 PM 4.99 40.982 0.041 7.57 4.28 11.95
12/5/2020 7:15:00 PM 4.96 40.928 0.041 7.56 4.24 11.95
12/5/2020 7:30:00 PM 4.93 40.874 0.04 7.56 4.4 11.94
12/5/2020 7:45:00 PM 4.91 40.838 0.041 7.55 4.26 11.95
12/5/2020 8:00:00 PM 4.88 40.784 0.04 7.54 4.31 11.95
12/5/2020 8:15:00 PM 4.86 40.748 0.04 7.54 4.29 11.95
12/5/2020 8:30:00 PM 4.84 40.712 0.04 7.54 4.26 11.95
12/5/2020 8:45:00 PM 4.81 40.658 0.04 7.53 4.45 11.96
12/5/2020 9:00:00 PM 4.76 40.568 0.041 7.52 4.31 11.96
12/5/2020 9:15:00 PM 4.74 40.532 0.04 7.52 4.27 11.96
12/5/2020 9:30:00 PM 4.72 40.496 0.04 7.52 4.26 11.97
12/5/2020 9:45:00 PM 4.7 40.46 0.04 7.52 4.36 11.98
12/5/2020 10:00:00 PM 4.67 40.406 0.039 7.51 4.25 11.99
12/5/2020 10:15:00 PM 4.65 40.37 0.04 7.51 4.28 11.99
12/5/2020 10:30:00 PM 4.61 40.298 0.039 7.51 4.33 12
12/5/2020 10:45:00 PM 4.58 40.244 0.039 7.51 4.25 12.01
12/5/2020 11:00:00 PM 4.56 40.208 0.039 7.5 4.22 12.02
12/5/2020 11:15:00 PM 4.52 40.136 0.04 7.51 4.36 12.03
12/5/2020 11:30:00 PM 4.5 40.1 0.04 7.5 4.29 12.04
12/5/2020 11:45:00 PM 4.48 40.064 0.039 7.5 4.25 12.03
12/6/2020 12:00:00 AM 4.46 40.028 0.039 7.5 4.31 12.05
12/6/2020 12:15:00 AM 4.44 39.992 0.039 7.5 4.28 12.04
12/6/2020 12:30:00 AM 4.41 39.938 0.039 7.5 4.29 12.06
12/6/2020 12:45:00 AM 4.39 39.902 0.039 7.5 4.18 12.08
12/6/2020 1:00:00 AM 4.36 39.848 0.039 7.5 4.25 12.07
12/6/2020 1:15:00 AM 4.34 39.812 0.039 7.5 4.31 12.09
12/6/2020 1:30:00 AM 4.32 39.776 0.039 7.49 4.39 12.09
12/6/2020 1:45:00 AM 4.29 39.722 0.039 7.49 4.43 12.1
12/6/2020 2:00:00 AM 4.26 39.668 0.039 7.49 4.28 12.1
12/6/2020 2:15:00 AM 4.23 39.614 0.04 7.5 4.33 12.12
12/6/2020 2:30:00 AM 4.19 39.542 0.04 7.49 4.44 12.13
12/6/2020 2:45:00 AM 4.17 39.506 0.04 7.49 4.42 12.14
12/6/2020 3:00:00 AM 4.14 39.452 0.039 7.48 4.45 12.14
12/6/2020 3:15:00 AM 4.11 39.398 0.04 7.49 4.33 12.15
12/6/2020 3:30:00 AM 4.08 39.344 0.039 7.49 4.34 12.17
12/6/2020 3:45:00 AM 4.04 39.272 0.04 7.49 4.33 12.18
12/6/2020 4:00:00 AM 4.01 39.218 0.039 7.49 4.24 12.19
12/6/2020 4:15:00 AM 3.98 39.164 0.039 7.49 4.24 12.21
12/6/2020 4:30:00 AM 3.95 39.11 0.039 7.49 4.25 12.22
12/6/2020 4:45:00 AM 3.91 39.038 0.039 7.49 4.31 12.23
12/6/2020 5:00:00 AM 3.88 38.984 0.039 7.49 4.3 12.24
12/6/2020 5:15:00 AM 3.83 38.894 0.039 7.49 4.3 12.26
12/6/2020 5:30:00 AM 3.8 38.84 0.039 7.49 4.45 12.26
12/6/2020 5:45:00 AM 3.76 38.768 0.039 7.49 4.18 12.27
12/6/2020 6:00:00 AM 3.73 38.714 0.038 7.49 4.48 12.29
12/6/2020 6:15:00 AM 3.68 38.624 0.039 7.49 4.37 12.3
12/6/2020 6:30:00 AM 3.63 38.534 0.039 7.49 4.25 12.32
12/6/2020 6:45:00 AM 3.59 38.462 0.039 7.49 4.19 12.33
12/6/2020 7:00:00 AM 3.55 38.39 0.038 7.49 4.26 12.35
12/6/2020 7:15:00 AM 3.52 38.336 0.038 7.49 4.25 12.37
12/6/2020 7:30:00 AM 3.49 38.282 0.038 7.5 4.28 12.4
12/6/2020 7:45:00 AM 3.47 38.246 0.038 7.51 4.36 12.46
12/6/2020 8:00:00 AM 3.43 38.174 0.038 7.52 4.28 12.56
12/6/2020 8:15:00 AM 3.42 38.156 0.038 7.54 4.36 12.7
12/6/2020 8:30:00 AM 3.39 38.102 0.038 7.56 4.29 12.84
12/6/2020 8:45:00 AM 3.36 38.048 0.038 7.6 4.24 13
12/6/2020 9:00:00 AM 3.36 38.048 0.037 7.63 4.37 13.16
12/6/2020 9:15:00 AM 3.35 38.03 0.038 7.66 4.34 13.34
12/6/2020 9:30:00 AM 3.36 38.048 0.038 7.72 4.27 13.53
12/6/2020 9:45:00 AM 3.36 38.048 0.038 7.77 4.35 13.71
12/6/2020 10:00:00 AM 3.38 38.084 0.038 7.83 4.3 13.89
12/6/2020 10:15:00 AM 3.4 38.12 0.038 7.89 4.32 14.06
12/6/2020 10:30:00 AM 3.43 38.174 0.038 7.95 4.34 14.22
12/6/2020 10:45:00 AM 3.45 38.21 0.038 8.01 4.32 14.31
12/6/2020 11:00:00 AM 3.45 38.21 0.038 8.06 4.23 14.38
12/6/2020 11:15:00 AM 3.46 38.228 0.039 8.11 4.2 14.45
12/6/2020 11:30:00 AM 3.47 38.246 0.038 8.15 4.41 14.5
12/6/2020 11:45:00 AM 3.47 38.246 0.039 8.18 4.3 14.55
12/6/2020 12:00:00 PM 3.51 38.318 0.038 8.23 4.25 14.6
12/6/2020 12:15:00 PM 3.52 38.336 0.038 8.27 4.33 14.62
12/6/2020 12:30:00 PM 3.53 38.354 0.038 8.29 4.33 14.64
12/6/2020 12:45:00 PM 3.52 38.336 0.038 8.3 4.17 14.61
12/6/2020 1:00:00 PM 3.52 38.336 0.039 8.33 4.23 14.64
12/6/2020 1:15:00 PM 3.53 38.354 0.039 8.36 4.42 14.67
12/6/2020 1:30:00 PM 3.54 38.372 0.038 8.39 4.33 14.7
12/6/2020 1:45:00 PM 3.56 38.408 0.038 8.41 4.28 14.71
12/6/2020 2:00:00 PM 3.57 38.426 0.039 8.43 4.27 14.73
12/6/2020 2:15:00 PM 3.59 38.462 0.039 8.45 4.17 14.76
12/6/2020 2:30:00 PM 3.59 38.462 0.039 8.47 4.24 14.73
12/6/2020 2:45:00 PM 3.58 38.444 0.039 8.48 4.26 14.7
12/6/2020 3:00:00 PM 3.57 38.426 0.039 8.46 4.25 14.63
12/6/2020 3:15:00 PM 3.58 38.444 0.04 8.46 4.22 14.59
12/6/2020 3:30:00 PM 3.57 38.426 0.039 8.45 4.33 14.52
12/6/2020 3:45:00 PM 3.53 38.354 0.039 8.4 4.36 14.35
12/6/2020 4:00:00 PM 3.51 38.318 0.039 8.33 4.46 14.19
12/6/2020 4:15:00 PM 3.48 38.264 0.039 8.25 4.22 13.99
12/6/2020 4:30:00 PM 3.44 38.192 0.039 8.15 4.27 13.75
12/6/2020 4:45:00 PM 3.4 38.12 0.039 8.05 4.32 13.54
12/6/2020 5:00:00 PM 3.38 38.084 0.038 7.96 4.25 13.34
12/6/2020 5:15:00 PM 3.33 37.994 0.038 7.89 4.29 13.2
12/6/2020 5:30:00 PM 3.31 37.958 0.038 7.83 4.28 13.06
12/6/2020 5:45:00 PM 3.28 37.904 0.038 7.78 4.35 12.96
12/6/2020 6:00:00 PM 3.27 37.886 0.038 7.74 4.29 12.88
12/6/2020 6:15:00 PM 3.25 37.85 0.038 7.71 4.21 12.83
12/6/2020 6:30:00 PM 3.23 37.814 0.038 7.69 4.29 12.77
12/6/2020 6:45:00 PM 3.19 37.742 0.038 7.67 4.26 12.74
12/6/2020 7:00:00 PM 3.17 37.706 0.038 7.65 4.31 12.72
12/6/2020 7:15:00 PM 3.16 37.688 0.038 7.64 4.26 12.7
12/6/2020 7:30:00 PM 3.12 37.616 0.037 7.62 4.29 12.67
12/6/2020 7:45:00 PM 3.08 37.544 0.037 7.61 4.4 12.67
12/6/2020 8:00:00 PM 3.06 37.508 0.037 7.6 4.31 12.65
12/6/2020 8:15:00 PM 3.05 37.49 0.038 7.59 4.25 12.65
12/6/2020 8:30:00 PM 3.05 37.49 0.037 7.58 4.41 12.63
12/6/2020 8:45:00 PM 3.03 37.454 0.037 7.58 4.26 12.64
12/6/2020 9:00:00 PM 3.01 37.418 0.037 7.57 4.37 12.64
12/6/2020 9:15:00 PM 2.99 37.382 0.037 7.56 4.27 12.63
12/6/2020 9:30:00 PM 2.98 37.364 0.037 7.55 4.28 12.62
12/6/2020 9:45:00 PM 2.96 37.328 0.037 7.56 4.3 12.63
12/6/2020 10:00:00 PM 2.95 37.31 0.038 7.54 4.22 12.63
12/6/2020 10:15:00 PM 2.94 37.292 0.037 7.55 4.15 12.64
12/6/2020 10:30:00 PM 2.93 37.274 0.038 7.54 4.26 12.64
12/6/2020 10:45:00 PM 2.91 37.238 0.037 7.54 4.29 12.64
12/6/2020 11:00:00 PM 2.89 37.202 0.037 7.54 4.25 12.64
12/6/2020 11:15:00 PM 2.88 37.184 0.037 7.54 4.26 12.64
12/6/2020 11:30:00 PM 2.86 37.148 0.037 7.53 4.22 12.65
12/6/2020 11:45:00 PM 2.83 37.094 0.037 7.53 4.25 12.66
12/7/2020 12:00:00 AM 2.82 37.076 0.037 7.53 4.31 12.66
12/7/2020 12:15:00 AM 2.81 37.058 0.036 7.53 4.22 12.66
12/7/2020 12:30:00 AM 2.79 37.022 0.036 7.53 4.27 12.67
12/7/2020 12:45:00 AM 2.77 36.986 0.037 7.52 4.2 12.67
12/7/2020 1:00:00 AM 2.75 36.95 0.036 7.52 4.19 12.67
12/7/2020 1:15:00 AM 2.75 36.95 0.036 7.52 4.24 12.67
12/7/2020 1:30:00 AM 2.74 36.932 0.036 7.52 4.2 12.69
12/7/2020 1:45:00 AM 2.73 36.914 0.036 7.52 4.23 12.7
12/7/2020 2:00:00 AM 2.72 36.896 0.036 7.52 4.17 12.68
12/7/2020 2:15:00 AM 2.71 36.878 0.036 7.52 4.21 12.68
12/7/2020 2:30:00 AM 2.71 36.878 0.036 7.51 4.18 12.7
12/7/2020 2:45:00 AM 2.69 36.842 0.036 7.51 4.11 12.7
12/7/2020 3:00:00 AM 2.69 36.842 0.036 7.51 4.25 12.7
12/7/2020 3:15:00 AM 2.68 36.824 0.036 7.51 4.21 12.7
12/7/2020 3:30:00 AM 2.66 36.788 0.036 7.51 4.12 12.72
12/7/2020 3:45:00 AM 2.65 36.77 0.036 7.51 4.11 12.72
12/7/2020 4:00:00 AM 2.65 36.77 0.036 7.51 4.18 12.71
12/7/2020 4:15:00 AM 2.63 36.734 0.036 7.51 4.08 12.72
12/7/2020 4:30:00 AM 2.62 36.716 0.036 7.51 4.32 12.72
12/7/2020 4:45:00 AM 2.61 36.698 0.036 7.51 4.15 12.73
12/7/2020 5:00:00 AM 2.6 36.68 0.036 7.51 4.28 12.73
12/7/2020 5:15:00 AM 2.59 36.662 0.036 7.51 4.24 12.73
12/7/2020 5:30:00 AM 2.59 36.662 0.036 7.51 4.23 12.74
12/7/2020 5:45:00 AM 2.59 36.662 0.036 7.51 4.24 12.73
12/7/2020 6:00:00 AM 2.58 36.644 0.036 7.51 4.35 12.75
12/7/2020 6:15:00 AM 2.58 36.644 0.036 7.51 4.21 12.73
12/7/2020 6:30:00 AM 2.57 36.626 0.036 7.5 4.17 12.74
12/7/2020 6:45:00 AM 2.55 36.59 0.036 7.5 4.26 12.74
12/7/2020 7:00:00 AM 2.53 36.554 0.036 7.5 4.11 12.74
12/7/2020 7:15:00 AM 2.51 36.518 0.035 7.5 4.24 12.76
12/7/2020 7:30:00 AM 2.48 36.464 0.036 7.51 4.19 12.81
12/7/2020 7:45:00 AM 2.47 36.446 0.036 7.52 4.25 12.9
12/7/2020 8:00:00 AM 2.47 36.446 0.036 7.54 4.29 13.03
12/7/2020 8:15:00 AM 2.47 36.446 0.036 7.58 4.13 13.21
12/7/2020 8:30:00 AM 2.49 36.482 0.036 7.61 4.18 13.41
12/7/2020 8:45:00 AM 2.5 36.5 0.036 7.66 4.32 13.61
12/7/2020 9:00:00 AM 2.53 36.554 0.036 7.7 4.16 13.83
12/7/2020 9:15:00 AM 2.53 36.554 0.036 7.77 4.3 14.04
12/7/2020 9:30:00 AM 2.51 36.518 0.036 7.82 4.21 14.19
12/7/2020 9:45:00 AM 2.51 36.518 0.037 7.88 4.17 14.31
12/7/2020 10:00:00 AM 2.58 36.644 0.037 7.96 4.29 14.54
12/7/2020 10:15:00 AM 2.67 36.806 0.037 8.04 4.26 14.71
12/7/2020 10:30:00 AM 2.76 36.968 0.038 8.13 4.23 14.86
12/7/2020 10:45:00 AM 2.8 37.04 0.038 8.19 4.22 14.93
12/7/2020 11:00:00 AM 2.89 37.202 0.039 8.26 4.28 15.03
12/7/2020 11:15:00 AM 2.97 37.346 0.039 8.33 4.26 15.1
12/7/2020 11:30:00 AM 3.03 37.454 0.039 8.38 4.2 15.15
12/7/2020 11:45:00 AM 3.1 37.58 0.039 8.43 4.25 15.18
12/7/2020 12:00:00 PM 3.21 37.778 0.038 8.48 4.18 15.24
12/7/2020 12:15:00 PM 3.29 37.922 0.04 8.52 4.2 15.26
12/7/2020 12:30:00 PM 3.34 38.012 0.04 8.56 4.28 15.25
12/7/2020 12:45:00 PM 3.42 38.156 0.039 8.58 4.22 15.24
12/7/2020 1:00:00 PM 3.49 38.282 0.041 8.61 4.17 15.22
12/7/2020 1:15:00 PM 3.55 38.39 0.041 8.64 4.2 15.22
12/7/2020 1:30:00 PM 3.58 38.444 0.042 8.66 4.22 15.18
12/7/2020 1:45:00 PM 3.61 38.498 0.042 8.67 4.18 15.14
12/7/2020 2:00:00 PM 3.63 38.534 0.041 8.68 4.17 15.09
12/7/2020 2:15:00 PM 3.67 38.606 0.041 8.7 4.22 15.08
12/7/2020 2:30:00 PM 3.66 38.588 0.041 8.7 4.27 15.02
12/7/2020 2:45:00 PM 3.65 38.57 0.042 8.7 4.19 14.94
12/7/2020 3:00:00 PM 3.63 38.534 0.042 8.69 4.24 14.86
12/7/2020 3:15:00 PM 3.59 38.462 0.042 8.66 4.24 14.71
12/7/2020 3:30:00 PM 3.52 38.336 0.042 8.62 4.13 14.54
12/7/2020 3:45:00 PM 3.46 38.228 0.042 8.56 4.23 14.33
12/7/2020 4:00:00 PM 3.39 38.102 0.043 8.48 4.24 14.14
12/7/2020 4:15:00 PM 3.33 37.994 0.042 8.38 4.33 13.92
12/7/2020 4:30:00 PM 3.28 37.904 0.042 8.28 4.25 13.72
12/7/2020 4:45:00 PM 3.24 37.832 0.042 8.17 4.32 13.51
12/7/2020 5:00:00 PM 3.19 37.742 0.042 8.07 4.27 13.33
12/7/2020 5:15:00 PM 3.17 37.706 0.042 7.98 4.23 13.18
12/7/2020 5:30:00 PM 3.14 37.652 0.042 7.91 4.28 13.06
12/7/2020 5:45:00 PM 3.09 37.562 0.041 7.85 4.2 12.95
12/7/2020 6:00:00 PM 3.08 37.544 0.041 7.81 4.29 12.88
12/7/2020 6:15:00 PM 3.06 37.508 0.041 7.77 4.29 12.82
12/7/2020 6:30:00 PM 3.05 37.49 0.041 7.74 4.2 12.77
12/7/2020 6:45:00 PM 3.03 37.454 0.041 7.71 4.33 12.72
12/7/2020 7:00:00 PM 3.03 37.454 0.041 7.7 4.17 12.7
12/7/2020 7:15:00 PM 3.01 37.418 0.042 7.67 4.26 12.66
12/7/2020 7:30:00 PM 3 37.4 0.041 7.66 4.22 12.65
12/7/2020 7:45:00 PM 2.98 37.364 0.041 7.64 4.29 12.64
12/7/2020 8:00:00 PM 2.96 37.328 0.041 7.63 4.2 12.62
12/7/2020 8:15:00 PM 2.94 37.292 0.042 7.62 4.22 12.61
12/7/2020 8:30:00 PM 2.92 37.256 0.042 7.61 4.3 12.61
12/7/2020 8:45:00 PM 2.91 37.238 0.04 7.6 4.27 12.6
12/7/2020 9:00:00 PM 2.89 37.202 0.041 7.59 4.23 12.59
12/7/2020 9:15:00 PM 2.87 37.166 0.041 7.59 4.26 12.6
12/7/2020 9:30:00 PM 2.85 37.13 0.04 7.58 4.19 12.61
12/7/2020 9:45:00 PM 2.83 37.094 0.041 7.58 4.21 12.61
12/7/2020 10:00:00 PM 2.81 37.058 0.041 7.57 4.22 12.6
12/7/2020 10:15:00 PM 2.79 37.022 0.041 7.56 4.15 12.6
12/7/2020 10:30:00 PM 2.78 37.004 0.041 7.56 4.29 12.61
12/7/2020 10:45:00 PM 2.76 36.968 0.039 7.56 4.15 12.61
12/7/2020 11:00:00 PM 2.75 36.95 0.041 7.55 4.1 12.62
12/7/2020 11:15:00 PM 2.73 36.914 0.041 7.55 4.16 12.63
12/7/2020 11:30:00 PM 2.72 36.896 0.04 7.55 4.17 12.62
12/7/2020 11:45:00 PM 2.7 36.86 0.04 7.54 4.21 12.63
12/8/2020 12:00:00 AM 2.69 36.842 0.04 7.53 4.23 12.65
12/8/2020 12:15:00 AM 2.66 36.788 0.04 7.54 4.28 12.65
12/8/2020 12:30:00 AM 2.64 36.752 0.04 7.53 4.09 12.65
12/8/2020 12:45:00 AM 2.63 36.734 0.04 7.54 4.2 12.67
12/8/2020 1:00:00 AM 2.61 36.698 0.041 7.53 4.18 12.66
12/8/2020 1:15:00 AM 2.59 36.662 0.041 7.53 4.13 12.67
12/8/2020 1:30:00 AM 2.57 36.626 0.04 7.52 4.16 12.68
12/8/2020 1:45:00 AM 2.55 36.59 0.04 7.53 4.12 12.68
12/8/2020 2:00:00 AM 2.54 36.572 0.039 7.52 4.15 12.68
12/8/2020 2:15:00 AM 2.52 36.536 0.039 7.52 4.23 12.7
12/8/2020 2:30:00 AM 2.51 36.518 0.04 7.52 4.16 12.7
12/8/2020 2:45:00 AM 2.5 36.5 0.039 7.52 4.15 12.7
12/8/2020 3:00:00 AM 2.47 36.446 0.039 7.52 4.2 12.72
12/8/2020 3:15:00 AM 2.45 36.41 0.04 7.52 4.22 12.72
12/8/2020 3:30:00 AM 2.43 36.374 0.04 7.52 4.26 12.74
12/8/2020 3:45:00 AM 2.4 36.32 0.04 7.51 4.22 12.73
12/8/2020 4:00:00 AM 2.39 36.302 0.04 7.51 4.16 12.73
12/8/2020 4:15:00 AM 2.37 36.266 0.04 7.51 4.18 12.75
12/8/2020 4:30:00 AM 2.35 36.23 0.04 7.51 4.14 12.75
12/8/2020 4:45:00 AM 2.32 36.176 0.04 7.51 4.24 12.76
12/8/2020 5:00:00 AM 2.3 36.14 0.04 7.51 4.27 12.77
12/8/2020 5:15:00 AM 2.29 36.122 0.04 7.51 4.24 12.78
12/8/2020 5:30:00 AM 2.28 36.104 0.04 7.51 4.26 12.77
12/8/2020 5:45:00 AM 2.26 36.068 0.039 7.51 4.24 12.78
12/8/2020 6:00:00 AM 2.25 36.05 0.039 7.51 4.27 12.79
12/8/2020 6:15:00 AM 2.23 36.014 0.039 7.51 4.2 12.8
12/8/2020 6:30:00 AM 2.22 35.996 0.04 7.51 4.12 12.81
12/8/2020 6:45:00 AM 2.2 35.96 0.039 7.51 4.15 12.81
12/8/2020 7:00:00 AM 2.2 35.96 0.039 7.51 4.19 12.82
12/8/2020 7:15:00 AM 2.19 35.942 0.039 7.51 4.15 12.83
12/8/2020 7:30:00 AM 2.17 35.906 0.038 7.51 4.1 12.86
12/8/2020 7:45:00 AM 2.17 35.906 0.039 7.51 4.18 12.89
12/8/2020 8:00:00 AM 2.16 35.888 0.04 7.52 4.18 12.95
12/8/2020 8:15:00 AM 2.15 35.87 0.039 7.53 4.22 13.02
12/8/2020 8:30:00 AM 2.15 35.87 0.039 7.56 4.2 13.15
12/8/2020 8:45:00 AM 2.16 35.888 0.039 7.59 4.15 13.37
12/8/2020 9:00:00 AM 2.18 35.924 0.038 7.62 4.29 13.53
12/8/2020 9:15:00 AM 2.19 35.942 0.038 7.67 4.24 13.74
12/8/2020 9:30:00 AM 2.21 35.978 0.039 7.73 4.26 13.99
12/8/2020 9:45:00 AM 2.24 36.032 0.039 7.78 4.25 14.22
12/8/2020 10:00:00 AM 2.29 36.122 0.04 7.86 4.28 14.44
12/8/2020 10:15:00 AM 2.35 36.23 0.04 7.95 4.32 14.66
12/8/2020 10:30:00 AM 2.42 36.356 0.04 8.04 4.2 14.82
12/8/2020 10:45:00 AM 2.44 36.392 0.04 8.11 4.27 14.96
12/8/2020 11:00:00 AM 2.45 36.41 0.04 8.17 4.22 15.01
12/8/2020 11:15:00 AM 2.46 36.428 0.04 8.22 4.23 15.04
12/8/2020 11:30:00 AM 2.47 36.446 0.039 8.26 4.21 15.08
12/8/2020 11:45:00 AM 2.49 36.482 0.039 8.3 4.18 15.13
12/8/2020 12:00:00 PM 2.54 36.572 0.04 8.35 4.22 15.18
12/8/2020 12:15:00 PM 2.61 36.698 0.041 8.4 4.18 15.23
12/8/2020 12:30:00 PM 2.67 36.806 0.041 8.44 4.28 15.26
12/8/2020 12:45:00 PM 2.71 36.878 0.04 8.46 4.25 15.18
12/8/2020 1:00:00 PM 2.71 36.878 0.04 8.45 4.31 15.05
12/8/2020 1:15:00 PM 2.72 36.896 0.041 8.46 4.18 15.03
12/8/2020 1:30:00 PM 2.77 36.986 0.041 8.47 4.22 15.01
12/8/2020 1:45:00 PM 2.81 37.058 0.041 8.47 4.25 14.94
12/8/2020 2:00:00 PM 2.84 37.112 0.041 8.45 4.48 14.83
12/8/2020 2:15:00 PM 2.83 37.094 0.041 8.43 4.23 14.75
12/8/2020 2:30:00 PM 2.83 37.094 0.041 8.4 4.2 14.66
12/8/2020 2:45:00 PM 2.8 37.04 0.041 8.39 4.27 14.59
12/8/2020 3:00:00 PM 2.76 36.968 0.041 8.36 4.29 14.51
12/8/2020 3:15:00 PM 2.72 36.896 0.04 8.32 4.17 14.44
12/8/2020 3:30:00 PM 2.67 36.806 0.041 8.28 4.2 14.35
12/8/2020 3:45:00 PM 2.62 36.716 0.042 8.24 4.21 14.27
12/8/2020 4:00:00 PM 2.59 36.662 0.04 8.19 4.17 14.16
12/8/2020 4:15:00 PM 2.54 36.572 0.041 8.12 4.14 14.02
12/8/2020 4:30:00 PM 2.5 36.5 0.04 8.04 4.28 13.86
12/8/2020 4:45:00 PM 2.46 36.428 0.04 7.97 4.32 13.69
12/8/2020 5:00:00 PM 2.4 36.32 0.04 7.9 4.33 13.55
12/8/2020 5:15:00 PM 2.35 36.23 0.04 7.85 4.25 13.43
12/8/2020 5:30:00 PM 2.3 36.14 0.042 7.8 4.31 13.34
12/8/2020 5:45:00 PM 2.25 36.05 0.04 7.76 4.28 13.25
12/8/2020 6:00:00 PM 2.2 35.96 0.04 7.73 4.29 13.19
12/8/2020 6:15:00 PM 2.16 35.888 0.04 7.7 4.19 13.13
12/8/2020 6:30:00 PM 2.12 35.816 0.039 7.68 4.3 13.1
12/8/2020 6:45:00 PM 2.07 35.726 0.039 7.66 4.29 13.07
12/8/2020 7:00:00 PM 2.03 35.654 0.039 7.64 4.27 13.06
12/8/2020 7:15:00 PM 1.99 35.582 0.039 7.62 4.29 13.05
12/8/2020 7:30:00 PM 1.94 35.492 0.04 7.61 4.39 13.05
12/8/2020 7:45:00 PM 1.91 35.438 0.039 7.6 4.3 13.03
12/8/2020 8:00:00 PM 1.89 35.402 0.039 7.59 4.24 13.03
12/8/2020 8:15:00 PM 1.85 35.33 0.039 7.58 4.34 13.03
12/8/2020 8:30:00 PM 1.8 35.24 0.039 7.58 4.28 13.02
12/8/2020 8:45:00 PM 1.76 35.168 0.039 7.57 4.27 13.04
12/8/2020 9:00:00 PM 1.72 35.096 0.04 7.57 4.34 13.05
12/8/2020 9:15:00 PM 1.67 35.006 0.04 7.56 4.22 13.06
12/8/2020 9:30:00 PM 1.63 34.934 0.04 7.56 4.24 13.06
12/8/2020 9:45:00 PM 1.57 34.826 0.04 7.55 4.25 13.07
12/8/2020 10:00:00 PM 1.53 34.754 0.039 7.54 4.26 13.09
12/8/2020 10:15:00 PM 1.5 34.7 0.04 7.54 4.36 13.12
12/8/2020 10:30:00 PM 1.45 34.61 0.04 7.53 4.26 13.13
12/8/2020 10:45:00 PM 1.44 34.592 0.038 7.53 4.25 13.14
12/8/2020 11:00:00 PM 1.43 34.574 0.038 7.53 4.32 13.15
12/8/2020 11:15:00 PM 1.42 34.556 0.039 7.53 4.36 13.17
12/8/2020 11:30:00 PM 1.4 34.52 0.039 7.52 4.18 13.18
12/8/2020 11:45:00 PM 1.4 34.52 0.038 7.52 4.19 13.18
12/9/2020 12:00:00 AM 1.39 34.502 0.039 7.51 4.31 13.19
12/9/2020 12:15:00 AM 1.38 34.484 0.039 7.51 4.23 13.2
12/9/2020 12:30:00 AM 1.37 34.466 0.039 7.51 4.27 13.21
12/9/2020 12:45:00 AM 1.33 34.394 0.038 7.51 4.53 13.22
12/9/2020 1:00:00 AM 1.31 34.358 0.039 7.51 4.25 13.22
12/9/2020 1:15:00 AM 1.31 34.358 0.038 7.51 4.28 13.23
12/9/2020 1:30:00 AM 1.3 34.34 0.038 7.51 4.18 13.24
12/9/2020 1:45:00 AM 1.29 34.322 0.038 7.51 4.25 13.25
12/9/2020 2:00:00 AM 1.28 34.304 0.037 7.5 4.08 13.26
12/9/2020 2:15:00 AM 1.27 34.286 0.037 7.5 4.19 13.24
12/9/2020 2:30:00 AM 1.26 34.268 0.037 7.5 4.3 13.25
12/9/2020 2:45:00 AM 1.25 34.25 0.038 7.5 4.23 13.26
12/9/2020 3:00:00 AM 1.24 34.232 0.038 7.49 4.27 13.27
12/9/2020 3:15:00 AM 1.24 34.232 0.038 7.5 4.23 13.26
12/9/2020 3:30:00 AM 1.23 34.214 0.037 7.5 4.22 13.26
12/9/2020 3:45:00 AM 1.23 34.214 0.038 7.5 4.29 13.27
12/9/2020 4:00:00 AM 1.22 34.196 0.037 7.5 4.31 13.26
12/9/2020 4:15:00 AM 1.22 34.196 0.037 7.5 4.3 13.26
12/9/2020 4:30:00 AM 1.22 34.196 0.037 7.5 4.26 13.27
12/9/2020 4:45:00 AM 1.23 34.214 0.037 7.5 4.32 13.26
12/9/2020 5:00:00 AM 1.22 34.196 0.037 7.5 4.2 13.26
12/9/2020 5:15:00 AM 1.22 34.196 0.038 7.5 4.19 13.28
12/9/2020 5:30:00 AM 1.23 34.214 0.037 7.5 4.21 13.27
12/9/2020 5:45:00 AM 1.23 34.214 0.037 7.5 4.24 13.25
12/9/2020 6:00:00 AM 1.24 34.232 0.038 7.5 4.24 13.25
12/9/2020 6:15:00 AM 1.25 34.25 0.038 7.5 4.17 13.26
12/9/2020 6:30:00 AM 1.26 34.268 0.038 7.5 4.29 13.25
12/9/2020 6:45:00 AM 1.27 34.286 0.037 7.5 4.26 13.26
12/9/2020 7:00:00 AM 1.28 34.304 0.037 7.49 4.26 13.24
12/9/2020 7:15:00 AM 1.3 34.34 0.037 7.5 4.24 13.24
12/9/2020 7:30:00 AM 1.32 34.376 0.037 7.5 4.16 13.25
12/9/2020 7:45:00 AM 1.34 34.412 0.038 7.51 4.24 13.26
12/9/2020 8:00:00 AM 1.33 34.394 0.038 7.51 4.25 13.29
12/9/2020 8:15:00 AM 1.29 34.322 0.038 7.53 4.29 13.34
12/9/2020 8:30:00 AM 1.17 34.106 0.038 7.54 4.31 13.41
12/9/2020 8:45:00 AM 1.05 33.89 0.04 7.55 4.32 13.5
12/9/2020 9:00:00 AM 0.91 33.638 0.039 7.57 4.41 13.58
12/9/2020 9:15:00 AM 0.8 33.44 0.038 7.58 4.25 13.68
12/9/2020 9:30:00 AM 0.68 33.224 0.037 7.6 4.25 13.84
12/9/2020 9:45:00 AM 0.49 32.882 0.038 7.62 4.31 13.95
12/9/2020 10:00:00 AM 0.47 32.846 0.038 7.63 4.3 14.02
12/9/2020 10:15:00 AM 0.46 32.828 0.038 7.64 4.34 14.12
12/9/2020 10:30:00 AM 0.43 32.774 0.039 7.68 4.33 14.33
12/9/2020 10:45:00 AM 0.43 32.774 0.038 7.72 4.39 14.5
12/9/2020 11:00:00 AM 0.51 32.918 0.038 7.75 4.32 14.67
12/9/2020 11:15:00 AM 0.6 33.08 0.038 7.8 4.31 14.84
12/9/2020 11:30:00 AM 0.67 33.206 0.038 7.86 4.34 14.94
12/9/2020 11:45:00 AM 0.73 33.314 0.039 7.9 4.31 15.05
12/9/2020 12:00:00 PM 0.78 33.404 0.039 7.96 4.27 15.16
12/9/2020 12:15:00 PM 0.82 33.476 0.039 8.01 4.33 15.25
12/9/2020 12:30:00 PM 0.88 33.584 0.038 8.06 4.33 15.27
12/9/2020 12:45:00 PM 0.93 33.674 0.039 8.09 4.24 15.29
12/9/2020 1:00:00 PM 1.01 33.818 0.04 8.12 4.32 15.35
12/9/2020 1:15:00 PM 1.08 33.944 0.039 8.16 4.33 15.36
12/9/2020 1:30:00 PM 1.14 34.052 0.04 8.18 4.34 15.36
12/9/2020 1:45:00 PM 1.23 34.214 0.039 8.23 4.24 15.41
12/9/2020 2:00:00 PM 1.28 34.304 0.039 8.23 4.33 15.38
12/9/2020 2:15:00 PM 1.34 34.412 0.04 8.26 4.2 15.36
12/9/2020 2:30:00 PM 1.4 34.52 0.041 8.29 4.29 15.37
12/9/2020 2:45:00 PM 1.47 34.646 0.041 8.29 4.27 15.27
12/9/2020 3:00:00 PM 1.5 34.7 0.041 8.23 4.31 15.04
12/9/2020 3:15:00 PM 1.54 34.772 0.042 8.18 4.32 14.88
12/9/2020 3:30:00 PM 1.57 34.826 0.042 8.12 4.37 14.68
12/9/2020 3:45:00 PM 1.6 34.88 0.041 8.04 4.35 14.47
12/9/2020 4:00:00 PM 1.62 34.916 0.042 7.97 4.38 14.29
12/9/2020 4:15:00 PM 1.64 34.952 0.043 7.9 4.31 14.12
12/9/2020 4:30:00 PM 1.65 34.97 0.043 7.84 4.27 13.96
12/9/2020 4:45:00 PM 1.67 35.006 0.042 7.8 4.29 13.81
12/9/2020 5:00:00 PM 1.69 35.042 0.043 7.76 4.28 13.7
12/9/2020 5:15:00 PM 1.71 35.078 0.043 7.72 4.3 13.59
12/9/2020 5:30:00 PM 1.73 35.114 0.042 7.7 4.31 13.5
12/9/2020 5:45:00 PM 1.75 35.15 0.042 7.67 4.29 13.41
12/9/2020 6:00:00 PM 1.77 35.186 0.043 7.65 4.29 13.37
12/9/2020 6:15:00 PM 1.79 35.222 0.042 7.64 4.35 13.32
12/9/2020 6:30:00 PM 1.81 35.258 0.042 7.62 4.29 13.27
12/9/2020 6:45:00 PM 1.84 35.312 0.042 7.61 4.32 13.25
12/9/2020 7:00:00 PM 1.86 35.348 0.042 7.6 4.39 13.21
12/9/2020 7:15:00 PM 1.89 35.402 0.042 7.59 4.34 13.19
12/9/2020 7:30:00 PM 1.91 35.438 0.043 7.58 4.34 13.15
12/9/2020 7:45:00 PM 1.94 35.492 0.043 7.58 4.35 13.12
12/9/2020 8:00:00 PM 1.97 35.546 0.042 7.57 4.24 13.1
12/9/2020 8:15:00 PM 1.99 35.582 0.044 7.57 4.26 13.07
12/9/2020 8:30:00 PM 2.02 35.636 0.043 7.55 4.26 13.05
12/9/2020 8:45:00 PM 2.04 35.672 0.044 7.56 4.25 13.03
12/9/2020 9:00:00 PM 2.07 35.726 0.043 7.55 4.28 13.03
12/9/2020 9:15:00 PM 2.11 35.798 0.044 7.55 4.27 13.01
12/9/2020 9:30:00 PM 2.14 35.852 0.045 7.55 4.27 12.98
12/9/2020 9:45:00 PM 2.17 35.906 0.045 7.54 4.28 12.96
12/9/2020 10:00:00 PM 2.21 35.978 0.044 7.54 4.29 12.94
12/9/2020 10:15:00 PM 2.23 36.014 0.045 7.54 4.25 12.92
12/9/2020 10:30:00 PM 2.26 36.068 0.046 7.53 4.19 12.91
12/9/2020 10:45:00 PM 2.29 36.122 0.045 7.53 4.28 12.89
12/9/2020 11:00:00 PM 2.32 36.176 0.045 7.53 4.28 12.88
12/9/2020 11:15:00 PM 2.35 36.23 0.045 7.53 4.23 12.87
12/9/2020 11:30:00 PM 2.38 36.284 0.044 7.53 4.27 12.86
12/9/2020 11:45:00 PM 2.4 36.32 0.045 7.53 4.24 12.85
12/10/2020 12:00:00 AM 2.43 36.374 0.045 7.52 4.14 12.83
12/10/2020 12:15:00 AM 2.45 36.41 0.045 7.52 4.27 12.82
12/10/2020 12:30:00 AM 2.47 36.446 0.045 7.52 4.21 12.82
12/10/2020 12:45:00 AM 2.49 36.482 0.045 7.51 4.27 12.8
12/10/2020 1:00:00 AM 2.51 36.518 0.045 7.52 4.19 12.79
12/10/2020 1:15:00 AM 2.53 36.554 0.045 7.51 4.31 12.79
12/10/2020 1:30:00 AM 2.54 36.572 0.045 7.51 4.18 12.79
12/10/2020 1:45:00 AM 2.56 36.608 0.045 7.51 4.25 12.77
12/10/2020 2:00:00 AM 2.57 36.626 0.046 7.51 4.14 12.77
12/10/2020 2:15:00 AM 2.59 36.662 0.046 7.51 4.15 12.76
12/10/2020 2:30:00 AM 2.6 36.68 0.048 7.51 4.13 12.75
12/10/2020 2:45:00 AM 2.62 36.716 0.047 7.51 4.15 12.76
12/10/2020 3:00:00 AM 2.63 36.734 0.047 7.5 4.21 12.75
12/10/2020 3:15:00 AM 2.64 36.752 0.047 7.5 4.22 12.75
12/10/2020 3:30:00 AM 2.65 36.77 0.047 7.49 4.17 12.74
12/10/2020 3:45:00 AM 2.67 36.806 0.047 7.5 4.17 12.74
12/10/2020 4:00:00 AM 2.68 36.824 0.047 7.5 4.17 12.73
12/10/2020 4:15:00 AM 2.69 36.842 0.047 7.5 4.1 12.74
12/10/2020 4:30:00 AM 2.71 36.878 0.048 7.5 4.26 12.73
12/10/2020 4:45:00 AM 2.72 36.896 0.047 7.5 4.2 12.73
12/10/2020 5:00:00 AM 2.73 36.914 0.048 7.49 4.29 12.73
12/10/2020 5:15:00 AM 2.75 36.95 0.047 7.49 4.19 12.73
12/10/2020 5:30:00 AM 2.76 36.968 0.048 7.49 4.18 12.72
12/10/2020 5:45:00 AM 2.77 36.986 0.048 7.49 4.18 12.72
12/10/2020 6:00:00 AM 2.78 37.004 0.049 7.49 4.16 12.72
12/10/2020 6:15:00 AM 2.79 37.022 0.047 7.49 4.24 12.71
12/10/2020 6:30:00 AM 2.79 37.022 0.048 7.49 4.11 12.72
12/10/2020 6:45:00 AM 2.8 37.04 0.048 7.49 4.24 12.71
12/10/2020 7:00:00 AM 2.79 37.022 0.048 7.49 4.19 12.7
12/10/2020 7:15:00 AM 2.79 37.022 0.047 7.49 4.23 12.73
12/10/2020 7:30:00 AM 2.8 37.04 0.048 7.5 4.23 12.78
12/10/2020 7:45:00 AM 2.81 37.058 0.05 7.51 4.29 12.85
12/10/2020 8:00:00 AM 2.81 37.058 0.049 7.53 4.17 13.01
12/10/2020 8:15:00 AM 2.84 37.112 0.049 7.57 4.22 13.21
12/10/2020 8:30:00 AM 2.87 37.166 0.048 7.61 4.22 13.42
12/10/2020 8:45:00 AM 2.9 37.22 0.05 7.65 4.15 13.66
12/10/2020 9:00:00 AM 2.94 37.292 0.049 7.7 4.19 13.88
12/10/2020 9:15:00 AM 3 37.4 0.049 7.78 4.25 14.14
12/10/2020 9:30:00 AM 3.07 37.526 0.05 7.85 4.23 14.36
12/10/2020 9:45:00 AM 3.15 37.67 0.05 7.94 4.28 14.58
12/10/2020 10:00:00 AM 3.22 37.796 0.051 8.02 4.24 14.74
12/10/2020 10:15:00 AM 3.3 37.94 0.051 8.1 4.2 14.87
12/10/2020 10:30:00 AM 3.4 38.12 0.051 8.19 4.19 15.01
12/10/2020 10:45:00 AM 3.49 38.282 0.052 8.27 4.21 15.1
12/10/2020 11:00:00 AM 3.57 38.426 0.053 8.33 4.19 15.14
12/10/2020 11:15:00 AM 3.62 38.516 0.052 8.38 4.21 15.15
12/10/2020 11:30:00 AM 3.7 38.66 0.053 8.43 4.06 15.2
12/10/2020 11:45:00 AM 3.76 38.768 0.052 8.47 4.42 15.19
12/10/2020 12:00:00 PM 3.81 38.858 0.053 8.5 4.29 15.17
12/10/2020 12:15:00 PM 3.87 38.966 0.054 8.53 4.2 15.18
12/10/2020 12:30:00 PM 3.93 39.074 0.054 8.57 4.17 15.18
12/10/2020 12:45:00 PM 3.97 39.146 0.053 8.58 4.12 15.15
12/10/2020 1:00:00 PM 4.02 39.236 0.053 8.61 4.11 15.14
12/10/2020 1:15:00 PM 4.11 39.398 0.055 8.63 4.21 15.17
12/10/2020 1:30:00 PM 4.16 39.488 0.055 8.67 4.11 15.17
12/10/2020 1:45:00 PM 4.23 39.614 0.054 8.69 4.13 15.18
12/10/2020 2:00:00 PM 4.28 39.704 0.055 8.71 4.2 15.16
12/10/2020 2:15:00 PM 4.31 39.758 0.055 8.73 4.13 15.13
12/10/2020 2:30:00 PM 4.31 39.758 0.055 8.73 4.25 15.04
12/10/2020 2:45:00 PM 4.32 39.776 0.055 8.72 4.34 14.94
12/10/2020 3:00:00 PM 4.31 39.758 0.056 8.71 4.17 14.79
12/10/2020 3:15:00 PM 4.31 39.758 0.056 8.69 4.17 14.68
12/10/2020 3:30:00 PM 4.28 39.704 0.055 8.65 4.29 14.5
12/10/2020 3:45:00 PM 4.23 39.614 0.056 8.57 4.29 14.28
12/10/2020 4:00:00 PM 4.18 39.524 0.056 8.5 4.24 14.08
12/10/2020 4:15:00 PM 4.13 39.434 0.056 8.41 4.21 13.88
12/10/2020 4:30:00 PM 4.08 39.344 0.056 8.3 4.14 13.66
12/10/2020 4:45:00 PM 4.02 39.236 0.055 8.19 4.23 13.45
12/10/2020 5:00:00 PM 3.96 39.128 0.054 8.08 4.3 13.25
12/10/2020 5:15:00 PM 3.9 39.02 0.054 7.99 4.27 13.09
12/10/2020 5:30:00 PM 3.84 38.912 0.054 7.91 4.25 12.96
12/10/2020 5:45:00 PM 3.79 38.822 0.054 7.86 4.13 12.87
12/10/2020 6:00:00 PM 3.73 38.714 0.054 7.8 4.2 12.79
12/10/2020 6:15:00 PM 3.67 38.606 0.054 7.76 4.14 12.72
12/10/2020 6:30:00 PM 3.62 38.516 0.053 7.73 4.24 12.69
12/10/2020 6:45:00 PM 3.57 38.426 0.054 7.7 4.15 12.64
12/10/2020 7:00:00 PM 3.51 38.318 0.053 7.68 4.25 12.61
12/10/2020 7:15:00 PM 3.46 38.228 0.053 7.66 4.19 12.6
12/10/2020 7:30:00 PM 3.42 38.156 0.052 7.64 4.26 12.61
12/10/2020 7:45:00 PM 3.36 38.048 0.052 7.63 4.22 12.59
12/10/2020 8:00:00 PM 3.31 37.958 0.053 7.61 4.29 12.6
12/10/2020 8:15:00 PM 3.26 37.868 0.052 7.6 4.13 12.6
12/10/2020 8:30:00 PM 3.22 37.796 0.052 7.59 4.24 12.62
12/10/2020 8:45:00 PM 3.17 37.706 0.051 7.58 4.14 12.61
12/10/2020 9:00:00 PM 3.13 37.634 0.051 7.58 4.34 12.61
12/10/2020 9:15:00 PM 3.08 37.544 0.051 7.56 4.11 12.62
12/10/2020 9:30:00 PM 3.05 37.49 0.051 7.56 4.3 12.62
12/10/2020 9:45:00 PM 3.02 37.436 0.052 7.55 4.19 12.65
12/10/2020 10:00:00 PM 2.99 37.382 0.051 7.55 4.14 12.65
12/10/2020 10:15:00 PM 2.96 37.328 0.051 7.54 4.14 12.65
12/10/2020 10:30:00 PM 2.92 37.256 0.051 7.54 4.16 12.67
12/10/2020 10:45:00 PM 2.89 37.202 0.051 7.53 4.16 12.68
12/10/2020 11:00:00 PM 2.84 37.112 0.051 7.53 4.13 12.7
12/10/2020 11:15:00 PM 2.79 37.022 0.048 7.53 4.21 12.73
12/10/2020 11:30:00 PM 2.73 36.914 0.049 7.52 4.18 12.72
12/10/2020 11:45:00 PM 2.68 36.824 0.05 7.51 4.23 12.75
12/11/2020 12:00:00 AM 2.62 36.716 0.049 7.51 4.19 12.75
12/11/2020 12:15:00 AM 2.56 36.608 0.048 7.51 4.05 12.78
12/11/2020 12:30:00 AM 2.5 36.5 0.049 7.51 4.16 12.8
12/11/2020 12:45:00 AM 2.45 36.41 0.048 7.51 4.26 12.83
12/11/2020 1:00:00 AM 2.39 36.302 0.048 7.5 4.15 12.85
12/11/2020 1:15:00 AM 2.34 36.212 0.048 7.5 4.2 12.87
12/11/2020 1:30:00 AM 2.29 36.122 0.048 7.5 4.31 12.89
12/11/2020 1:45:00 AM 2.24 36.032 0.048 7.49 4.24 12.92
12/11/2020 2:00:00 AM 2.18 35.924 0.046 7.49 4.09 12.94
12/11/2020 2:15:00 AM 2.13 35.834 0.048 7.49 4.05 12.94
12/11/2020 2:30:00 AM 2.08 35.744 0.047 7.5 4.11 12.98
12/11/2020 2:45:00 AM 2.03 35.654 0.047 7.49 4.19 13
12/11/2020 3:00:00 AM 1.98 35.564 0.048 7.49 4.11 13.03
12/11/2020 3:15:00 AM 1.94 35.492 0.046 7.49 4.14 13.04
12/11/2020 3:30:00 AM 1.89 35.402 0.046 7.49 4.14 13.07
12/11/2020 3:45:00 AM 1.84 35.312 0.045 7.49 4.16 13.08
12/11/2020 4:00:00 AM 1.8 35.24 0.046 7.49 4.15 13.09
12/11/2020 4:15:00 AM 1.75 35.15 0.046 7.49 4.1 13.11
12/11/2020 4:30:00 AM 1.7 35.06 0.046 7.49 4.16 13.13
12/11/2020 4:45:00 AM 1.66 34.988 0.046 7.49 4.22 13.15
12/11/2020 5:00:00 AM 1.62 34.916 0.046 7.48 4.15 13.17
12/11/2020 5:15:00 AM 1.58 34.844 0.045 7.49 4.28 13.2
12/11/2020 5:30:00 AM 1.54 34.772 0.045 7.49 4.25 13.22
12/11/2020 5:45:00 AM 1.5 34.7 0.045 7.48 4.16 13.21
12/11/2020 6:00:00 AM 1.47 34.646 0.046 7.48 4.17 13.23
12/11/2020 6:15:00 AM 1.43 34.574 0.045 7.48 4.22 13.25
12/11/2020 6:30:00 AM 1.4 34.52 0.044 7.48 4.11 13.27
12/11/2020 6:45:00 AM 1.37 34.466 0.045 7.48 4.18 13.26
12/11/2020 7:00:00 AM 1.34 34.412 0.044 7.48 4.16 13.28
12/11/2020 7:15:00 AM 1.31 34.358 0.044 7.48 4.14 13.32
12/11/2020 7:30:00 AM 1.28 34.304 0.044 7.49 4.2 13.39
12/11/2020 7:45:00 AM 1.26 34.268 0.043 7.5 4.15 13.48
12/11/2020 8:00:00 AM 1.24 34.232 0.044 7.52 4.23 13.62
12/11/2020 8:15:00 AM 1.23 34.214 0.044 7.54 4.22 13.77
12/11/2020 8:30:00 AM 1.23 34.214 0.045 7.57 4.21 13.93
12/11/2020 8:45:00 AM 1.24 34.232 0.044 7.6 4.2 14.1
12/11/2020 9:00:00 AM 1.25 34.25 0.044 7.64 4.33 14.29
12/11/2020 9:15:00 AM 1.28 34.304 0.044 7.69 4.16 14.47
12/11/2020 9:30:00 AM 1.33 34.394 0.044 7.73 4.2 14.68
12/11/2020 9:45:00 AM 1.41 34.538 0.045 7.8 4.21 14.89
12/11/2020 10:00:00 AM 1.5 34.7 0.045 7.86 4.19 15.04
12/11/2020 10:15:00 AM 1.59 34.862 0.045 7.92 4.23 15.13
12/11/2020 10:30:00 AM 1.7 35.06 0.046 7.97 4.21 15.21
12/11/2020 10:45:00 AM 1.81 35.258 0.046 8.04 4.14 15.3
12/11/2020 11:00:00 AM 1.93 35.474 0.046 8.1 4.13 15.35
12/11/2020 11:15:00 AM 2.04 35.672 0.047 8.15 4.16 15.4
12/11/2020 11:30:00 AM 2.19 35.942 0.047 8.21 4.18 15.47
12/11/2020 11:45:00 AM 2.31 36.158 0.048 8.27 4.1 15.47
12/11/2020 12:00:00 PM 2.44 36.392 0.047 8.3 4.15 15.46
12/11/2020 12:15:00 PM 2.6 36.68 0.048 8.36 4.2 15.51
12/11/2020 12:30:00 PM 2.72 36.896 0.048 8.39 4.11 15.46
12/11/2020 12:45:00 PM 2.87 37.166 0.049 8.44 4.17 15.45
12/11/2020 1:00:00 PM 3.03 37.454 0.049 8.48 4.14 15.45
12/11/2020 1:15:00 PM 3.12 37.616 0.049 8.49 4.18 15.35
12/11/2020 1:30:00 PM 3.21 37.778 0.05 8.5 4.11 15.27
12/11/2020 1:45:00 PM 3.28 37.904 0.051 8.5 4.16 15.17
12/11/2020 2:00:00 PM 3.32 37.976 0.051 8.48 4.15 15.06
12/11/2020 2:15:00 PM 3.35 38.03 0.051 8.48 4.13 14.99
12/11/2020 2:30:00 PM 3.39 38.102 0.051 8.48 4.1 14.92
12/11/2020 2:45:00 PM 3.42 38.156 0.051 8.48 4.13 14.88
12/11/2020 3:00:00 PM 3.46 38.228 0.052 8.48 4.08 14.85
12/11/2020 3:15:00 PM 3.47 38.246 0.052 8.47 4.12 14.76
12/11/2020 3:30:00 PM 3.48 38.264 0.051 8.43 4.04 14.62
12/11/2020 3:45:00 PM 3.49 38.282 0.052 8.4 4.18 14.5
12/11/2020 4:00:00 PM 3.49 38.282 0.052 8.33 4.11 14.34
12/11/2020 4:15:00 PM 3.49 38.282 0.051 8.26 4.07 14.14
12/11/2020 4:30:00 PM 3.47 38.246 0.051 8.17 4.24 13.91
12/11/2020 4:45:00 PM 3.45 38.21 0.052 8.07 4.23 13.67
12/11/2020 5:00:00 PM 3.44 38.192 0.051 7.98 4.14 13.48
12/11/2020 5:15:00 PM 3.41 38.138 0.051 7.9 4.16 13.29
12/11/2020 5:30:00 PM 3.39 38.102 0.052 7.85 4.11 13.16
12/11/2020 5:45:00 PM 3.37 38.066 0.05 7.79 4.09 13.03
12/11/2020 6:00:00 PM 3.35 38.03 0.051 7.75 4.15 12.93
12/11/2020 6:15:00 PM 3.33 37.994 0.051 7.72 4.17 12.86
12/11/2020 6:30:00 PM 3.31 37.958 0.05 7.68 4.11 12.8
12/11/2020 6:45:00 PM 3.29 37.922 0.051 7.66 4.17 12.76
12/11/2020 7:00:00 PM 3.26 37.868 0.051 7.64 4.09 12.72
12/11/2020 7:15:00 PM 3.24 37.832 0.051 7.62 4.16 12.69
12/11/2020 7:30:00 PM 3.22 37.796 0.052 7.6 4.16 12.67
12/11/2020 7:45:00 PM 3.2 37.76 0.05 7.59 4.13 12.64
12/11/2020 8:00:00 PM 3.18 37.724 0.051 7.58 4.1 12.63
12/11/2020 8:15:00 PM 3.15 37.67 0.051 7.57 4.09 12.62
12/11/2020 8:30:00 PM 3.13 37.634 0.051 7.56 4.15 12.61
12/11/2020 8:45:00 PM 3.11 37.598 0.051 7.55 4.17 12.6
12/11/2020 9:00:00 PM 3.09 37.562 0.051 7.55 4.04 12.6
12/11/2020 9:15:00 PM 3.08 37.544 0.051 7.54 4.1 12.62
12/11/2020 9:30:00 PM 3.05 37.49 0.051 7.53 4.15 12.6
12/11/2020 9:45:00 PM 3.03 37.454 0.051 7.53 4.14 12.6
12/11/2020 10:00:00 PM 3.01 37.418 0.051 7.52 4.18 12.6
12/11/2020 10:15:00 PM 3 37.4 0.052 7.51 4.05 12.61
12/11/2020 10:30:00 PM 3 37.4 0.052 7.52 4.05 12.62
12/11/2020 10:45:00 PM 2.99 37.382 0.052 7.51 4.09 12.63
12/11/2020 11:00:00 PM 2.96 37.328 0.052 7.51 4.17 12.63
12/11/2020 11:15:00 PM 2.95 37.31 0.052 7.5 4.16 12.64
12/11/2020 11:30:00 PM 2.93 37.274 0.052 7.5 4.09 12.64
12/11/2020 11:45:00 PM 2.91 37.238 0.053 7.49 4.12 12.65
12/12/2020 12:00:00 AM 2.88 37.184 0.051 7.5 4.14 12.66
12/12/2020 12:15:00 AM 2.85 37.13 0.053 7.49 4.13 12.66
12/12/2020 12:30:00 AM 2.82 37.076 0.052 7.49 4.12 12.68
12/12/2020 12:45:00 AM 2.79 37.022 0.051 7.49 4.13 12.68
12/12/2020 1:00:00 AM 2.77 36.986 0.051 7.49 4.05 12.72
12/12/2020 1:15:00 AM 2.74 36.932 0.051 7.48 4.11 12.72
12/12/2020 1:30:00 AM 2.7 36.86 0.052 7.49 4.14 12.73
12/12/2020 1:45:00 AM 2.67 36.806 0.051 7.48 4.01 12.73
12/12/2020 2:00:00 AM 2.64 36.752 0.051 7.48 4.16 12.75
12/12/2020 2:15:00 AM 2.62 36.716 0.051 7.48 4.07 12.76
12/12/2020 2:30:00 AM 2.6 36.68 0.05 7.48 4.06 12.77
12/12/2020 2:45:00 AM 2.57 36.626 0.05 7.48 4.15 12.79
12/12/2020 3:00:00 AM 2.56 36.608 0.05 7.48 4.11 12.8
12/12/2020 3:15:00 AM 2.54 36.572 0.05 7.47 4.07 12.8
12/12/2020 3:30:00 AM 2.53 36.554 0.051 7.48 4.18 12.82
12/12/2020 3:45:00 AM 2.51 36.518 0.051 7.47 4.13 12.83
12/12/2020 4:00:00 AM 2.5 36.5 0.05 7.47 4.12 12.84
12/12/2020 4:15:00 AM 2.47 36.446 0.05 7.47 4.07 12.84
12/12/2020 4:30:00 AM 2.45 36.41 0.05 7.47 4.17 12.85
12/12/2020 4:45:00 AM 2.44 36.392 0.051 7.47 4.1 12.85
12/12/2020 5:00:00 AM 2.42 36.356 0.051 7.47 4.06 12.87
12/12/2020 5:15:00 AM 2.39 36.302 0.051 7.47 4.12 12.89
12/12/2020 5:30:00 AM 2.36 36.248 0.051 7.46 4.16 12.87
12/12/2020 5:45:00 AM 2.34 36.212 0.05 7.47 4.11 12.89
12/12/2020 6:00:00 AM 2.32 36.176 0.052 7.47 4.16 12.9
12/12/2020 6:15:00 AM 2.29 36.122 0.051 7.46 4.13 12.9
12/12/2020 6:30:00 AM 2.27 36.086 0.052 7.46 4.1 12.91
12/12/2020 6:45:00 AM 2.26 36.068 0.052 7.46 4.18 12.92
12/12/2020 7:00:00 AM 2.25 36.05 0.05 7.46 4.1 12.92
12/12/2020 7:15:00 AM 2.23 36.014 0.051 7.46 4.13 12.93
12/12/2020 7:30:00 AM 2.23 36.014 0.051 7.47 4.24 12.98
12/12/2020 7:45:00 AM 2.24 36.032 0.05 7.47 4.24 13.03
12/12/2020 8:00:00 AM 2.25 36.05 0.051 7.49 4.14 13.13
12/12/2020 8:15:00 AM 2.26 36.068 0.051 7.51 4.09 13.27
12/12/2020 8:30:00 AM 2.29 36.122 0.051 7.54 4.19 13.41
12/12/2020 8:45:00 AM 2.33 36.194 0.052 7.57 4.06 13.6
12/12/2020 9:00:00 AM 2.37 36.266 0.051 7.62 4.08 13.82
12/12/2020 9:15:00 AM 2.41 36.338 0.051 7.64 4.1 13.92
12/12/2020 9:30:00 AM 2.46 36.428 0.051 7.7 4.1 14.15
12/12/2020 9:45:00 AM 2.54 36.572 0.05 7.77 4.22 14.44
12/12/2020 10:00:00 AM 2.59 36.662 0.051 7.84 4.22 14.6
12/12/2020 10:15:00 AM 2.68 36.824 0.051 7.92 4.06 14.8
12/12/2020 10:30:00 AM 2.72 36.896 0.052 7.98 4.19 14.86
12/12/2020 10:45:00 AM 2.83 37.094 0.053 8.06 4.2 15.04
12/12/2020 11:00:00 AM 2.91 37.238 0.052 8.15 4.14 15.14
12/12/2020 11:15:00 AM 2.97 37.346 0.054 8.18 4.13 15.15
12/12/2020 11:30:00 AM 3.02 37.436 0.053 8.21 4.2 15.1
12/12/2020 11:45:00 AM 3.09 37.562 0.054 8.24 4.17 15.09
12/12/2020 12:00:00 PM 3.16 37.688 0.053 8.29 4.14 15.12
12/12/2020 12:15:00 PM 3.27 37.886 0.054 8.34 3.99 15.2
12/12/2020 12:30:00 PM 3.38 38.084 0.054 8.4 4.07 15.27
12/12/2020 12:45:00 PM 3.45 38.21 0.055 8.44 4.12 15.27
12/12/2020 1:00:00 PM 3.55 38.39 0.055 8.49 4.23 15.31
12/12/2020 1:15:00 PM 3.66 38.588 0.055 8.53 4.15 15.31
12/12/2020 1:30:00 PM 3.79 38.822 0.056 8.56 4.11 15.29
12/12/2020 1:45:00 PM 3.97 39.146 0.057 8.61 4.07 15.34
12/12/2020 2:00:00 PM 4.14 39.452 0.058 8.65 4.08 15.34
12/12/2020 2:15:00 PM 4.31 39.758 0.058 8.69 4.12 15.33
12/12/2020 2:30:00 PM 4.44 39.992 0.059 8.72 4.09 15.29
12/12/2020 2:45:00 PM 4.55 40.19 0.059 8.73 4.07 15.17
12/12/2020 3:00:00 PM 4.63 40.334 0.059 8.72 4.14 14.99
12/12/2020 3:15:00 PM 4.68 40.424 0.06 8.7 4.08 14.82
12/12/2020 3:30:00 PM 4.7 40.46 0.061 8.66 4.04 14.59
12/12/2020 3:45:00 PM 4.72 40.496 0.06 8.6 4.07 14.35
12/12/2020 4:00:00 PM 4.73 40.514 0.061 8.52 4.14 14.12
12/12/2020 4:15:00 PM 4.73 40.514 0.06 8.43 4.09 13.85
12/12/2020 4:30:00 PM 4.73 40.514 0.061 8.31 4.12 13.57
12/12/2020 4:45:00 PM 4.73 40.514 0.061 8.19 4.04 13.29
12/12/2020 5:00:00 PM 4.73 40.514 0.06 8.08 4.16 13.06
12/12/2020 5:15:00 PM 4.74 40.532 0.061 7.98 4.13 12.85
12/12/2020 5:30:00 PM 4.75 40.55 0.061 7.9 4.13 12.67
12/12/2020 5:45:00 PM 4.75 40.55 0.061 7.84 4.11 12.54
12/12/2020 6:00:00 PM 4.76 40.568 0.061 7.79 4.13 12.42
12/12/2020 6:15:00 PM 4.78 40.604 0.061 7.75 4.07 12.34
12/12/2020 6:30:00 PM 4.8 40.64 0.061 7.71 4.17 12.25
12/12/2020 6:45:00 PM 4.81 40.658 0.061 7.69 4.12 12.18
12/12/2020 7:00:00 PM 4.85 40.73 0.061 7.66 4.05 12.12
12/12/2020 7:15:00 PM 4.89 40.802 0.062 7.65 4.14 12.09
12/12/2020 7:30:00 PM 4.92 40.856 0.064 7.63 4.13 12.04
12/12/2020 7:45:00 PM 4.96 40.928 0.063 7.62 4.11 12.02
12/12/2020 8:00:00 PM 4.99 40.982 0.063 7.6 4.07 11.97
12/12/2020 8:15:00 PM 5.02 41.036 0.064 7.59 4.13 11.95
12/12/2020 8:30:00 PM 5.05 41.09 0.064 7.58 4.07 11.93
12/12/2020 8:45:00 PM 5.07 41.126 0.064 7.57 4.14 11.89
12/12/2020 9:00:00 PM 5.1 41.18 0.065 7.56 4.12 11.86
12/12/2020 9:15:00 PM 5.12 41.216 0.065 7.55 4.09 11.83
12/12/2020 9:30:00 PM 5.14 41.252 0.067 7.55 4.03 11.81
12/12/2020 9:45:00 PM 5.17 41.306 0.065 7.54 4.09 11.81
12/12/2020 10:00:00 PM 5.19 41.342 0.067 7.54 4.1 11.79
12/12/2020 10:15:00 PM 5.2 41.36 0.067 7.52 4.01 11.77
12/12/2020 10:30:00 PM 5.22 41.396 0.067 7.53 4.06 11.76
12/12/2020 10:45:00 PM 5.24 41.432 0.066 7.52 4.07 11.75
12/12/2020 11:00:00 PM 5.27 41.486 0.067 7.52 4.09 11.73
12/12/2020 11:15:00 PM 5.3 41.54 0.067 7.52 4.03 11.73
12/12/2020 11:30:00 PM 5.32 41.576 0.067 7.51 4.08 11.72
12/12/2020 11:45:00 PM 5.34 41.612 0.068 7.51 4.09 11.71
12/13/2020 12:00:00 AM 5.37 41.666 0.068 7.5 4.11 11.68
12/13/2020 12:15:00 AM 5.39 41.702 0.068 7.5 4.15 11.69
12/13/2020 12:30:00 AM 5.4 41.72 0.068 7.5 4.1 11.68
12/13/2020 12:45:00 AM 5.4 41.72 0.069 7.5 4.11 11.68
12/13/2020 1:00:00 AM 5.41 41.738 0.069 7.5 4.06 11.67
12/13/2020 1:15:00 AM 5.4 41.72 0.07 7.49 4.09 11.67
12/13/2020 1:30:00 AM 5.38 41.684 0.069 7.49 4.08 11.66
12/13/2020 1:45:00 AM 5.36 41.648 0.069 7.49 4.09 11.67
12/13/2020 2:00:00 AM 5.37 41.666 0.07 7.49 4.12 11.67
12/13/2020 2:15:00 AM 5.36 41.648 0.069 7.49 4.15 11.65
12/13/2020 2:30:00 AM 5.35 41.63 0.07 7.49 4.12 11.67
12/13/2020 2:45:00 AM 5.34 41.612 0.069 7.48 4.03 11.66
12/13/2020 3:00:00 AM 5.31 41.558 0.069 7.48 4.1 11.69
12/13/2020 3:15:00 AM 5.29 41.522 0.069 7.47 4.16 11.68
12/13/2020 3:30:00 AM 5.26 41.468 0.069 7.47 4.12 11.69
12/13/2020 3:45:00 AM 5.23 41.414 0.069 7.47 4.2 11.71
12/13/2020 4:00:00 AM 5.21 41.378 0.068 7.47 4.18 11.7
12/13/2020 4:15:00 AM 5.18 41.324 0.069 7.46 4.05 11.72
12/13/2020 4:30:00 AM 5.14 41.252 0.068 7.46 4.11 11.71
12/13/2020 4:45:00 AM 5.1 41.18 0.069 7.46 4.04 11.73
12/13/2020 5:00:00 AM 5.06 41.108 0.068 7.46 4.01 11.75
12/13/2020 5:15:00 AM 5.01 41.018 0.068 7.46 4.2 11.75
12/13/2020 5:30:00 AM 5.01 41.018 0.069 7.46 4.17 11.77
12/13/2020 5:45:00 AM 4.96 40.928 0.069 7.46 4.1 11.79
12/13/2020 6:00:00 AM 4.91 40.838 0.069 7.46 4.17 11.79
12/13/2020 6:15:00 AM 4.89 40.802 0.069 7.46 4.21 11.81
12/13/2020 6:30:00 AM 4.87 40.766 0.069 7.46 4.19 11.82
12/13/2020 6:45:00 AM 4.85 40.73 0.069 7.46 4.12 11.82
12/13/2020 7:00:00 AM 4.84 40.712 0.07 7.46 4.22 11.84
12/13/2020 7:15:00 AM 4.82 40.676 0.069 7.47 4.13 11.87
12/13/2020 7:30:00 AM 4.8 40.64 0.07 7.47 4.07 11.9
12/13/2020 7:45:00 AM 4.78 40.604 0.069 7.49 4.27 12.03
12/13/2020 8:00:00 AM 4.77 40.586 0.07 7.51 4.24 12.17
12/13/2020 8:15:00 AM 4.75 40.55 0.07 7.54 4.23 12.31
12/13/2020 8:30:00 AM 4.75 40.55 0.07 7.57 4.13 12.51
12/13/2020 8:45:00 AM 4.78 40.604 0.071 7.64 4.18 12.83
12/13/2020 9:00:00 AM 4.81 40.658 0.07 7.71 4.33 13.11
12/13/2020 9:15:00 AM 4.86 40.748 0.071 7.75 4.24 13.24
12/13/2020 9:30:00 AM 4.92 40.856 0.07 7.83 4.17 13.52
12/13/2020 9:45:00 AM 5.02 41.036 0.071 7.95 4.28 13.84
12/13/2020 10:00:00 AM 5.11 41.198 0.07 8.05 4.22 14.02
12/13/2020 10:15:00 AM 5.15 41.27 0.071 8.09 4.27 14.01
12/13/2020 10:30:00 AM 5.25 41.45 0.071 8.2 4.27 14.28
12/13/2020 10:45:00 AM 5.32 41.576 0.071 8.33 4.34 14.48
12/13/2020 11:00:00 AM 5.43 41.774 0.072 8.41 4.26 14.64
12/13/2020 11:15:00 AM 5.53 41.954 0.072 8.5 4.18 14.78
12/13/2020 11:30:00 AM 5.6 42.08 0.072 8.59 4.31 14.88
12/13/2020 11:45:00 AM 5.67 42.206 0.072 8.64 4.29 14.94
12/13/2020 12:00:00 PM 5.71 42.278 0.073 8.67 4.26 14.89
12/13/2020 12:15:00 PM 5.76 42.368 0.073 8.71 4.29 14.9
12/13/2020 12:30:00 PM 5.81 42.458 0.073 8.75 4.32 14.9
12/13/2020 12:45:00 PM 5.86 42.548 0.074 8.78 4.28 14.89
12/13/2020 1:00:00 PM 5.91 42.638 0.074 8.79 4.2 14.84
12/13/2020 1:15:00 PM 5.91 42.638 0.074 8.8 4.33 14.71
12/13/2020 1:30:00 PM 5.96 42.728 0.074 8.81 4.29 14.71
12/13/2020 1:45:00 PM 5.98 42.764 0.075 8.82 4.37 14.67
12/13/2020 2:00:00 PM 5.99 42.782 0.074 8.82 4.33 14.58
12/13/2020 2:15:00 PM 5.96 42.728 0.074 8.78 4.41 14.31
12/13/2020 2:30:00 PM 5.93 42.674 0.073 8.72 4.34 14.06
12/13/2020 2:45:00 PM 5.92 42.656 0.073 8.65 4.32 13.82
12/13/2020 3:00:00 PM 5.9 42.62 0.073 8.56 4.28 13.58
12/13/2020 3:15:00 PM 5.87 42.566 0.072 8.47 4.37 13.39
12/13/2020 3:30:00 PM 5.85 42.53 0.072 8.37 4.41 13.17
12/13/2020 3:45:00 PM 5.82 42.476 0.072 8.27 4.36 13
12/13/2020 4:00:00 PM 5.79 42.422 0.071 8.17 4.37 12.82
12/13/2020 4:15:00 PM 5.76 42.368 0.071 8.06 4.36 12.63
12/13/2020 4:30:00 PM 5.74 42.332 0.071 7.97 4.37 12.45
12/13/2020 4:45:00 PM 5.72 42.296 0.072 7.9 4.38 12.33
12/13/2020 5:00:00 PM 5.69 42.242 0.071 7.84 4.36 12.2
12/13/2020 5:15:00 PM 5.67 42.206 0.071 7.79 4.36 12.12
12/13/2020 5:30:00 PM 5.65 42.17 0.071 7.74 4.46 12.02
12/13/2020 5:45:00 PM 5.62 42.116 0.071 7.71 4.41 11.97
12/13/2020 6:00:00 PM 5.6 42.08 0.07 7.68 4.4 11.92
12/13/2020 6:15:00 PM 5.59 42.062 0.071 7.66 4.35 11.87
12/13/2020 6:30:00 PM 5.57 42.026 0.07 7.64 4.36 11.84
12/13/2020 6:45:00 PM 5.55 41.99 0.07 7.62 4.43 11.83
12/13/2020 7:00:00 PM 5.53 41.954 0.07 7.61 4.44 11.8
12/13/2020 7:15:00 PM 5.51 41.918 0.071 7.59 4.4 11.79
12/13/2020 7:30:00 PM 5.5 41.9 0.07 7.58 4.4 11.77
12/13/2020 7:45:00 PM 5.48 41.864 0.071 7.57 4.38 11.76
12/13/2020 8:00:00 PM 5.46 41.828 0.07 7.56 4.34 11.76
12/13/2020 8:15:00 PM 5.44 41.792 0.07 7.55 4.49 11.76
12/13/2020 8:30:00 PM 5.42 41.756 0.069 7.55 4.36 11.77
12/13/2020 8:45:00 PM 5.4 41.72 0.069 7.54 4.36 11.76
12/13/2020 9:00:00 PM 5.35 41.63 0.068 7.53 4.33 11.76
12/13/2020 9:15:00 PM 5.29 41.522 0.068 7.53 4.27 11.78
12/13/2020 9:30:00 PM 5.26 41.468 0.068 7.52 4.34 11.78
12/13/2020 9:45:00 PM 5.21 41.378 0.067 7.51 4.38 11.78
12/13/2020 10:00:00 PM 5.16 41.288 0.067 7.51 4.4 11.82
12/13/2020 10:15:00 PM 5.13 41.234 0.067 7.5 4.44 11.8
12/13/2020 10:30:00 PM 5.09 41.162 0.069 7.5 4.4 11.81
12/13/2020 10:45:00 PM 5.06 41.108 0.067 7.5 4.32 11.83
12/13/2020 11:00:00 PM 5.04 41.072 0.067 7.49 4.39 11.83
12/13/2020 11:15:00 PM 5.01 41.018 0.067 7.5 4.38 11.85
12/13/2020 11:30:00 PM 4.97 40.946 0.067 7.49 4.36 11.86
12/13/2020 11:45:00 PM 4.95 40.91 0.067 7.49 4.38 11.86
12/14/2020 12:00:00 AM 4.93 40.874 0.066 7.48 4.3 11.87
12/14/2020 12:15:00 AM 4.9 40.82 0.066 7.49 4.29 11.89
12/14/2020 12:30:00 AM 4.88 40.784 0.066 7.48 4.31 11.9
12/14/2020 12:45:00 AM 4.85 40.73 0.067 7.48 4.28 11.91
12/14/2020 1:00:00 AM 4.82 40.676 0.068 7.47 4.26 11.92
12/14/2020 1:15:00 AM 4.79 40.622 0.067 7.48 4.41 11.95
12/14/2020 1:30:00 AM 4.76 40.568 0.067 7.47 4.34 11.94
12/14/2020 1:45:00 AM 4.73 40.514 0.066 7.48 4.3 11.97
12/14/2020 2:00:00 AM 4.71 40.478 0.066 7.48 4.27 11.96
12/14/2020 2:15:00 AM 4.67 40.406 0.066 7.48 4.34 11.98
12/14/2020 2:30:00 AM 4.64 40.352 0.066 7.48 4.27 11.98
12/14/2020 2:45:00 AM 4.6 40.28 0.065 7.48 4.27 12
12/14/2020 3:00:00 AM 4.57 40.226 0.066 7.48 4.23 12.01
12/14/2020 3:15:00 AM 4.54 40.172 0.066 7.47 4.32 12.01
12/14/2020 3:30:00 AM 4.51 40.118 0.065 7.47 4.39 12.01
12/14/2020 3:45:00 AM 4.48 40.064 0.065 7.47 4.3 12.02
12/14/2020 4:00:00 AM 4.45 40.01 0.066 7.47 4.29 12.05
12/14/2020 4:15:00 AM 4.42 39.956 0.065 7.47 4.26 12.07
12/14/2020 4:30:00 AM 4.4 39.92 0.066 7.47 4.31 12.06
12/14/2020 4:45:00 AM 4.38 39.884 0.065 7.46 4.31 12.07
12/14/2020 5:00:00 AM 4.36 39.848 0.065 7.47 4.32 12.05
12/14/2020 5:15:00 AM 4.33 39.794 0.067 7.47 4.31 12.1
12/14/2020 5:30:00 AM 4.31 39.758 0.065 7.47 4.34 12.1
12/14/2020 5:45:00 AM 4.29 39.722 0.067 7.47 4.33 12.09
12/14/2020 6:00:00 AM 4.27 39.686 0.066 7.47 4.31 12.11
12/14/2020 6:15:00 AM 4.25 39.65 0.067 7.47 4.28 12.12
12/14/2020 6:30:00 AM 4.23 39.614 0.068 7.47 4.25 12.12
12/14/2020 6:45:00 AM 4.19 39.542 0.069 7.47 4.25 12.13
12/14/2020 7:00:00 AM 4.13 39.434 0.069 7.47 4.3 12.15
12/14/2020 7:15:00 AM 4.08 39.344 0.066 7.46 4.28 12.14
12/14/2020 7:30:00 AM 4.03 39.254 0.067 7.47 4.29 12.16
12/14/2020 7:45:00 AM 3.99 39.182 0.066 7.47 4.28 12.2
12/14/2020 8:00:00 AM 3.93 39.074 0.067 7.48 4.36 12.25
12/14/2020 8:15:00 AM 3.88 38.984 0.068 7.49 4.26 12.36
12/14/2020 8:30:00 AM 3.84 38.912 0.067 7.52 4.29 12.54
12/14/2020 8:45:00 AM 3.83 38.894 0.068 7.55 4.36 12.67
12/14/2020 9:00:00 AM 3.82 38.876 0.069 7.58 4.37 12.84
12/14/2020 9:15:00 AM 3.82 38.876 0.067 7.62 4.33 13.01
12/14/2020 9:30:00 AM 3.82 38.876 0.067 7.65 4.44 13.18
12/14/2020 9:45:00 AM 3.83 38.894 0.068 7.7 4.32 13.39
12/14/2020 10:00:00 AM 3.84 38.912 0.068 7.74 4.46 13.5
12/14/2020 10:15:00 AM 3.85 38.93 0.069 7.78 4.35 13.59
12/14/2020 10:30:00 AM 3.85 38.93 0.07 7.8 4.39 13.65
12/14/2020 10:45:00 AM 3.83 38.894 0.069 7.83 4.49 13.73
12/14/2020 11:00:00 AM 3.82 38.876 0.07 7.88 4.53 13.86
12/14/2020 11:15:00 AM 3.81 38.858 0.07 7.91 4.33 13.91
12/14/2020 11:30:00 AM 3.8 38.84 0.07 7.93 4.38 13.91
12/14/2020 11:45:00 AM 3.79 38.822 0.07 7.96 4.41 13.99
12/14/2020 12:00:00 PM 3.79 38.822 0.071 8 4.44 14.05
12/14/2020 12:15:00 PM 3.81 38.858 0.07 8.04 4.53 14.13
12/14/2020 12:30:00 PM 3.82 38.876 0.071 8.07 4.46 14.18
12/14/2020 12:45:00 PM 3.85 38.93 0.071 8.14 4.44 14.32
12/14/2020 1:00:00 PM 3.87 38.966 0.071 8.16 4.5 14.31
12/14/2020 1:15:00 PM 3.89 39.002 0.071 8.16 4.46 14.25
12/14/2020 1:30:00 PM 3.9 39.02 0.073 8.18 4.45 14.3
12/14/2020 1:45:00 PM 3.93 39.074 0.071 8.23 4.47 14.37
12/14/2020 2:00:00 PM 3.94 39.092 0.073 8.22 4.53 14.27
12/14/2020 2:15:00 PM 3.95 39.11 0.071 8.2 4.5 14.21
12/14/2020 2:30:00 PM 3.95 39.11 0.073 8.18 4.57 14.11
12/14/2020 2:45:00 PM 3.94 39.092 0.072 8.16 4.56 14.04
12/14/2020 3:00:00 PM 3.95 39.11 0.073 8.13 4.53 13.98
12/14/2020 3:15:00 PM 3.96 39.128 0.072 8.1 4.5 13.9
12/14/2020 3:30:00 PM 3.95 39.11 0.072 8.05 4.47 13.77
12/14/2020 3:45:00 PM 3.93 39.074 0.072 7.99 4.54 13.6
12/14/2020 4:00:00 PM 3.92 39.056 0.076 7.95 4.45 13.51
12/14/2020 4:15:00 PM 3.89 39.002 0.072 7.92 4.41 13.43
12/14/2020 4:30:00 PM 3.86 38.948 0.073 7.85 4.42 13.25
12/14/2020 4:45:00 PM 3.86 38.948 0.075 7.79 4.48 13.09
12/14/2020 5:00:00 PM 3.83 38.894 0.074 7.74 4.54 12.95
12/14/2020 5:15:00 PM 3.81 38.858 0.076 7.71 4.52 12.84
12/14/2020 5:30:00 PM 3.8 38.84 0.078 7.68 4.59 12.74
12/14/2020 5:45:00 PM 3.77 38.786 0.078 7.65 4.5 12.67
12/14/2020 6:00:00 PM 3.71 38.678 0.08 7.62 4.45 12.6
12/14/2020 6:15:00 PM 3.66 38.588 0.079 7.61 4.31 12.57
12/14/2020 6:30:00 PM 3.61 38.498 0.08 7.59 4.46 12.54
12/14/2020 6:45:00 PM 3.57 38.426 0.08 7.57 4.42 12.5
12/14/2020 7:00:00 PM 3.55 38.39 0.082 7.57 4.37 12.5
12/14/2020 7:15:00 PM 3.53 38.354 0.084 7.56 4.41 12.49
12/14/2020 7:30:00 PM 3.49 38.282 0.082 7.55 4.34 12.48
12/14/2020 7:45:00 PM 3.46 38.228 0.081 7.55 4.39 12.47
12/14/2020 8:00:00 PM 3.44 38.192 0.085 7.53 4.38 12.48
12/14/2020 8:15:00 PM 3.42 38.156 0.084 7.54 4.38 12.48
12/14/2020 8:30:00 PM 3.38 38.084 0.084 7.53 4.35 12.48
12/14/2020 8:45:00 PM 3.34 38.012 0.082 7.53 4.35 12.49
12/14/2020 9:00:00 PM 3.32 37.976 0.082 7.53 4.32 12.5
12/14/2020 9:15:00 PM 3.29 37.922 0.085 7.53 4.41 12.51
12/14/2020 9:30:00 PM 3.21 37.778 0.083 7.52 4.36 12.52
12/14/2020 9:45:00 PM 3.14 37.652 0.084 7.52 4.39 12.53
12/14/2020 10:00:00 PM 3.08 37.544 0.082 7.52 4.37 12.56
12/14/2020 10:15:00 PM 3.02 37.436 0.086 7.52 4.44 12.58
12/14/2020 10:30:00 PM 2.96 37.328 0.086 7.52 4.34 12.6
12/14/2020 10:45:00 PM 2.89 37.202 0.087 7.51 4.39 12.61
12/14/2020 11:00:00 PM 2.81 37.058 0.088 7.51 4.28 12.64
12/14/2020 11:15:00 PM 2.75 36.95 0.084 7.51 4.34 12.65
12/14/2020 11:30:00 PM 2.7 36.86 0.085 7.5 4.37 12.68
12/14/2020 11:45:00 PM 2.64 36.752 0.087 7.51 4.34 12.71
12/15/2020 12:00:00 AM 2.57 36.626 0.087 7.5 4.23 12.73
12/15/2020 12:15:00 AM 2.53 36.554 0.085 7.5 4.35 12.76
12/15/2020 12:30:00 AM 2.49 36.482 0.085 7.51 4.31 12.78
12/15/2020 12:45:00 AM 2.45 36.41 0.087 7.51 4.3 12.81
12/15/2020 1:00:00 AM 2.42 36.356 0.087 7.51 4.39 12.82
12/15/2020 1:15:00 AM 2.37 36.266 0.087 7.5 4.33 12.85
12/15/2020 1:30:00 AM 2.34 36.212 0.09 7.51 4.28 12.87
12/15/2020 1:45:00 AM 2.29 36.122 0.09 7.5 4.31 12.89
12/15/2020 2:00:00 AM 2.24 36.032 0.089 7.5 4.34 12.9
12/15/2020 2:15:00 AM 2.19 35.942 0.088 7.51 4.36 12.94
12/15/2020 2:30:00 AM 2.15 35.87 0.09 7.5 4.3 12.94
12/15/2020 2:45:00 AM 2.11 35.798 0.088 7.49 4.28 12.97
12/15/2020 3:00:00 AM 2.06 35.708 0.086 7.5 4.31 12.99
12/15/2020 3:15:00 AM 2.01 35.618 0.087 7.5 4.46 13.01
12/15/2020 3:30:00 AM 1.99 35.582 0.086 7.5 4.4 13.04
12/15/2020 3:45:00 AM 1.97 35.546 0.089 7.5 4.31 13.06
12/15/2020 4:00:00 AM 1.92 35.456 0.088 7.5 4.28 13.09
12/15/2020 4:15:00 AM 1.87 35.366 0.087 7.5 4.26 13.1
12/15/2020 4:30:00 AM 1.82 35.276 0.086 7.5 4.39 13.11
12/15/2020 4:45:00 AM 1.77 35.186 0.085 7.5 4.26 13.12
12/15/2020 5:00:00 AM 1.74 35.132 0.084 7.5 4.44 13.16
12/15/2020 5:15:00 AM 1.69 35.042 0.083 7.5 4.29 13.16
12/15/2020 5:30:00 AM 1.65 34.97 0.081 7.5 4.33 13.18
12/15/2020 5:45:00 AM 1.61 34.898 0.08 7.5 4.36 13.21
12/15/2020 6:00:00 AM 1.56 34.808 0.079 7.5 4.39 13.23
12/15/2020 6:15:00 AM 1.51 34.718 0.078 7.5 4.33 13.24
12/15/2020 6:30:00 AM 1.48 34.664 0.076 7.5 4.35 13.28
12/15/2020 6:45:00 AM 1.47 34.646 0.075 7.5 4.38 13.29
12/15/2020 7:00:00 AM 1.44 34.592 0.073 7.5 4.27 13.3
12/15/2020 7:15:00 AM 1.4 34.52 0.073 7.5 4.46 13.33
12/15/2020 7:30:00 AM 1.36 34.448 0.071 7.5 4.33 13.38
12/15/2020 7:45:00 AM 1.33 34.394 0.071 7.52 4.32 13.48
12/15/2020 8:00:00 AM 1.31 34.358 0.071 7.54 4.39 13.64
12/15/2020 8:15:00 AM 1.28 34.304 0.07 7.57 4.3 13.79
12/15/2020 8:30:00 AM 1.28 34.304 0.069 7.61 4.38 13.99
12/15/2020 8:45:00 AM 1.27 34.286 0.068 7.64 4.34 14.18
12/15/2020 9:00:00 AM 1.27 34.286 0.068 7.68 4.42 14.35
12/15/2020 9:15:00 AM 1.25 34.25 0.068 7.72 4.31 14.49
12/15/2020 9:30:00 AM 1.24 34.232 0.067 7.76 4.39 14.63
12/15/2020 9:45:00 AM 1.25 34.25 0.067 7.81 4.3 14.77
12/15/2020 10:00:00 AM 1.29 34.322 0.067 7.86 4.41 14.94
12/15/2020 10:15:00 AM 1.32 34.376 0.067 7.93 4.47 15.11
12/15/2020 10:30:00 AM 1.38 34.484 0.068 7.99 4.36 15.27
12/15/2020 10:45:00 AM 1.49 34.682 0.068 8.1 4.46 15.47
12/15/2020 11:00:00 AM 1.6 34.88 0.068 8.18 4.41 15.63
12/15/2020 11:15:00 AM 1.68 35.024 0.069 8.27 4.48 15.71
12/15/2020 11:30:00 AM 1.76 35.168 0.068 8.32 4.39 15.79
12/15/2020 11:45:00 AM 1.87 35.366 0.067 8.39 4.35 15.86
12/15/2020 12:00:00 PM 1.92 35.456 0.066 8.43 4.41 15.83
12/15/2020 12:15:00 PM 1.98 35.564 0.067 8.47 4.36 15.89
12/15/2020 12:30:00 PM 2.07 35.726 0.067 8.52 4.46 15.95
12/15/2020 12:45:00 PM 2.1 35.78 0.067 8.55 4.34 15.94
12/15/2020 1:00:00 PM 2.17 35.906 0.067 8.59 4.47 15.95
12/15/2020 1:15:00 PM 2.26 36.068 0.068 8.63 4.42 15.98
12/15/2020 1:30:00 PM 2.3 36.14 0.068 8.64 4.4 15.93
12/15/2020 1:45:00 PM 2.33 36.194 0.067 8.66 4.41 15.88
12/15/2020 2:00:00 PM 2.35 36.23 0.068 8.67 4.38 15.88
12/15/2020 2:15:00 PM 2.38 36.284 0.068 8.69 4.39 15.88
12/15/2020 2:30:00 PM 2.35 36.23 0.067 8.7 4.45 15.81
12/15/2020 2:45:00 PM 2.3 36.14 0.067 8.68 4.48 15.67
12/15/2020 3:00:00 PM 2.25 36.05 0.067 8.65 4.45 15.52
12/15/2020 3:15:00 PM 2.18 35.924 0.065 8.61 4.32 15.37
12/15/2020 3:30:00 PM 2.12 35.816 0.066 8.57 4.39 15.24
12/15/2020 3:45:00 PM 2.08 35.744 0.062 8.52 4.45 15.1
12/15/2020 4:00:00 PM 2.07 35.726 0.063 8.45 4.43 14.93
12/15/2020 4:15:00 PM 2.04 35.672 0.063 8.35 4.4 14.72
12/15/2020 4:30:00 PM 2 35.6 0.064 8.25 4.37 14.5
12/15/2020 4:45:00 PM 1.95 35.51 0.066 8.14 4.53 14.31
12/15/2020 5:00:00 PM 1.91 35.438 0.066 8.04 4.41 14.11
12/15/2020 5:15:00 PM 1.86 35.348 0.064 7.95 4.46 13.97
12/15/2020 5:30:00 PM 1.82 35.276 0.066 7.89 4.41 13.83
12/15/2020 5:45:00 PM 1.77 35.186 0.067 7.83 4.38 13.72
12/15/2020 6:00:00 PM 1.74 35.132 0.067 7.79 4.46 13.65
12/15/2020 6:15:00 PM 1.71 35.078 0.069 7.74 4.46 13.6
12/15/2020 6:30:00 PM 1.67 35.006 0.071 7.72 4.51 13.54
12/15/2020 6:45:00 PM 1.63 34.934 0.071 7.7 4.38 13.5
12/15/2020 7:00:00 PM 1.61 34.898 0.07 7.68 4.5 13.49
12/15/2020 7:15:00 PM 1.57 34.826 0.071 7.65 4.43 13.46
12/15/2020 7:30:00 PM 1.54 34.772 0.069 7.64 4.44 13.43
12/15/2020 7:45:00 PM 1.51 34.718 0.071 7.63 4.45 13.44
12/15/2020 8:00:00 PM 1.47 34.646 0.072 7.61 4.36 13.41
12/15/2020 8:15:00 PM 1.45 34.61 0.072 7.61 4.33 13.42
12/15/2020 8:30:00 PM 1.4 34.52 0.074 7.59 4.29 13.42
12/15/2020 8:45:00 PM 1.36 34.448 0.072 7.58 4.37 13.42
12/15/2020 9:00:00 PM 1.33 34.394 0.075 7.57 4.39 13.43
12/15/2020 9:15:00 PM 1.29 34.322 0.073 7.57 4.52 13.44
12/15/2020 9:30:00 PM 1.24 34.232 0.076 7.56 4.31 13.45
12/15/2020 9:45:00 PM 1.2 34.16 0.075 7.56 4.36 13.43
12/15/2020 10:00:00 PM 1.17 34.106 0.077 7.55 4.35 13.46
12/15/2020 10:15:00 PM 1.13 34.034 0.076 7.55 4.29 13.46
12/15/2020 10:30:00 PM 1.1 33.98 0.077 7.54 4.25 13.48
12/15/2020 10:45:00 PM 1.07 33.926 0.075 7.54 4.36 13.49
12/15/2020 11:00:00 PM 1.02 33.836 0.078 7.53 4.36 13.5
12/15/2020 11:15:00 PM 0.98 33.764 0.078 7.53 4.37 13.51
12/15/2020 11:30:00 PM 0.94 33.692 0.077 7.53 4.32 13.53
12/15/2020 11:45:00 PM 0.89 33.602 0.078 7.53 4.45 13.55
12/16/2020 12:00:00 AM 0.85 33.53 0.078 7.52 4.33 13.57
12/16/2020 12:15:00 AM 0.82 33.476 0.078 7.52 4.38 13.59
12/16/2020 12:30:00 AM 0.78 33.404 0.078 7.52 4.37 13.59
12/16/2020 12:45:00 AM 0.75 33.35 0.079 7.52 4.36 13.62
12/16/2020 1:00:00 AM 0.69 33.242 0.078 7.51 4.26 13.64
12/16/2020 1:15:00 AM 0.64 33.152 0.078 7.51 4.37 13.66
12/16/2020 1:30:00 AM 0.6 33.08 0.078 7.51 4.38 13.68
12/16/2020 1:45:00 AM 0.55 32.99 0.078 7.51 4.32 13.69
12/16/2020 2:00:00 AM 0.5 32.9 0.079 7.49 4.3 13.72
12/16/2020 2:15:00 AM 0.45 32.81 0.078 7.49 4.29 13.73
12/16/2020 2:30:00 AM 0.4 32.72 0.078 7.49 4.27 13.77
12/16/2020 2:45:00 AM 0.34 32.612 0.079 7.49 4.37 13.78
12/16/2020 3:00:00 AM 0.3 32.54 0.077 7.49 4.32 13.81
12/16/2020 3:15:00 AM 0.26 32.468 0.076 7.49 4.35 13.83
12/16/2020 3:30:00 AM 0.24 32.432 0.074 7.48 4.43 13.85
12/16/2020 3:45:00 AM 0.21 32.378 0.074 7.48 4.37 13.86
12/16/2020 4:00:00 AM 0.19 32.342 0.074 7.47 4.38 13.88
12/16/2020 4:15:00 AM 0.17 32.306 0.073 7.48 4.3 13.9
12/16/2020 4:30:00 AM 0.14 32.252 0.073 7.47 4.42 13.91
12/16/2020 4:45:00 AM 0.09 32.162 0.072 7.47 4.45 13.93
12/16/2020 5:00:00 AM 0.07 32.126 0.069 7.46 4.4 13.94
12/16/2020 5:15:00 AM 0.05 32.09 0.072 7.46 4.32 13.94
12/16/2020 5:30:00 AM 0.04 32.072 0.07 7.47 4.4 13.97
12/16/2020 5:45:00 AM 0.03 32.054 0.072 7.45 4.39 13.97
12/16/2020 6:00:00 AM 0.02 32.036 0.071 7.46 4.42 13.98
12/16/2020 6:15:00 AM 0.01 32.018 0.071 7.46 4.52 13.99
12/16/2020 6:30:00 AM 0 32 0.071 7.46 4.44 14
12/16/2020 6:45:00 AM -0.01 31.982 0.07 7.45 4.41 14
12/16/2020 7:00:00 AM -0.01 31.982 0.071 7.46 4.41 14.01
12/16/2020 7:15:00 AM -0.02 31.964 0.072 7.46 4.43 14.01
12/16/2020 7:30:00 AM -0.03 31.946 0.071 7.46 4.33 14.05
12/16/2020 7:45:00 AM -0.02 31.964 0.072 7.48 4.35 14.1
12/16/2020 8:00:00 AM -0.01 31.982 0.072 7.49 4.37 14.21
12/16/2020 8:15:00 AM 0 32 0.073 7.52 4.44 14.34
12/16/2020 8:30:00 AM 0.01 32.018 0.074 7.54 4.44 14.51
12/16/2020 8:45:00 AM 0.03 32.054 0.077 7.59 4.32 14.72
12/16/2020 9:00:00 AM 0.05 32.09 0.074 7.61 4.35 14.77
12/16/2020 9:15:00 AM 0.08 32.144 0.079 7.63 4.45 14.89
12/16/2020 9:30:00 AM 0.11 32.198 0.081 7.69 4.41 15.09
12/16/2020 9:45:00 AM 0.13 32.234 0.083 7.73 4.41 15.21
12/16/2020 10:00:00 AM 0.16 32.288 0.085 7.76 4.34 15.35
12/16/2020 10:15:00 AM 0.19 32.342 0.085 7.83 4.33 15.5
12/16/2020 10:30:00 AM 0.22 32.396 0.084 7.86 4.47 15.58
12/16/2020 10:45:00 AM 0.28 32.504 0.086 7.94 4.41 15.77
12/16/2020 11:00:00 AM 0.32 32.576 0.088 8.01 4.32 15.88
12/16/2020 11:15:00 AM 0.34 32.612 0.089 8.03 4.42 15.91
12/16/2020 11:30:00 AM 0.36 32.648 0.09 8.07 4.39 15.94
12/16/2020 11:45:00 AM 0.37 32.666 0.088 8.11 4.38 15.94
12/16/2020 12:00:00 PM 0.38 32.684 0.093 8.14 4.36 15.95
12/16/2020 12:15:00 PM 0.38 32.684 0.095 8.13 4.29 15.88
12/16/2020 12:30:00 PM 0.37 32.666 0.093 8.13 4.35 15.8
12/16/2020 12:45:00 PM 0.39 32.702 0.092 8.14 4.35 15.79
12/16/2020 1:00:00 PM 0.4 32.72 0.089 8.15 4.3 15.78
12/16/2020 1:15:00 PM 0.41 32.738 0.088 8.14 4.23 15.73
12/16/2020 1:30:00 PM 0.42 32.756 0.092 8.14 4.3 15.66
12/16/2020 1:45:00 PM 0.43 32.774 0.091 8.12 4.28 15.59
12/16/2020 2:00:00 PM 0.44 32.792 0.09 8.1 4.23 15.51
12/16/2020 2:15:00 PM 0.44 32.792 0.089 8.08 4.21 15.44
12/16/2020 2:30:00 PM 0.44 32.792 0.093 8.05 4.23 15.33
12/16/2020 2:45:00 PM 0.44 32.792 0.093 8.02 4.32 15.24
12/16/2020 3:00:00 PM 0.42 32.756 0.093 7.99 4.31 15.15
12/16/2020 3:15:00 PM 0.37 32.666 0.086 7.94 4.39 15.04
12/16/2020 3:30:00 PM 0.32 32.576 0.089 7.92 4.33 14.93
12/16/2020 3:45:00 PM 0.3 32.54 0.089 7.86 4.27 14.81
12/16/2020 4:00:00 PM 0.26 32.468 0.086 7.83 4.34 14.69
12/16/2020 4:15:00 PM 0.23 32.414 0.085 7.79 4.28 14.57
12/16/2020 4:30:00 PM 0.15 32.27 0.084 7.76 4.32 14.46
12/16/2020 4:45:00 PM 0.06 32.108 0.085 7.73 4.34 14.38
12/16/2020 5:00:00 PM 0.01 32.018 0.085 7.69 4.42 14.31
12/16/2020 5:15:00 PM 0.01 32.018 0.085 7.68 4.55 14.27
12/16/2020 5:30:00 PM 0.01 32.018 0.085 7.65 4.57 14.23
12/16/2020 5:45:00 PM 0.01 32.018 0.086 7.64 4.78 14.2
12/16/2020 6:00:00 PM 0.02 32.036 0.086 7.62 4.66 14.15
12/16/2020 6:15:00 PM 0.04 32.072 0.088 7.59 4.71 14.02
12/16/2020 6:30:00 PM 0.01 32.018 0.087 7.6 4.7 14.1
12/16/2020 6:45:00 PM 0.01 32.018 0.09 7.56 4.72 14.07
12/16/2020 7:00:00 PM 0.02 32.036 0.088 7.56 4.72 14.01
12/16/2020 7:15:00 PM 0.03 32.054 0.089 7.55 4.7 13.97
12/16/2020 7:30:00 PM 0.03 32.054 0.087 7.52 4.8 13.88
12/16/2020 7:45:00 PM 0.04 32.072 0.086 7.51 4.85 13.83
12/16/2020 8:00:00 PM 0.02 32.036 0.084 7.5 5.01 13.83
12/16/2020 8:15:00 PM 0.02 32.036 0.083 7.5 4.98 13.8
12/16/2020 8:30:00 PM 0.03 32.054 0.08 7.49 4.88 13.75
12/16/2020 8:45:00 PM 0.11 32.198 0.081 7.4 4.49 13.32
12/16/2020 9:00:00 PM 0.06 32.108 0.079 7.4 5.05 13.44
12/16/2020 9:15:00 PM 0.02 32.036 0.076 7.44 5.16 13.64
12/16/2020 9:30:00 PM 0.01 32.018 0.079 7.44 5.65 13.63
12/16/2020 9:45:00 PM 0.03 32.054 0.078 7.42 6.25 13.5
12/16/2020 10:00:00 PM 0.03 32.054 0.076 7.41 7.51 13.46
12/16/2020 10:15:00 PM 0.03 32.054 0.081 7.39 11.35 13.44
12/16/2020 10:30:00 PM 0.02 32.036 0.08 7.4 19.89 13.47
12/16/2020 10:45:00 PM 0.02 32.036 0.08 7.39 10.57 13.43
12/16/2020 11:00:00 PM 0.02 32.036 0.078 7.39 6.05 13.43
12/16/2020 11:15:00 PM 0.03 32.054 0.077 7.39 6.13 13.36
12/16/2020 11:30:00 PM 0.03 32.054 0.075 7.37 5.05 13.32
12/16/2020 11:45:00 PM 0.03 32.054 0.075 7.37 4.77 13.27
12/17/2020 12:00:00 AM 0.04 32.072 0.075 7.36 5.01 13.23
12/17/2020 12:15:00 AM 0.04 32.072 0.074 7.36 4.95 13.2
12/17/2020 12:30:00 AM 0.04 32.072 0.073 7.35 5.04 13.17
12/17/2020 12:45:00 AM 0.03 32.054 0.072 7.35 4.99 13.12
12/17/2020 1:00:00 AM 0.03 32.054 0.072 7.33 4.93 13.08
12/17/2020 1:15:00 AM 0.03 32.054 0.072 7.33 4.88 13.04
12/17/2020 1:30:00 AM 0.03 32.054 0.069 7.33 4.72 13.02
12/17/2020 1:45:00 AM 0.03 32.054 0.07 7.31 5.08 12.98
12/17/2020 2:00:00 AM 0.03 32.054 0.07 7.32 4.98 12.97
12/17/2020 2:15:00 AM 0.02 32.036 0.069 7.31 4.88 12.97
12/17/2020 2:30:00 AM 0.03 32.054 0.069 7.31 4.81 12.97
12/17/2020 2:45:00 AM 0.03 32.054 0.068 7.31 4.95 12.98
12/17/2020 3:00:00 AM 0.02 32.036 0.067 7.31 4.89 12.98
12/17/2020 3:15:00 AM 0.02 32.036 0.069 7.31 5.21 12.98
12/17/2020 3:30:00 AM 0.02 32.036 0.069 7.31 4.86 12.95
12/17/2020 3:45:00 AM 0.02 32.036 0.069 7.3 4.96 12.96
12/17/2020 4:00:00 AM 0.02 32.036 0.068 7.3 5.47 12.97
12/17/2020 4:15:00 AM 0.02 32.036 0.068 7.3 11.63 12.97
12/17/2020 4:30:00 AM 0.02 32.036 0.068 7.3 5.33 12.95
12/17/2020 4:45:00 AM 0.02 32.036 0.067 7.3 5.28 12.96
12/17/2020 5:00:00 AM 0.02 32.036 0.065 7.3 5.22 12.96
12/17/2020 5:15:00 AM 0.02 32.036 0.065 7.3 5.42 12.99
12/17/2020 5:30:00 AM 0.02 32.036 0.064 7.3 5.78 12.96
12/17/2020 5:45:00 AM 0.02 32.036 0.065 7.31 5.4 13.01
12/17/2020 6:00:00 AM 0.02 32.036 0.064 7.3 5.29 13.03
12/17/2020 6:15:00 AM 0.02 32.036 0.065 7.3 5.48 13.01
12/17/2020 6:30:00 AM 0.02 32.036 0.063 7.3 5.41 12.98
12/17/2020 6:45:00 AM 0.02 32.036 0.063 7.29 5.64 12.97
12/17/2020 7:00:00 AM 0.02 32.036 0.063 7.29 5.23 12.95
12/17/2020 7:15:00 AM 0.02 32.036 0.062 7.29 5.47 12.95
12/17/2020 7:30:00 AM 0.02 32.036 0.063 7.29 5.42 12.95
12/17/2020 7:45:00 AM 0.02 32.036 0.063 7.29 5.57 12.96
12/17/2020 8:00:00 AM 0.03 32.054 0.063 7.3 5.6 13.03
12/17/2020 8:15:00 AM 0.02 32.036 0.062 7.3 5.3 13.08
12/17/2020 8:30:00 AM 0.02 32.036 0.062 7.31 5.43 13.19
12/17/2020 8:45:00 AM 0.02 32.036 0.061 7.33 5.91 13.27
12/17/2020 9:00:00 AM 0.02 32.036 0.061 7.35 5.87 13.39
12/17/2020 9:15:00 AM 0.01 32.018 0.063 7.36 6.59 13.52
12/17/2020 9:30:00 AM 0.01 32.018 0.061 7.38 6.15 13.61
12/17/2020 9:45:00 AM 0.02 32.036 0.061 7.39 5.83 13.72
12/17/2020 10:00:00 AM 0.02 32.036 0.061 7.42 5.59 13.85
12/17/2020 10:15:00 AM 0.01 32.018 0.061 7.43 6.03 13.98
12/17/2020 10:30:00 AM 0.01 32.018 0.061 7.45 5.96 14.1
12/17/2020 10:45:00 AM 0.01 32.018 0.064 7.47 6.67 14.17
12/17/2020 11:00:00 AM 0.01 32.018 0.065 7.49 13.52 14.28
12/17/2020 11:15:00 AM 0.01 32.018 0.065 7.5 9.38 14.36
12/17/2020 11:30:00 AM 0.01 32.018 0.065 7.51 14.12 14.44
12/17/2020 11:45:00 AM 0.02 32.036 0.067 7.52 8.34 14.47
12/17/2020 12:00:00 PM 0.01 32.018 0.069 7.52 9.38 14.51
12/17/2020 12:15:00 PM 0.01 32.018 0.07 7.54 11.44 14.57
12/17/2020 12:30:00 PM 0.01 32.018 0.07 7.56 9.19 14.65
12/17/2020 12:45:00 PM 0.01 32.018 0.073 7.58 7.41 14.69
12/17/2020 1:00:00 PM 0.01 32.018 0.076 7.58 6.16 14.73
12/17/2020 1:15:00 PM 0.02 32.036 0.077 7.6 7.24 14.76
12/17/2020 1:30:00 PM 0.02 32.036 0.076 7.61 7.22 14.8
12/17/2020 1:45:00 PM 0.01 32.018 0.076 7.62 6.29 14.84
12/17/2020 2:00:00 PM 0.01 32.018 0.075 7.63 6.56 14.88
12/17/2020 2:15:00 PM 0.01 32.018 0.075 7.64 6.44 14.89
12/17/2020 2:30:00 PM 0.01 32.018 0.075 7.65 6.84 14.93
12/17/2020 2:45:00 PM 0.01 32.018 0.077 7.65 6.72 14.93
12/17/2020 3:00:00 PM 0.01 32.018 0.078 7.65 5.88 14.92
12/17/2020 3:15:00 PM 0.01 32.018 0.078 7.66 6.13 14.9
12/17/2020 3:30:00 PM 0.01 32.018 0.08 7.65 5.8 14.89
12/17/2020 3:45:00 PM 0.01 32.018 0.082 7.65 5.85 14.9
12/17/2020 4:00:00 PM 0.01 32.018 0.086 7.65 5.7 14.88
12/17/2020 4:15:00 PM 0.01 32.018 0.085 7.63 5.52 14.83
12/17/2020 4:30:00 PM 0.01 32.018 0.082 7.63 5.76 14.77
12/17/2020 4:45:00 PM 0.01 32.018 0.082 7.61 5.99 14.7
12/17/2020 5:00:00 PM 0.01 32.018 0.085 7.6 5.56 14.62
12/17/2020 5:15:00 PM 0.01 32.018 0.086 7.59 5.48 14.54
12/17/2020 5:30:00 PM 0.01 32.018 0.087 7.57 5.56 14.46
12/17/2020 5:45:00 PM 0.01 32.018 0.09 7.55 5.39 14.39
12/17/2020 6:00:00 PM 0.01 32.018 0.085 7.54 5.39 14.33
12/17/2020 6:15:00 PM 0.01 32.018 0.087 7.51 5.55 14.26
12/17/2020 6:30:00 PM 0.01 32.018 0.087 7.51 5.4 14.21
12/17/2020 6:45:00 PM 0.01 32.018 0.088 7.5 5.32 14.16
12/17/2020 7:00:00 PM 0.01 32.018 0.087 7.49 5.32 14.1
12/17/2020 7:15:00 PM 0.01 32.018 0.089 7.47 5.23 14.06
12/17/2020 7:30:00 PM 0.01 32.018 0.089 7.47 5.31 14.02
12/17/2020 7:45:00 PM 0.01 32.018 0.089 7.45 5.22 13.97
12/17/2020 8:00:00 PM 0.01 32.018 0.089 7.45 5.38 13.93
12/17/2020 8:15:00 PM 0.01 32.018 0.091 7.45 5.34 13.89
12/17/2020 8:30:00 PM 0.01 32.018 0.093 7.43 5.54 13.84
12/17/2020 8:45:00 PM 0.01 32.018 0.091 7.41 8.82 13.81
12/17/2020 9:00:00 PM 0.01 32.018 0.09 7.42 9.75 13.76
12/17/2020 9:15:00 PM 0.01 32.018 0.094 7.4 5.35 13.73
12/17/2020 9:30:00 PM 0.01 32.018 0.092 7.41 5.26 13.69
12/17/2020 9:45:00 PM 0.01 32.018 0.096 7.4 5.17 13.65
12/17/2020 10:00:00 PM 0.01 32.018 0.092 7.37 5.38 13.62
12/17/2020 10:15:00 PM 0.01 32.018 0.094 7.38 5.42 13.59
12/17/2020 10:30:00 PM 0.01 32.018 0.096 7.38 5.23 13.57
12/17/2020 10:45:00 PM 0.01 32.018 0.094 7.37 5.33 13.54
12/17/2020 11:00:00 PM 0.01 32.018 0.096 7.36 5.25 13.51
12/17/2020 11:15:00 PM 0.01 32.018 0.096 7.36 5.22 13.48
12/17/2020 11:30:00 PM 0.01 32.018 0.098 7.35 5.35 13.46
12/17/2020 11:45:00 PM 0.01 32.018 0.097 7.35 5.29 13.43
12/18/2020 12:00:00 AM 0.01 32.018 0.097 7.34 5.26 13.4
12/18/2020 12:15:00 AM 0.01 32.018 0.101 7.34 5.1 13.39
12/18/2020 12:30:00 AM 0.01 32.018 0.099 7.34 5.16 13.37
12/18/2020 12:45:00 AM 0.01 32.018 0.098 7.33 5.26 13.35
12/18/2020 1:00:00 AM 0.01 32.018 0.101 7.33 5.19 13.32
12/18/2020 1:15:00 AM 0.01 32.018 0.099 7.33 5.24 13.3
12/18/2020 1:30:00 AM 0.01 32.018 0.102 7.32 5.09 13.3
12/18/2020 1:45:00 AM 0.01 32.018 0.102 7.32 5.27 13.27
12/18/2020 2:00:00 AM 0.01 32.018 0.103 7.32 5.4 13.26
12/18/2020 2:15:00 AM 0.01 32.018 0.102 7.31 5.21 13.25
12/18/2020 2:30:00 AM 0.01 32.018 0.101 7.31 5.27 13.25
12/18/2020 2:45:00 AM 0.01 32.018 0.102 7.32 5.13 13.23
12/18/2020 3:00:00 AM 0.01 32.018 0.106 7.31 5.37 13.23
12/18/2020 3:15:00 AM 0.01 32.018 0.103 7.31 5.17 13.21
12/18/2020 3:30:00 AM 0.01 32.018 0.105 7.3 5.15 13.21
12/18/2020 3:45:00 AM 0.01 32.018 0.103 7.3 5.23 13.21
12/18/2020 4:00:00 AM 0.01 32.018 0.103 7.31 5.2 13.21
12/18/2020 4:15:00 AM 0.01 32.018 0.105 7.29 5.25 13.2
12/18/2020 4:30:00 AM 0.01 32.018 0.105 7.29 5.28 13.19
12/18/2020 4:45:00 AM 0.01 32.018 0.102 7.3 5.3 13.19
12/18/2020 5:00:00 AM 0.01 32.018 0.106 7.3 5.15 13.19
12/18/2020 5:15:00 AM 0.01 32.018 0.104 7.3 5.35 13.19
12/18/2020 5:30:00 AM 0.01 32.018 0.103 7.3 5.3 13.18
12/18/2020 5:45:00 AM 0.01 32.018 0.106 7.28 5.08 13.19
12/18/2020 6:00:00 AM 0.01 32.018 0.106 7.3 5.22 13.19
12/18/2020 6:15:00 AM 0.01 32.018 0.105 7.3 5.19 13.2
12/18/2020 6:30:00 AM 0.01 32.018 0.103 7.29 5.19 13.2
12/18/2020 6:45:00 AM 0.01 32.018 0.101 7.3 5.25 13.2
12/18/2020 7:00:00 AM 0.01 32.018 0.103 7.29 5.26 13.2
12/18/2020 7:15:00 AM 0.01 32.018 0.103 7.3 5.23 13.19
12/18/2020 7:30:00 AM 0.01 32.018 0.105 7.29 5.43 13.2
12/18/2020 7:45:00 AM 0.01 32.018 0.105 7.29 5.3 13.21
12/18/2020 8:00:00 AM 0.01 32.018 0.104 7.29 5.3 13.23
12/18/2020 8:15:00 AM 0.01 32.018 0.105 7.3 5.36 13.27
12/18/2020 8:30:00 AM 0.01 32.018 0.106 7.29 5.22 13.31
12/18/2020 8:45:00 AM 0.01 32.018 0.106 7.31 5.46 13.37
12/18/2020 9:00:00 AM 0.01 32.018 0.105 7.3 5.18 13.44
12/18/2020 9:15:00 AM 0.01 32.018 0.108 7.33 5.65 13.52
12/18/2020 9:30:00 AM 0.01 32.018 0.107 7.34 5.32 13.59
12/18/2020 9:45:00 AM 0.01 32.018 0.109 7.35 5.37 13.7
12/18/2020 10:00:00 AM 0.01 32.018 0.107 7.35 5.3 13.79
12/18/2020 10:15:00 AM 0.01 32.018 0.106 7.38 6.39 13.88
12/18/2020 10:30:00 AM 0.01 32.018 0.107 7.39 6.14 13.99
12/18/2020 10:45:00 AM 0.01 32.018 0.107 7.4 5.87 14.09
12/18/2020 11:00:00 AM 0.01 32.018 0.105 7.42 5.94 14.18
12/18/2020 11:15:00 AM 0.01 32.018 0.108 7.41 6.08 14.26
12/18/2020 11:30:00 AM 0.01 32.018 0.106 7.45 5.57 14.35
12/18/2020 11:45:00 AM 0.01 32.018 0.106 7.46 7.85 14.45
12/18/2020 12:00:00 PM 0.01 32.018 0.107 7.48 7.46 14.53
12/18/2020 12:15:00 PM 0.01 32.018 0.107 7.48 6.29 14.61
12/18/2020 12:30:00 PM 0.01 32.018 0.104 7.51 6.08 14.68
12/18/2020 12:45:00 PM 0.01 32.018 0.107 7.52 5.95 14.75
12/18/2020 1:00:00 PM 0.01 32.018 0.109 7.53 6.51 14.81
12/18/2020 1:15:00 PM 0.01 32.018 0.106 7.54 6.32 14.85
12/18/2020 1:30:00 PM 0.01 32.018 0.104 7.54 6.35 14.88
12/18/2020 1:45:00 PM 0.01 32.018 0.102 7.56 6.18 14.93
12/18/2020 2:00:00 PM 0.01 32.018 0.1 7.55 6.84 14.98
12/18/2020 2:15:00 PM 0.01 32.018 0.1 7.58 6.23 15.01
12/18/2020 2:30:00 PM 0.01 32.018 0.098 7.58 5.98 15.05
12/18/2020 2:45:00 PM 0.01 32.018 0.096 7.6 5.82 15.08
12/18/2020 3:00:00 PM 0.01 32.018 0.095 7.6 5.91 15.11
12/18/2020 3:15:00 PM 0.01 32.018 0.094 7.62 5.99 15.13
12/18/2020 3:30:00 PM 0.01 32.018 0.092 7.62 6 15.13
12/18/2020 3:45:00 PM 0.01 32.018 0.092 7.62 6.22 15.09
12/18/2020 4:00:00 PM 0.01 32.018 0.09 7.62 6.01 15.06
12/18/2020 4:15:00 PM 0.01 32.018 0.093 7.6 6.12 15
12/18/2020 4:30:00 PM 0.01 32.018 0.092 7.6 5.95 14.93
12/18/2020 4:45:00 PM 0.01 32.018 0.09 7.58 5.96 14.84
12/18/2020 5:00:00 PM 0.01 32.018 0.088 7.56 6.05 14.74
12/18/2020 5:15:00 PM 0.01 32.018 0.087 7.54 5.8 14.66
12/18/2020 5:30:00 PM 0.01 32.018 0.086 7.53 5.89 14.58
12/18/2020 5:45:00 PM 0.01 32.018 0.085 7.51 5.88 14.49
12/18/2020 6:00:00 PM 0.01 32.018 0.085 7.5 5.79 14.41
12/18/2020 6:15:00 PM 0.01 32.018 0.084 7.49 5.65 14.34
12/18/2020 6:30:00 PM 0.01 32.018 0.084 7.48 5.58 14.28
12/18/2020 6:45:00 PM 0.01 32.018 0.082 7.47 5.93 14.22
12/18/2020 7:00:00 PM 0.01 32.018 0.08 7.46 5.63 14.16
12/18/2020 7:15:00 PM 0.01 32.018 0.081 7.45 5.78 14.11
12/18/2020 7:30:00 PM 0.01 32.018 0.08 7.44 5.71 14.06
12/18/2020 7:45:00 PM 0.01 32.018 0.08 7.42 5.63 14.01
12/18/2020 8:00:00 PM 0.01 32.018 0.081 7.42 5.78 13.96
12/18/2020 8:15:00 PM 0.01 32.018 0.079 7.41 5.69 13.92
12/18/2020 8:30:00 PM 0.01 32.018 0.078 7.4 5.81 13.87
12/18/2020 8:45:00 PM 0.01 32.018 0.078 7.39 6.23 13.85
12/18/2020 9:00:00 PM 0.01 32.018 0.077 7.39 5.95 13.81
12/18/2020 9:15:00 PM 0.01 32.018 0.078 7.38 5.77 13.77
12/18/2020 9:30:00 PM 0.01 32.018 0.076 7.37 5.74 13.74
12/18/2020 9:45:00 PM 0.01 32.018 0.076 7.36 5.88 13.71
12/18/2020 10:00:00 PM 0.01 32.018 0.075 7.36 5.82 13.69
12/18/2020 10:15:00 PM 0.01 32.018 0.075 7.35 5.69 13.66
12/18/2020 10:30:00 PM 0.01 32.018 0.076 7.35 5.72 13.64
12/18/2020 10:45:00 PM 0.01 32.018 0.076 7.34 5.68 13.62
12/18/2020 11:00:00 PM 0.01 32.018 0.075 7.33 5.69 13.6
12/18/2020 11:15:00 PM 0.01 32.018 0.074 7.34 5.78 13.58
12/18/2020 11:30:00 PM 0.01 32.018 0.075 7.33 5.63 13.57
12/18/2020 11:45:00 PM 0.01 32.018 0.073 7.33 5.78 13.56
12/19/2020 12:00:00 AM 0.01 32.018 0.073 7.32 5.73 13.55
12/19/2020 12:15:00 AM 0.01 32.018 0.073 7.33 5.64 13.53
12/19/2020 12:30:00 AM 0.01 32.018 0.071 7.32 5.57 13.53
12/19/2020 12:45:00 AM 0.01 32.018 0.071 7.32 5.68 13.52
12/19/2020 1:00:00 AM 0.01 32.018 0.071 7.32 5.65 13.52
12/19/2020 1:15:00 AM 0.01 32.018 0.07 7.32 5.67 13.51
12/19/2020 1:30:00 AM 0.01 32.018 0.068 7.32 5.59 13.51
12/19/2020 1:45:00 AM 0.01 32.018 0.071 7.31 5.82 13.5
12/19/2020 2:00:00 AM 0.01 32.018 0.069 7.3 5.62 13.49
12/19/2020 2:15:00 AM 0.01 32.018 0.07 7.31 5.61 13.49
12/19/2020 2:30:00 AM 0.01 32.018 0.069 7.31 5.71 13.49
12/19/2020 2:45:00 AM 0.01 32.018 0.07 7.3 5.62 13.49
12/19/2020 3:00:00 AM 0.01 32.018 0.069 7.3 5.62 13.49
12/19/2020 3:15:00 AM 0.01 32.018 0.068 7.3 5.6 13.49
12/19/2020 3:30:00 AM 0.01 32.018 0.067 7.3 5.8 13.49
12/19/2020 3:45:00 AM 0.01 32.018 0.067 7.3 5.65 13.48
12/19/2020 4:00:00 AM 0 32 0.068 7.3 5.58 13.48
12/19/2020 4:15:00 AM 0.01 32.018 0.066 7.29 5.65 13.49
12/19/2020 4:30:00 AM 0.01 32.018 0.067 7.29 5.47 13.48
12/19/2020 4:45:00 AM 0.01 32.018 0.066 7.29 5.61 13.48
12/19/2020 5:00:00 AM 0 32 0.066 7.29 5.52 13.47
12/19/2020 5:15:00 AM 0.01 32.018 0.066 7.29 5.59 13.48
12/19/2020 5:30:00 AM 0.01 32.018 0.066 7.29 5.7 13.46
12/19/2020 5:45:00 AM 0.01 32.018 0.065 7.29 5.75 13.46
12/19/2020 6:00:00 AM 0.01 32.018 0.066 7.28 5.53 13.46
12/19/2020 6:15:00 AM 0.01 32.018 0.065 7.28 5.69 13.46
12/19/2020 6:30:00 AM 0.01 32.018 0.064 7.28 5.69 13.45
12/19/2020 6:45:00 AM 0.01 32.018 0.063 7.27 5.71 13.45
12/19/2020 7:00:00 AM 0.01 32.018 0.063 7.25 5.68 13.44
12/19/2020 7:15:00 AM 0.01 32.018 0.062 7.26 5.48 13.43
12/19/2020 7:30:00 AM 0.01 32.018 0.062 7.26 5.54 13.43
12/19/2020 7:45:00 AM 0.01 32.018 0.063 7.26 5.48 13.44
12/19/2020 8:00:00 AM 0.01 32.018 0.061 7.26 5.54 13.49
12/19/2020 8:15:00 AM 0.01 32.018 0.061 7.27 5.54 13.55
12/19/2020 8:30:00 AM 0.01 32.018 0.061 7.27 5.71 13.63
12/19/2020 8:45:00 AM 0.01 32.018 0.059 7.28 5.71 13.72
12/19/2020 9:00:00 AM 0.01 32.018 0.059 7.29 5.55 13.82
12/19/2020 9:15:00 AM 0.01 32.018 0.058 7.31 5.83 13.96
12/19/2020 9:30:00 AM 0.01 32.018 0.06 7.33 5.77 14.08
12/19/2020 9:45:00 AM 0.02 32.036 0.058 7.35 5.72 14.21
12/19/2020 10:00:00 AM 0.02 32.036 0.058 7.37 5.72 14.37
12/19/2020 10:15:00 AM 0.02 32.036 0.057 7.39 5.95 14.5
12/19/2020 10:30:00 AM 0.02 32.036 0.056 7.41 6.08 14.63
12/19/2020 10:45:00 AM 0.02 32.036 0.056 7.44 5.83 14.77
12/19/2020 11:00:00 AM 0.02 32.036 0.056 7.46 6.02 14.91
12/19/2020 11:15:00 AM 0.02 32.036 0.055 7.49 6.28 15.04
12/19/2020 11:30:00 AM 0.02 32.036 0.055 7.52 6.06 15.16
12/19/2020 11:45:00 AM 0.02 32.036 0.055 7.53 6.48 15.27
12/19/2020 12:00:00 PM 0.03 32.054 0.054 7.55 6.63 15.36
12/19/2020 12:15:00 PM 0.03 32.054 0.054 7.58 6.43 15.48
12/19/2020 12:30:00 PM 0.03 32.054 0.054 7.6 6.6 15.59
12/19/2020 12:45:00 PM 0.03 32.054 0.054 7.62 6.82 15.67
12/19/2020 1:00:00 PM 0.03 32.054 0.053 7.65 7.06 15.74
12/19/2020 1:15:00 PM 0.03 32.054 0.054 7.68 6.91 15.79
12/19/2020 1:30:00 PM 0.02 32.036 0.053 7.68 6.66 15.8
12/19/2020 1:45:00 PM 0.02 32.036 0.052 7.7 6.72 15.8
12/19/2020 2:00:00 PM 0.03 32.054 0.052 7.72 6.56 15.84
12/19/2020 2:15:00 PM 0.03 32.054 0.052 7.73 6.75 15.86
12/19/2020 2:30:00 PM 0.03 32.054 0.051 7.75 6.62 15.88
12/19/2020 2:45:00 PM 0.02 32.036 0.052 7.75 6.67 15.86
12/19/2020 3:00:00 PM 0.02 32.036 0.051 7.76 6.96 15.85
12/19/2020 3:15:00 PM 0.02 32.036 0.051 7.77 6.51 15.8
12/19/2020 3:30:00 PM 0.02 32.036 0.051 7.76 6.68 15.75
12/19/2020 3:45:00 PM 0.02 32.036 0.051 7.74 6.42 15.68
12/19/2020 4:00:00 PM 0.02 32.036 0.051 7.74 6.5 15.6
12/19/2020 4:15:00 PM 0.02 32.036 0.05 7.72 6.66 15.51
12/19/2020 4:30:00 PM 0.02 32.036 0.05 7.69 6.77 15.38
12/19/2020 4:45:00 PM 0.01 32.018 0.051 7.67 6.16 15.25
12/19/2020 5:00:00 PM 0.01 32.018 0.051 7.63 6.55 15.12
12/19/2020 5:15:00 PM 0.01 32.018 0.051 7.62 6.41 14.98
12/19/2020 5:30:00 PM 0.01 32.018 0.05 7.58 6.38 14.86
12/19/2020 5:45:00 PM 0.01 32.018 0.052 7.56 6.19 14.75
12/19/2020 6:00:00 PM 0.01 32.018 0.052 7.55 6.19 14.64
12/19/2020 6:15:00 PM 0.02 32.036 0.052 7.53 6.28 14.54
12/19/2020 6:30:00 PM 0.02 32.036 0.051 7.51 6.09 14.45
12/19/2020 6:45:00 PM 0.02 32.036 0.051 7.5 6.01 14.36
12/19/2020 7:00:00 PM 0.02 32.036 0.052 7.48 6.04 14.27
12/19/2020 7:15:00 PM 0.02 32.036 0.05 7.48 6.01 14.19
12/19/2020 7:30:00 PM 0.02 32.036 0.05 7.46 5.99 14.12
12/19/2020 7:45:00 PM 0.01 32.018 0.051 7.44 5.96 14.05
12/19/2020 8:00:00 PM 0.01 32.018 0.05 7.44 6.05 13.99
12/19/2020 8:15:00 PM 0.02 32.036 0.05 7.42 5.92 13.93
12/19/2020 8:30:00 PM 0.01 32.018 0.05 7.41 5.99 13.87
12/19/2020 8:45:00 PM 0.01 32.018 0.05 7.41 6.78 13.82
12/19/2020 9:00:00 PM 0.02 32.036 0.051 7.39 5.86 13.77
12/19/2020 9:15:00 PM 0.01 32.018 0.049 7.39 5.87 13.73
12/19/2020 9:30:00 PM 0.01 32.018 0.051 7.39 6.04 13.69
12/19/2020 9:45:00 PM 0.01 32.018 0.049 7.37 5.89 13.65
12/19/2020 10:00:00 PM 0.02 32.036 0.05 7.38 6.33 13.61
12/19/2020 10:15:00 PM 0.02 32.036 0.052 7.34 5.82 13.58
12/19/2020 10:30:00 PM 0.02 32.036 0.054 7.36 5.75 13.55
12/19/2020 10:45:00 PM 0.02 32.036 0.055 7.35 5.86 13.52
12/19/2020 11:00:00 PM 0.02 32.036 0.057 7.35 5.86 13.49
12/19/2020 11:15:00 PM 0.02 32.036 0.058 7.35 5.95 13.47
12/19/2020 11:30:00 PM 0.02 32.036 0.06 7.33 5.8 13.45
12/19/2020 11:45:00 PM 0.02 32.036 0.065 7.33 5.94 13.43
12/20/2020 12:00:00 AM 0.02 32.036 0.062 7.33 5.83 13.41
12/20/2020 12:15:00 AM 0.02 32.036 0.062 7.31 5.79 13.4
12/20/2020 12:30:00 AM 0.02 32.036 0.065 7.32 5.81 13.38
12/20/2020 12:45:00 AM 0.02 32.036 0.068 7.32 5.73 13.38
12/20/2020 1:00:00 AM 0.02 32.036 0.069 7.31 5.98 13.36
12/20/2020 1:15:00 AM 0.02 32.036 0.073 7.32 5.72 13.36
12/20/2020 1:30:00 AM 0.02 32.036 0.073 7.3 5.8 13.35
12/20/2020 1:45:00 AM 0.02 32.036 0.075 7.31 5.7 13.34
12/20/2020 2:00:00 AM 0.02 32.036 0.077 7.31 5.76 13.34
12/20/2020 2:15:00 AM 0.02 32.036 0.08 7.31 5.81 13.33
12/20/2020 2:30:00 AM 0.02 32.036 0.079 7.31 7.27 13.33
12/20/2020 2:45:00 AM 0.02 32.036 0.079 7.29 5.79 13.33
12/20/2020 3:00:00 AM 0.02 32.036 0.08 7.3 5.84 13.33
12/20/2020 3:15:00 AM 0.02 32.036 0.081 7.3 5.91 13.33
12/20/2020 3:30:00 AM 0.02 32.036 0.085 7.28 5.96 13.33
12/20/2020 3:45:00 AM 0.02 32.036 0.086 7.29 5.78 13.32
12/20/2020 4:00:00 AM 0.02 32.036 0.093 7.3 5.77 13.32
12/20/2020 4:15:00 AM 0.02 32.036 0.091 7.3 5.87 13.32
12/20/2020 4:30:00 AM 0.02 32.036 0.088 7.3 6.04 13.32
12/20/2020 4:45:00 AM 0.02 32.036 0.087 7.28 5.85 13.32
12/20/2020 5:00:00 AM 0.02 32.036 0.093 7.3 5.93 13.32
12/20/2020 5:15:00 AM 0.02 32.036 0.09 7.29 5.87 13.32
12/20/2020 5:30:00 AM 0.02 32.036 0.093 7.29 5.7 13.32
12/20/2020 5:45:00 AM 0.02 32.036 0.098 7.3 5.84 13.32
12/20/2020 6:00:00 AM 0.02 32.036 0.098 7.3 5.83 13.32
12/20/2020 6:15:00 AM 0.02 32.036 0.091 7.29 5.94 13.32
12/20/2020 6:30:00 AM 0.02 32.036 0.095 7.3 5.96 13.32
12/20/2020 6:45:00 AM 0.02 32.036 0.093 7.26 5.86 13.33
12/20/2020 7:00:00 AM 0.02 32.036 0.098 7.3 6.03 13.33
12/20/2020 7:15:00 AM 0.02 32.036 0.096 7.3 5.81 13.32
12/20/2020 7:30:00 AM 0.02 32.036 0.096 7.3 5.78 13.34
12/20/2020 7:45:00 AM 0.02 32.036 0.095 7.27 6.02 13.35
12/20/2020 8:00:00 AM 0.02 32.036 0.096 7.31 5.75 13.38
12/20/2020 8:15:00 AM 0.02 32.036 0.102 7.29 5.68 13.43
12/20/2020 8:30:00 AM 0.02 32.036 0.102 7.33 5.94 13.51
12/20/2020 8:45:00 AM 0.02 32.036 0.105 7.34 5.83 13.56
12/20/2020 9:00:00 AM 0.03 32.054 0.105 7.36 5.67 13.68
12/20/2020 9:15:00 AM 0.03 32.054 0.108 7.38 6.14 13.83
12/20/2020 9:30:00 AM 0.04 32.072 0.104 7.4 6.1 13.98
12/20/2020 9:45:00 AM 0.04 32.072 0.105 7.43 6.37 14.14
12/20/2020 10:00:00 AM 0.04 32.072 0.108 7.45 6.23 14.26
12/20/2020 10:15:00 AM 0.03 32.054 0.108 7.43 6.55 14.38
12/20/2020 10:30:00 AM 0.03 32.054 0.109 7.48 6.42 14.48
12/20/2020 10:45:00 AM 0.03 32.054 0.114 7.51 6.52 14.52
12/20/2020 11:00:00 AM 0.03 32.054 0.116 7.51 6.58 14.56
12/20/2020 11:15:00 AM 0.04 32.072 0.116 7.55 6.54 14.65
12/20/2020 11:30:00 AM 0.04 32.072 0.113 7.57 6.48 14.72
12/20/2020 11:45:00 AM 0.04 32.072 0.111 7.58 6.78 14.79
12/20/2020 12:00:00 PM 0.03 32.054 0.116 7.6 6.7 14.79
12/20/2020 12:15:00 PM 0.03 32.054 0.117 7.6 7.01 14.84
12/20/2020 12:30:00 PM 0.03 32.054 0.117 7.63 6.74 14.88
12/20/2020 12:45:00 PM 0.03 32.054 0.12 7.62 6.66 14.88
12/20/2020 1:00:00 PM 0.03 32.054 0.118 7.65 6.57 14.89
12/20/2020 1:15:00 PM 0.03 32.054 0.12 7.65 6.73 14.95
12/20/2020 1:30:00 PM 0.04 32.072 0.126 7.69 6.66 14.98
12/20/2020 1:45:00 PM 0.03 32.054 0.122 7.7 6.78 15
12/20/2020 2:00:00 PM 0.03 32.054 0.126 7.7 7.35 14.99
12/20/2020 2:15:00 PM 0.03 32.054 0.123 7.71 6.62 14.96
12/20/2020 2:30:00 PM 0.03 32.054 0.122 7.71 7.11 14.94
12/20/2020 2:45:00 PM 0.03 32.054 0.124 7.72 7.23 14.96
12/20/2020 3:00:00 PM 0.03 32.054 0.126 7.71 7 14.91
12/20/2020 3:15:00 PM 0.03 32.054 0.123 7.72 7.15 14.9
12/20/2020 3:30:00 PM 0.03 32.054 0.121 7.71 7.06 14.85
12/20/2020 3:45:00 PM 0.03 32.054 0.122 7.71 6.95 14.79
12/20/2020 4:00:00 PM 0.03 32.054 0.123 7.69 6.92 14.71
12/20/2020 4:15:00 PM 0.03 32.054 0.122 7.66 6.85 14.62
12/20/2020 4:30:00 PM 0.03 32.054 0.122 7.65 6.77 14.51
12/20/2020 4:45:00 PM 0.03 32.054 0.128 7.59 6.88 14.4
12/20/2020 5:00:00 PM 0.03 32.054 0.124 7.6 6.85 14.27
12/20/2020 5:15:00 PM 0.03 32.054 0.124 7.57 7.1 14.16
12/20/2020 5:30:00 PM 0.03 32.054 0.124 7.54 6.89 14.06
12/20/2020 5:45:00 PM 0.03 32.054 0.126 7.53 7.07 13.97
12/20/2020 6:00:00 PM 0.03 32.054 0.127 7.52 6.94 13.9
12/20/2020 6:15:00 PM 0.03 32.054 0.129 7.51 6.92 13.82
12/20/2020 6:30:00 PM 0.03 32.054 0.128 7.47 6.62 13.76
12/20/2020 6:45:00 PM 0.03 32.054 0.132 7.48 6.71 13.7
12/20/2020 7:00:00 PM 0.03 32.054 0.129 7.46 6.74 13.65
12/20/2020 7:15:00 PM 0.03 32.054 0.13 7.44 6.69 13.6
12/20/2020 7:30:00 PM 0.03 32.054 0.129 7.44 6.59 13.56
12/20/2020 7:45:00 PM 0.03 32.054 0.132 7.43 6.55 13.52
12/20/2020 8:00:00 PM 0.03 32.054 0.131 7.43 6.54 13.48
12/20/2020 8:15:00 PM 0.03 32.054 0.133 7.43 6.56 13.45
12/20/2020 8:30:00 PM 0.03 32.054 0.13 7.39 6.5 13.44
12/20/2020 8:45:00 PM 0.03 32.054 0.132 7.4 6.55 13.41
12/20/2020 9:00:00 PM 0.03 32.054 0.137 7.4 6.4 13.38
12/20/2020 9:15:00 PM 0.03 32.054 0.138 7.41 6.52 13.36
12/20/2020 9:30:00 PM 0.03 32.054 0.137 7.39 6.48 13.35
12/20/2020 9:45:00 PM 0.03 32.054 0.14 7.4 6.42 13.34
12/20/2020 10:00:00 PM 0.03 32.054 0.141 7.4 7.02 13.33
12/20/2020 10:15:00 PM 0.03 32.054 0.138 7.37 6.48 13.32
12/20/2020 10:30:00 PM 0.03 32.054 0.142 7.39 6.52 13.31
12/20/2020 10:45:00 PM 0.03 32.054 0.137 7.37 6.52 13.3
12/20/2020 11:00:00 PM 0.03 32.054 0.136 7.37 6.4 13.29
12/20/2020 11:15:00 PM 0.03 32.054 0.142 7.38 6.27 13.29
12/20/2020 11:30:00 PM 0.03 32.054 0.138 7.38 6.29 13.28
12/20/2020 11:45:00 PM 0.03 32.054 0.14 7.36 6.54 13.27
12/21/2020 12:00:00 AM 0.03 32.054 0.138 7.38 6.65 13.26
12/21/2020 12:15:00 AM 0.03 32.054 0.145 7.38 6.31 13.27
12/21/2020 12:30:00 AM 0.03 32.054 0.143 7.34 6.34 13.26
12/21/2020 12:45:00 AM 0.03 32.054 0.143 7.37 6.26 13.26
12/21/2020 1:00:00 AM 0.03 32.054 0.142 7.35 6.72 13.26
12/21/2020 1:15:00 AM 0.03 32.054 0.141 7.37 6.4 13.27
12/21/2020 1:30:00 AM 0.04 32.072 0.143 7.37 6.36 13.26
12/21/2020 1:45:00 AM 0.03 32.054 0.147 7.37 6.81 13.26
12/21/2020 2:00:00 AM 0.03 32.054 0.14 7.36 6.58 13.26
12/21/2020 2:15:00 AM 0.04 32.072 0.143 7.38 6.45 13.27
12/21/2020 2:30:00 AM 0.03 32.054 0.142 7.37 6.64 13.26
12/21/2020 2:45:00 AM 0.04 32.072 0.141 7.36 6.54 13.26
12/21/2020 3:00:00 AM 0.04 32.072 0.141 7.35 6.64 13.25
12/21/2020 3:15:00 AM 0.04 32.072 0.141 7.37 6.48 13.25
12/21/2020 3:30:00 AM 0.04 32.072 0.145 7.35 6.64 13.26
12/21/2020 3:45:00 AM 0.04 32.072 0.142 7.37 6.45 13.26
12/21/2020 4:00:00 AM 0.04 32.072 0.143 7.35 6.46 13.26
12/21/2020 4:15:00 AM 0.04 32.072 0.143 7.37 6.62 13.26
12/21/2020 4:30:00 AM 0.04 32.072 0.146 7.36 6.51 13.26
12/21/2020 4:45:00 AM 0.04 32.072 0.143 7.37 6.58 13.26
12/21/2020 5:00:00 AM 0.04 32.072 0.145 7.37 6.8 13.25
12/21/2020 5:15:00 AM 0.04 32.072 0.137 7.37 6.59 13.25
12/21/2020 5:30:00 AM 0.04 32.072 0.138 7.32 6.62 13.25
12/21/2020 5:45:00 AM 0.04 32.072 0.137 7.37 6.56 13.25
12/21/2020 6:00:00 AM 0.04 32.072 0.138 7.37 6.48 13.25
12/21/2020 6:15:00 AM 0.04 32.072 0.139 7.34 6.58 13.25
12/21/2020 6:30:00 AM 0.04 32.072 0.138 7.37 6.46 13.25
12/21/2020 6:45:00 AM 0.04 32.072 0.14 7.37 6.61 13.25
12/21/2020 7:00:00 AM 0.04 32.072 0.14 7.37 6.88 13.25
12/21/2020 7:15:00 AM 0.03 32.054 0.138 7.37 6.71 13.25
12/21/2020 7:30:00 AM 0.04 32.072 0.139 7.36 6.58 13.27
12/21/2020 7:45:00 AM 0.04 32.072 0.138 7.36 6.74 13.29
12/21/2020 8:00:00 AM 0.04 32.072 0.14 7.38 6.69 13.32
12/21/2020 8:15:00 AM 0.04 32.072 0.137 7.39 6.75 13.37
12/21/2020 8:30:00 AM 0.05 32.09 0.139 7.36 6.78 13.47
12/21/2020 8:45:00 AM 0.05 32.09 0.141 7.42 6.7 13.58
12/21/2020 9:00:00 AM 0.05 32.09 0.14 7.42 6.93 13.66
12/21/2020 9:15:00 AM 0.05 32.09 0.141 7.46 7.1 13.77
12/21/2020 9:30:00 AM 0.05 32.09 0.142 7.47 7.12 13.88
12/21/2020 9:45:00 AM 0.06 32.108 0.142 7.5 7.21 14.02
12/21/2020 10:00:00 AM 0.06 32.108 0.139 7.53 7.27 14.15
12/21/2020 10:15:00 AM 0.06 32.108 0.14 7.54 7.4 14.26
12/21/2020 10:30:00 AM 0.07 32.126 0.135 7.6 8.02 14.38
12/21/2020 10:45:00 AM 0.09 32.162 0.136 7.62 7.83 14.54
12/21/2020 11:00:00 AM 0.1 32.18 0.144 7.68 8.02 14.7
12/21/2020 11:15:00 AM 0.11 32.198 0.14 7.72 8.09 14.79
12/21/2020 11:30:00 AM 0.11 32.198 0.136 7.76 10.21 14.83
12/21/2020 11:45:00 AM 0.12 32.216 0.137 7.77 7.57 14.91
12/21/2020 12:00:00 PM 0.14 32.252 0.138 7.84 8.28 14.98
12/21/2020 12:15:00 PM 0.14 32.252 0.138 7.88 10.12 15.02
12/21/2020 12:30:00 PM 0.14 32.252 0.137 7.88 7.33 15.03
12/21/2020 12:45:00 PM 0.15 32.27 0.137 7.93 7.54 15.04
12/21/2020 1:00:00 PM 0.17 32.306 0.135 7.92 7.21 15.06
12/21/2020 1:15:00 PM 0.16 32.288 0.138 7.97 7.45 15.02
12/21/2020 1:30:00 PM 0.15 32.27 0.139 7.96 7.12 14.93
12/21/2020 1:45:00 PM 0.17 32.306 0.138 7.98 7.15 14.93
12/21/2020 2:00:00 PM 0.19 32.342 0.139 8.01 7.04 14.92
12/21/2020 2:15:00 PM 0.21 32.378 0.142 8.02 6.79 14.92
12/21/2020 2:30:00 PM 0.21 32.378 0.137 8.01 7.29 14.87
12/21/2020 2:45:00 PM 0.22 32.396 0.134 8.03 6.97 14.81
12/21/2020 3:00:00 PM 0.23 32.414 0.14 8.02 7.21 14.75
12/21/2020 3:15:00 PM 0.24 32.432 0.139 8 6.85 14.67
12/21/2020 3:30:00 PM 0.26 32.468 0.143 8 7.18 14.6
12/21/2020 3:45:00 PM 0.27 32.486 0.141 7.99 8.86 14.54
12/21/2020 4:00:00 PM 0.28 32.504 0.143 7.93 6.48 14.45
12/21/2020 4:15:00 PM 0.29 32.522 0.142 7.92 6.64 14.32
12/21/2020 4:30:00 PM 0.3 32.54 0.139 7.88 6.76 14.14
12/21/2020 4:45:00 PM 0.32 32.576 0.151 7.83 6.43 13.97
12/21/2020 5:00:00 PM 0.34 32.612 0.145 7.76 6.88 13.83
12/21/2020 5:15:00 PM 0.37 32.666 0.147 7.75 6.3 13.69
12/21/2020 5:30:00 PM 0.39 32.702 0.15 7.7 6.59 13.58
12/21/2020 5:45:00 PM 0.43 32.774 0.153 7.67 6.56 13.47
12/21/2020 6:00:00 PM 0.42 32.756 0.154 7.66 6.53 13.38
12/21/2020 6:15:00 PM 0.46 32.828 0.16 7.61 7.22 13.32
12/21/2020 6:30:00 PM 0.48 32.864 0.152 7.61 6.58 13.25
12/21/2020 6:45:00 PM 0.51 32.918 0.159 7.58 6.52 13.2
12/21/2020 7:00:00 PM 0.54 32.972 0.16 7.58 6 13.14
12/21/2020 7:15:00 PM 0.59 33.062 0.154 7.55 6.61 13.12
12/21/2020 7:30:00 PM 0.65 33.17 0.156 7.55 6.25 13.11
12/21/2020 7:45:00 PM 0.65 33.17 0.158 7.54 6.33 13.07
12/21/2020 8:00:00 PM 0.64 33.152 0.154 7.54 5.93 13.03
12/21/2020 8:15:00 PM 0.78 33.404 0.156 7.49 7.09 13.04
12/21/2020 8:30:00 PM 0.82 33.476 0.159 7.53 6.03 13.01
12/21/2020 8:45:00 PM 0.86 33.548 0.156 7.52 6.03 13.02
12/21/2020 9:00:00 PM 0.9 33.62 0.161 7.5 6.19 12.99
12/21/2020 9:15:00 PM 0.95 33.71 0.162 7.51 6.45 12.98
12/21/2020 9:30:00 PM 1 33.8 0.161 7.52 6.17 12.98
12/21/2020 9:45:00 PM 1.02 33.836 0.17 7.48 6.34 12.95
12/21/2020 10:00:00 PM 1.08 33.944 0.175 7.5 5.97 12.94
12/21/2020 10:15:00 PM 1.13 34.034 0.167 7.5 5.92 12.92
12/21/2020 10:30:00 PM 1.21 34.178 0.169 7.5 5.93 12.93
12/21/2020 10:45:00 PM 1.24 34.232 0.169 7.5 6.31 12.92
12/21/2020 11:00:00 PM 1.29 34.322 0.172 7.5 6 12.93
12/21/2020 11:15:00 PM 1.35 34.43 0.168 7.48 6.22 12.92
12/21/2020 11:30:00 PM 1.29 34.322 0.164 7.47 5.93 12.92
12/21/2020 11:45:00 PM 1.35 34.43 0.169 7.49 5.8 12.9
12/22/2020 12:00:00 AM 1.4 34.52 0.176 7.48 5.86 12.91
12/22/2020 12:15:00 AM 1.41 34.538 0.172 7.49 5.71 12.9
12/22/2020 12:30:00 AM 1.44 34.592 0.174 7.48 5.81 12.91
12/22/2020 12:45:00 AM 1.46 34.628 0.181 7.49 5.62 12.92
12/22/2020 1:00:00 AM 1.49 34.682 0.181 7.49 5.74 12.93
12/22/2020 1:15:00 AM 1.46 34.628 0.183 7.44 6.02 12.93
12/22/2020 1:30:00 AM 1.5 34.7 0.186 7.48 6.33 12.93
12/22/2020 1:45:00 AM 1.49 34.682 0.189 7.48 5.72 12.93
12/22/2020 2:00:00 AM 1.49 34.682 0.189 7.47 5.8 12.94
12/22/2020 2:15:00 AM 1.46 34.628 0.192 7.48 5.66 12.94
12/22/2020 2:30:00 AM 1.46 34.628 0.191 7.48 5.7 12.95
12/22/2020 2:45:00 AM 1.5 34.7 0.192 7.48 5.61 12.95
12/22/2020 3:00:00 AM 1.48 34.664 0.19 7.48 5.53 12.95
12/22/2020 3:15:00 AM 1.48 34.664 0.192 7.47 5.67 12.96
12/22/2020 3:30:00 AM 1.47 34.646 0.192 7.44 5.8 12.96
12/22/2020 3:45:00 AM 1.46 34.628 0.19 7.46 5.47 12.99
12/22/2020 4:00:00 AM 1.44 34.592 0.195 7.47 5.48 12.99
12/22/2020 4:15:00 AM 1.41 34.538 0.195 7.41 5.59 13
12/22/2020 4:30:00 AM 1.39 34.502 0.2 7.47 5.64 13.01
12/22/2020 4:45:00 AM 1.4 34.52 0.21 7.47 5.71 13.01
12/22/2020 5:00:00 AM 1.39 34.502 0.215 7.42 5.65 13.01
12/22/2020 5:15:00 AM 1.4 34.52 0.212 7.44 5.55 13.03
12/22/2020 5:30:00 AM 1.39 34.502 0.203 7.46 5.57 13.04
12/22/2020 5:45:00 AM 1.4 34.52 0.208 7.44 5.59 13.03
12/22/2020 6:00:00 AM 1.41 34.538 0.201 7.46 5.77 13.03
12/22/2020 6:15:00 AM 1.41 34.538 0.203 7.47 5.67 13.03
12/22/2020 6:30:00 AM 1.41 34.538 0.199 7.46 5.47 13.05
12/22/2020 6:45:00 AM 1.41 34.538 0.198 7.46 5.56 13.05
12/22/2020 7:00:00 AM 1.42 34.556 0.194 7.46 5.54 13.06
12/22/2020 7:15:00 AM 1.42 34.556 0.194 7.46 5.64 13.06
12/22/2020 7:30:00 AM 1.41 34.538 0.196 7.45 5.55 13.08
12/22/2020 7:45:00 AM 1.42 34.556 0.193 7.45 5.6 13.1
12/22/2020 8:00:00 AM 1.44 34.592 0.196 7.47 5.43 13.15
12/22/2020 8:15:00 AM 1.44 34.592 0.195 7.48 5.46 13.22
12/22/2020 8:30:00 AM 1.47 34.646 0.189 7.5 5.65 13.35
12/22/2020 8:45:00 AM 1.51 34.718 0.194 7.53 5.54 13.52
12/22/2020 9:00:00 AM 1.53 34.754 0.184 7.56 5.6 13.67
12/22/2020 9:15:00 AM 1.58 34.844 0.181 7.59 5.5 13.82
12/22/2020 9:30:00 AM 1.61 34.898 0.179 7.6 5.58 13.93
12/22/2020 9:45:00 AM 1.64 34.952 0.183 7.64 5.53 14.01
12/22/2020 10:00:00 AM 1.66 34.988 0.192 7.66 5.67 14.1
12/22/2020 10:15:00 AM 1.68 35.024 0.191 7.7 5.5 14.15
12/22/2020 10:30:00 AM 1.72 35.096 0.191 7.74 5.68 14.27
12/22/2020 10:45:00 AM 1.79 35.222 0.188 7.77 5.62 14.4
12/22/2020 11:00:00 AM 1.82 35.276 0.187 7.81 5.67 14.44
12/22/2020 11:15:00 AM 1.89 35.402 0.183 7.85 5.69 14.55
12/22/2020 11:30:00 AM 1.94 35.492 0.18 7.88 5.61 14.61
12/22/2020 11:45:00 AM 2 35.6 0.184 7.93 5.82 14.66
12/22/2020 12:00:00 PM 2.12 35.816 0.179 7.97 5.73 14.73
12/22/2020 12:15:00 PM 2.12 35.816 0.183 7.99 5.74 14.7
12/22/2020 12:30:00 PM 2.15 35.87 0.186 8.02 5.71 14.71
12/22/2020 12:45:00 PM 2.14 35.852 0.182 8.02 5.52 14.66
12/22/2020 1:00:00 PM 2.16 35.888 0.186 7.99 5.58 14.64
12/22/2020 1:15:00 PM 2.21 35.978 0.186 8.06 5.66 14.69
12/22/2020 1:30:00 PM 2.21 35.978 0.182 8.03 5.58 14.62
12/22/2020 1:45:00 PM 2.18 35.924 0.183 8.04 5.63 14.51
12/22/2020 2:00:00 PM 2.18 35.924 0.185 8.01 5.67 14.44
12/22/2020 2:15:00 PM 2.15 35.87 0.184 8.01 5.55 14.4
12/22/2020 2:30:00 PM 2.14 35.852 0.187 8.01 5.46 14.38
12/22/2020 2:45:00 PM 2.15 35.87 0.194 7.97 5.61 14.35
12/22/2020 3:00:00 PM 2.16 35.888 0.194 8 5.59 14.31
12/22/2020 3:15:00 PM 2.16 35.888 0.191 7.97 5.47 14.23
12/22/2020 3:30:00 PM 2.13 35.834 0.191 7.94 5.86 14.14
12/22/2020 3:45:00 PM 2.14 35.852 0.182 7.91 5.68 14.09
12/22/2020 4:00:00 PM 2.13 35.834 0.181 7.9 5.49 14.03
12/22/2020 4:15:00 PM 2.13 35.834 0.19 7.86 5.58 13.9
12/22/2020 4:30:00 PM 2.13 35.834 0.196 7.83 5.49 13.79
12/22/2020 4:45:00 PM 2.11 35.798 0.202 7.8 5.73 13.68
12/22/2020 5:00:00 PM 2.1 35.78 0.194 7.76 5.44 13.55
12/22/2020 5:15:00 PM 2.1 35.78 0.197 7.72 5.63 13.44
12/22/2020 5:30:00 PM 2.1 35.78 0.199 7.67 5.39 13.36
12/22/2020 5:45:00 PM 2.11 35.798 0.208 7.63 5.44 13.29
12/22/2020 6:00:00 PM 2.11 35.798 0.219 7.65 5.61 13.23
12/22/2020 6:15:00 PM 2.1 35.78 0.217 7.59 5.52 13.17
12/22/2020 6:30:00 PM 2.12 35.816 0.217 7.62 5.56 13.15
12/22/2020 6:45:00 PM 2.13 35.834 0.22 7.58 5.31 13.1
12/22/2020 7:00:00 PM 2.13 35.834 0.222 7.59 5.49 13.09
12/22/2020 7:15:00 PM 2.14 35.852 0.225 7.58 5.3 13.06
12/22/2020 7:30:00 PM 2.14 35.852 0.225 7.57 5.36 13.04
12/22/2020 7:45:00 PM 2.15 35.87 0.232 7.57 5.43 13.03
12/22/2020 8:00:00 PM 2.14 35.852 0.231 7.55 5.77 13.02
12/22/2020 8:15:00 PM 2.14 35.852 0.229 7.56 5.39 13.02
12/22/2020 8:30:00 PM 2.13 35.834 0.225 7.55 5.41 13.02
12/22/2020 8:45:00 PM 2.13 35.834 0.23 7.51 5.41 13.01
12/22/2020 9:00:00 PM 2.13 35.834 0.225 7.53 5.38 13.01
12/22/2020 9:15:00 PM 2.11 35.798 0.226 7.52 5.23 13
12/22/2020 9:30:00 PM 2.11 35.798 0.229 7.53 5.4 13
12/22/2020 9:45:00 PM 2.11 35.798 0.231 7.53 5.37 13
12/22/2020 10:00:00 PM 2.1 35.78 0.235 7.53 5.36 13
12/22/2020 10:15:00 PM 2.07 35.726 0.227 7.51 5.39 13.01
12/22/2020 10:30:00 PM 2.05 35.69 0.233 7.53 5.45 13.03
12/22/2020 10:45:00 PM 2.03 35.654 0.233 7.52 5.3 13.05
12/22/2020 11:00:00 PM 2.01 35.618 0.23 7.48 5.28 13.06
12/22/2020 11:15:00 PM 1.98 35.564 0.234 7.52 5.25 13.06
12/22/2020 11:30:00 PM 1.98 35.564 0.234 7.49 5.52 13.08
12/22/2020 11:45:00 PM 1.97 35.546 0.219 7.47 5.24 13.07
12/23/2020 12:00:00 AM 1.94 35.492 0.231 7.52 5.25 13.08
12/23/2020 12:15:00 AM 1.91 35.438 0.225 7.5 5.43 13.09
12/23/2020 12:30:00 AM 1.88 35.384 0.226 7.51 5.32 13.12
12/23/2020 12:45:00 AM 1.84 35.312 0.221 7.51 5.36 13.13
12/23/2020 1:00:00 AM 1.79 35.222 0.219 7.5 5.31 13.13
12/23/2020 1:15:00 AM 1.75 35.15 0.216 7.48 5.42 13.14
12/23/2020 1:30:00 AM 1.69 35.042 0.225 7.5 5.21 13.16
12/23/2020 1:45:00 AM 1.66 34.988 0.22 7.49 5.46 13.18
12/23/2020 2:00:00 AM 1.63 34.934 0.216 7.5 5.21 13.19
12/23/2020 2:15:00 AM 1.6 34.88 0.217 7.48 5.25 13.21
12/23/2020 2:30:00 AM 1.57 34.826 0.225 7.5 5.28 13.21
12/23/2020 2:45:00 AM 1.54 34.772 0.222 7.49 5.36 13.23
12/23/2020 3:00:00 AM 1.51 34.718 0.226 7.5 5.49 13.25
12/23/2020 3:15:00 AM 1.47 34.646 0.216 7.48 5.31 13.27
12/23/2020 3:30:00 AM 1.44 34.592 0.217 7.49 5.35 13.29
12/23/2020 3:45:00 AM 1.41 34.538 0.213 7.49 5.41 13.3
12/23/2020 4:00:00 AM 1.37 34.466 0.213 7.49 5.46 13.32
12/23/2020 4:15:00 AM 1.34 34.412 0.213 7.48 5.26 13.32
12/23/2020 4:30:00 AM 1.3 34.34 0.217 7.41 5.86 13.36
12/23/2020 4:45:00 AM 1.27 34.286 0.219 7.48 5.29 13.36
12/23/2020 5:00:00 AM 1.24 34.232 0.212 7.49 5.34 13.37
12/23/2020 5:15:00 AM 1.2 34.16 0.214 7.49 5.26 13.4
12/23/2020 5:30:00 AM 1.18 34.124 0.218 7.48 5.35 13.34
12/23/2020 5:45:00 AM 1.16 34.088 0.221 7.45 5.38 13.43
12/23/2020 6:00:00 AM 1.14 34.052 0.222 7.49 5.34 13.44
12/23/2020 6:15:00 AM 1.11 33.998 0.219 7.49 5.34 13.47
12/23/2020 6:30:00 AM 1.07 33.926 0.221 7.48 5.24 13.47
12/23/2020 6:45:00 AM 1.04 33.872 0.22 7.48 5.28 13.44
12/23/2020 7:00:00 AM 1 33.8 0.222 7.43 5.28 13.51
12/23/2020 7:15:00 AM 0.96 33.728 0.217 7.49 5.42 13.53
12/23/2020 7:30:00 AM 0.93 33.674 0.217 7.49 5.21 13.57
12/23/2020 7:45:00 AM 0.9 33.62 0.216 7.49 5.27 13.62
12/23/2020 8:00:00 AM 0.88 33.584 0.21 7.5 5.42 13.71
12/23/2020 8:15:00 AM 0.87 33.566 0.206 7.52 5.29 13.85
12/23/2020 8:30:00 AM 0.88 33.584 0.202 7.5 5.28 14.01
12/23/2020 8:45:00 AM 0.92 33.656 0.198 7.58 5.29 14.17
12/23/2020 9:00:00 AM 0.94 33.692 0.204 7.6 5.26 14.3
12/23/2020 9:15:00 AM 0.94 33.692 0.203 7.63 5.25 14.38
12/23/2020 9:30:00 AM 0.95 33.71 0.198 7.65 5.59 14.47
12/23/2020 9:45:00 AM 0.96 33.728 0.202 7.65 5.29 14.57
12/23/2020 10:00:00 AM 1 33.8 0.204 7.68 5.33 14.69
12/23/2020 10:15:00 AM 1.06 33.908 0.203 7.74 5.38 14.8
12/23/2020 10:30:00 AM 1.11 33.998 0.208 7.78 5.46 14.87
12/23/2020 10:45:00 AM 1.18 34.124 0.202 7.8 5.22 14.92
12/23/2020 11:00:00 AM 1.27 34.286 0.192 7.84 5.49 15.01
12/23/2020 11:15:00 AM 1.35 34.43 0.193 7.87 5.34 15.1
12/23/2020 11:30:00 AM 1.45 34.61 0.201 7.92 5.5 15.15
12/23/2020 11:45:00 AM 1.61 34.898 0.202 7.97 5.41 15.24
12/23/2020 12:00:00 PM 1.68 35.024 0.199 8.01 5.35 15.26
12/23/2020 12:15:00 PM 1.75 35.15 0.194 8.04 5.43 15.26
12/23/2020 12:30:00 PM 1.82 35.276 0.194 8.06 5.41 15.26
12/23/2020 12:45:00 PM 1.9 35.42 0.2 8.09 5.31 15.25
12/23/2020 1:00:00 PM 1.97 35.546 0.197 8.12 5.46 15.24
12/23/2020 1:15:00 PM 2.03 35.654 0.197 8.15 5.35 15.22
12/23/2020 1:30:00 PM 2.06 35.708 0.194 8.16 5.37 15.17
12/23/2020 1:45:00 PM 2.07 35.726 0.193 8.16 5.29 15.12
12/23/2020 2:00:00 PM 2.1 35.78 0.192 8.14 5.4 15.11
12/23/2020 2:15:00 PM 2.1 35.78 0.194 8.18 5.36 15.07
12/23/2020 2:30:00 PM 2.1 35.78 0.188 8.18 5.45 15.04
12/23/2020 2:45:00 PM 2.09 35.762 0.188 8.17 5.53 15
12/23/2020 3:00:00 PM 2.06 35.708 0.207 8.14 5.36 14.92
12/23/2020 3:15:00 PM 2.05 35.69 0.203 8.15 5.24 14.83
12/23/2020 3:30:00 PM 2.05 35.69 0.199 8.13 5.25 14.79
12/23/2020 3:45:00 PM 2.05 35.69 0.192 8.07 5.35 14.69
12/23/2020 4:00:00 PM 2.04 35.672 0.201 8.06 5.38 14.58
12/23/2020 4:15:00 PM 2.02 35.636 0.195 8.02 5.42 14.46
12/23/2020 4:30:00 PM 2 35.6 0.192 7.96 5.38 14.28
12/23/2020 4:45:00 PM 1.98 35.564 0.19 7.9 5.32 14.1
12/23/2020 5:00:00 PM 1.97 35.546 0.194 7.81 5.26 13.94
12/23/2020 5:15:00 PM 1.97 35.546 0.195 7.8 5.3 13.82
12/23/2020 5:30:00 PM 1.97 35.546 0.196 7.76 5.35 13.69
12/23/2020 5:45:00 PM 1.96 35.528 0.192 7.73 5.46 13.6
12/23/2020 6:00:00 PM 1.95 35.51 0.19 7.66 5.28 13.51
12/23/2020 6:15:00 PM 1.95 35.51 0.198 7.67 5.31 13.44
12/23/2020 6:30:00 PM 1.94 35.492 0.194 7.65 5.24 13.39
12/23/2020 6:45:00 PM 1.92 35.456 0.194 7.63 5.47 13.33
12/23/2020 7:00:00 PM 1.92 35.456 0.189 7.61 5.3 13.3
12/23/2020 7:15:00 PM 1.93 35.474 0.19 7.56 5.36 13.25
12/23/2020 7:30:00 PM 1.94 35.492 0.191 7.58 5.27 13.24
12/23/2020 7:45:00 PM 1.96 35.528 0.188 7.58 5.15 13.21
12/23/2020 8:00:00 PM 1.98 35.564 0.192 7.56 5.28 13.16
12/23/2020 8:15:00 PM 2 35.6 0.191 7.56 5.33 13.16
12/23/2020 8:30:00 PM 2.01 35.618 0.192 7.55 5.24 13.12
12/23/2020 8:45:00 PM 2.02 35.636 0.19 7.52 5.07 13.12
12/23/2020 9:00:00 PM 2.03 35.654 0.192 7.54 5.26 13.11
12/23/2020 9:15:00 PM 2.04 35.672 0.19 7.53 5.16 13.09
12/23/2020 9:30:00 PM 2.05 35.69 0.19 7.53 5.28 13.08
12/23/2020 9:45:00 PM 2.05 35.69 0.189 7.53 5.3 13.06
12/23/2020 10:00:00 PM 2.06 35.708 0.192 7.52 5.39 13.05
12/23/2020 10:15:00 PM 2.06 35.708 0.185 7.51 5.11 13.07
12/23/2020 10:30:00 PM 2.06 35.708 0.189 7.52 5.39 13.06
12/23/2020 10:45:00 PM 2.07 35.726 0.182 7.52 5.33 13.05
12/23/2020 11:00:00 PM 2.06 35.708 0.185 7.51 5.12 13.06
12/23/2020 11:15:00 PM 2.06 35.708 0.184 7.51 5.27 13.06
12/23/2020 11:30:00 PM 2.06 35.708 0.179 7.51 5.15 13.04
12/23/2020 11:45:00 PM 2.05 35.69 0.178 7.51 5.22 13.05
12/24/2020 12:00:00 AM 2.05 35.69 0.178 7.51 5.16 13.07
12/24/2020 12:15:00 AM 2.06 35.708 0.18 7.51 5.24 13.05
12/24/2020 12:30:00 AM 2.05 35.69 0.177 7.5 5.08 13.04
12/24/2020 12:45:00 AM 2.05 35.69 0.179 7.5 5.12 13.05
12/24/2020 1:00:00 AM 2.05 35.69 0.174 7.5 5.21 13.05
12/24/2020 1:15:00 AM 2.03 35.654 0.178 7.47 5.21 13.05
12/24/2020 1:30:00 AM 2.02 35.636 0.179 7.5 5.2 13.05
12/24/2020 1:45:00 AM 2 35.6 0.181 7.5 5.03 13.06
12/24/2020 2:00:00 AM 2.01 35.618 0.174 7.45 5.31 13.06
12/24/2020 2:15:00 AM 2.01 35.618 0.178 7.5 5.12 13.06
12/24/2020 2:30:00 AM 2.02 35.636 0.179 7.49 5.09 13.07
12/24/2020 2:45:00 AM 2.04 35.672 0.177 7.47 5.21 13.05
12/24/2020 3:00:00 AM 2.04 35.672 0.187 7.48 5.13 13.06
12/24/2020 3:15:00 AM 2.07 35.726 0.187 7.49 5.09 13.05
12/24/2020 3:30:00 AM 2.09 35.762 0.182 7.49 5.26 13.04
12/24/2020 3:45:00 AM 2.11 35.798 0.191 7.49 5.16 13.04
12/24/2020 4:00:00 AM 2.13 35.834 0.184 7.47 5.14 13.02
12/24/2020 4:15:00 AM 2.16 35.888 0.186 7.49 5.14 13.01
12/24/2020 4:30:00 AM 2.17 35.906 0.187 7.46 5.13 13.02
12/24/2020 4:45:00 AM 2.18 35.924 0.194 7.49 5.23 12.99
12/24/2020 5:00:00 AM 2.2 35.96 0.194 7.49 5.22 13
12/24/2020 5:15:00 AM 2.21 35.978 0.192 7.48 5.22 12.99
12/24/2020 5:30:00 AM 2.23 36.014 0.19 7.48 5.29 12.97
12/24/2020 5:45:00 AM 2.25 36.05 0.19 7.48 5.2 12.96
12/24/2020 6:00:00 AM 2.28 36.104 0.19 7.49 5.12 12.95
12/24/2020 6:15:00 AM 2.3 36.14 0.188 7.48 5.18 12.95
12/24/2020 6:30:00 AM 2.32 36.176 0.187 7.47 5.07 12.94
12/24/2020 6:45:00 AM 2.34 36.212 0.189 7.48 5.21 12.93
12/24/2020 7:00:00 AM 2.36 36.248 0.182 7.48 5.21 12.92
12/24/2020 7:15:00 AM 2.38 36.284 0.186 7.47 5.04 12.9
12/24/2020 7:30:00 AM 2.42 36.356 0.183 7.47 5.15 12.9
12/24/2020 7:45:00 AM 2.45 36.41 0.191 7.46 5.48 12.88
12/24/2020 8:00:00 AM 2.5 36.5 0.189 7.48 5.24 12.89
12/24/2020 8:15:00 AM 2.54 36.572 0.201 7.49 5.29 12.89
12/24/2020 8:30:00 AM 2.6 36.68 0.199 7.49 5.17 12.9
12/24/2020 8:45:00 AM 2.64 36.752 0.197 7.48 5.1 12.91
12/24/2020 9:00:00 AM 2.66 36.788 0.193 7.5 5.27 12.94
12/24/2020 9:15:00 AM 2.7 36.86 0.195 7.49 5.21 12.98
12/24/2020 9:30:00 AM 2.73 36.914 0.198 7.53 5.08 13.06
12/24/2020 9:45:00 AM 2.77 36.986 0.196 7.55 5.24 13.18
12/24/2020 10:00:00 AM 2.8 37.04 0.194 7.57 5.39 13.23
12/24/2020 10:15:00 AM 2.84 37.112 0.193 7.54 5.24 13.26
12/24/2020 10:30:00 AM 2.87 37.166 0.2 7.59 5.2 13.3
12/24/2020 10:45:00 AM 2.9 37.22 0.205 7.62 5.36 13.38
12/24/2020 11:00:00 AM 2.95 37.31 0.204 7.63 5.43 13.49
12/24/2020 11:15:00 AM 2.99 37.382 0.204 7.68 5.33 13.6
12/24/2020 11:30:00 AM 3.01 37.418 0.207 7.69 5.63 13.67
12/24/2020 11:45:00 AM 3.07 37.526 0.201 7.73 5.65 13.78
12/24/2020 12:00:00 PM 3.08 37.544 0.201 7.76 5.76 13.81
12/24/2020 12:15:00 PM 3.12 37.616 0.197 7.78 5.82 13.87
12/24/2020 12:30:00 PM 3.18 37.724 0.196 7.8 6.6 13.9
12/24/2020 12:45:00 PM 3.19 37.742 0.205 7.8 7.17 13.85
12/24/2020 1:00:00 PM 3.19 37.742 0.206 7.79 7.68 13.78
12/24/2020 1:15:00 PM 3.19 37.742 0.214 7.78 9.06 13.74
12/24/2020 1:30:00 PM 3.15 37.67 0.211 7.76 9.15 13.7
12/24/2020 1:45:00 PM 3.1 37.58 0.217 7.76 10.54 13.64
12/24/2020 2:00:00 PM 3.05 37.49 0.224 7.72 11.43 13.58
12/24/2020 2:15:00 PM 2.99 37.382 0.224 7.73 12.92 13.53
12/24/2020 2:30:00 PM 2.93 37.274 0.23 7.71 15.12 13.46
12/24/2020 2:45:00 PM 2.88 37.184 0.231 7.68 16.45 13.38
12/24/2020 3:00:00 PM 2.81 37.058 0.233 7.65 19.68 13.28
12/24/2020 3:15:00 PM 2.74 36.932 0.23 7.6 24.54 13.18
12/24/2020 3:30:00 PM 2.64 36.752 0.235 7.57 28.14 13.1
12/24/2020 3:45:00 PM 2.56 36.608 0.238 7.52 38.53 13.01
12/24/2020 4:00:00 PM 2.44 36.392 0.233 7.48 41.28 12.95
12/24/2020 4:15:00 PM 2.44 36.392 0.236 7.44 80.34 12.87
12/24/2020 4:30:00 PM 2.51 36.518 0.245 7.41 76.21 12.82
12/24/2020 4:45:00 PM 2.56 36.608 0.236 7.39 79.66 12.78
12/24/2020 5:00:00 PM 2.63 36.734 0.244 7.35 102.77 12.79
12/24/2020 5:15:00 PM 2.68 36.824 0.249 7.34 114.57 12.86
12/24/2020 5:30:00 PM 2.69 36.842 0.245 7.32 88.05 12.88
12/24/2020 5:45:00 PM 2.72 36.896 0.246 7.31 104.03 12.89
12/24/2020 6:00:00 PM 2.73 36.914 0.255 7.3 122.49 12.92
12/24/2020 6:15:00 PM 2.74 36.932 0.254 7.29 101.66 12.95
12/24/2020 6:30:00 PM 2.77 36.986 0.25 7.28 125.93 12.96
12/24/2020 6:45:00 PM 2.84 37.112 0.245 7.28 94.66 12.96
12/24/2020 7:00:00 PM 2.91 37.238 0.245 7.26 87.86 12.96
12/24/2020 7:15:00 PM 2.96 37.328 0.237 7.26 87.04 12.95
12/24/2020 7:30:00 PM 3.01 37.418 0.25 7.24 112.74 12.94
12/24/2020 7:45:00 PM 3.1 37.58 0.24 7.23 115.84 12.94
12/24/2020 8:00:00 PM 3.14 37.652 0.235 7.21 116.5 12.96
12/24/2020 8:15:00 PM 3.14 37.652 0.116 7.2 128.01 12.96
12/24/2020 8:30:00 PM 3.13 37.634 0.222 7.17 157.8 12.96
12/24/2020 8:45:00 PM 3.14 37.652 0.22 7.15 170.33 12.94
12/24/2020 9:00:00 PM 3.2 37.76 0.144 7.14 190.51 12.92
12/24/2020 9:15:00 PM 3.31 37.958 0.124 7.13 238.05 12.9
12/24/2020 9:30:00 PM 3.44 38.192 0.126 7.09 234.93 12.86
12/24/2020 9:45:00 PM 3.51 38.318 0.115 7.09 305.55 12.84
12/24/2020 10:00:00 PM 3.55 38.39 0.154 7.1 142.39 12.85
12/24/2020 10:15:00 PM 3.61 38.498 0.139 7.09 131.2 12.84
12/24/2020 10:30:00 PM 3.69 38.642 0.128 7.11 116.56 12.82
12/24/2020 10:45:00 PM 3.78 38.804 0.119 7.12 202.2 12.79
12/24/2020 11:00:00 PM 3.87 38.966 0.117 7.1 116.69 12.76
12/24/2020 11:15:00 PM 3.96 39.128 0.107 7.14 204.29 12.72
12/24/2020 11:30:00 PM 4.06 39.308 0.094 7.15 150.72 12.69
12/24/2020 11:45:00 PM 4.16 39.488 0.133 7.12 106.88 12.66
12/25/2020 12:00:00 AM 4.22 39.596 0.113 7.14 142.11 12.62
12/25/2020 12:15:00 AM 4.27 39.686 0.153 7.15 105.04 12.6
12/25/2020 12:30:00 AM 4.32 39.776 0.113 7.18 67.17 12.57
12/25/2020 12:45:00 AM 4.35 39.83 0.13 7.16 71.31 12.57
12/25/2020 1:00:00 AM 4.38 39.884 0.183 7.19 74.44 12.52
12/25/2020 1:15:00 AM 4.42 39.956 0.14 7.19 33.8 12.5
12/25/2020 1:30:00 AM 4.45 40.01 0.125 7.2 46.35 12.45
12/25/2020 1:45:00 AM 4.48 40.064 0.12 7.2 48.57 12.42
12/25/2020 2:00:00 AM 4.53 40.154 0.118 7.21 54.7 12.44
12/25/2020 2:15:00 AM 4.56 40.208 0.107 7.22 50.85 12.45
12/25/2020 2:30:00 AM 4.61 40.298 0.104 7.24 49.66 12.46
12/25/2020 2:45:00 AM 4.7 40.46 0.101 7.25 63.26 12.46
12/25/2020 3:00:00 AM 4.75 40.55 0.096 7.24 51.96 12.4
12/25/2020 3:15:00 AM 4.78 40.604 0.089 7.24 73.26 12.44
12/25/2020 3:30:00 AM 4.82 40.676 0.089 7.26 126.37 12.43
12/25/2020 3:45:00 AM 4.86 40.748 0.087 7.22 103.83 12.41
12/25/2020 4:00:00 AM 4.9 40.82 0.082 7.27 160.89 12.39
12/25/2020 4:15:00 AM 4.89 40.802 0.077 7.25 143.7 12.4
12/25/2020 4:30:00 AM 4.85 40.73 0.079 7.18 158.06 12.36
12/25/2020 4:45:00 AM 4.81 40.658 0.072 7.23 183.77 12.3
12/25/2020 5:00:00 AM 4.78 40.604 0.07 7.22 246.79 12.03
12/25/2020 5:15:00 AM 4.75 40.55 0.07 7.22 265.92 12.26
12/25/2020 5:30:00 AM 4.73 40.514 0.066 7.23 186.05 12.38
12/25/2020 5:45:00 AM 4.72 40.496 0.066 7.24 109.5 12.39
12/25/2020 6:00:00 AM 4.7 40.46 0.095 7.24 74.94 12.03
12/25/2020 6:15:00 AM 4.68 40.424 0.082 7.26 71.42 12.22
12/25/2020 6:30:00 AM 4.67 40.406 0.079 7.26 79.26 12.42
12/25/2020 6:45:00 AM 4.65 40.37 0.079 7.29 111.37 12.47
12/25/2020 7:00:00 AM 4.63 40.334 0.077 7.29 107.01 12.49
12/25/2020 7:15:00 AM 4.6 40.28 0.097 7.28 102.39 11.12
12/25/2020 7:30:00 AM 4.57 40.226 0.09 7.29 102.14 12.22
12/25/2020 7:45:00 AM 4.55 40.19 0.085 7.27 135.11 11.71
12/25/2020 8:00:00 AM 4.5 40.1 0.081 7.3 253.77 12.29
12/25/2020 8:15:00 AM 4.47 40.046 0.079 7.31 231.11 12.11
12/25/2020 8:30:00 AM 4.42 39.956 0.077 7.29 129.89 12.41
12/25/2020 8:45:00 AM 4.37 39.866 0.109 7.3 375.09 12.51
12/25/2020 9:00:00 AM 4.33 39.794 0.099 7.27 388.91 12.54
12/25/2020 9:15:00 AM 4.29 39.722 0.092 7.32 323.46 12.55
12/25/2020 9:30:00 AM 4.26 39.668 0.089 7.34 311.04 12.64
12/25/2020 9:45:00 AM 4.23 39.614 0.09 7.36 336.24 12.7
12/25/2020 10:00:00 AM 4.19 39.542 0.088 7.36 320.77 12.71
12/25/2020 10:15:00 AM 4.17 39.506 0.091 7.33 316.55 12.73
12/25/2020 10:30:00 AM 4.14 39.452 0.085 7.37 293.49 12.75
12/25/2020 10:45:00 AM 4.11 39.398 0.082 7.37 1776.06 12.77
12/25/2020 11:00:00 AM 4.09 39.362 0.086 7.37 154.63 12.77
12/25/2020 11:15:00 AM 4.08 39.344 0.085 7.39 130.19 12.77
12/25/2020 11:30:00 AM 4.05 39.29 0.079 7.39 113.93 12.81
12/25/2020 11:45:00 AM 4.02 39.236 0.077 7.39 69.45 12.81
12/25/2020 12:00:00 PM 3.99 39.182 0.077 7.37 79.26 12.83
12/25/2020 12:15:00 PM 3.95 39.11 0.077 7.39 66.56 12.85
12/25/2020 12:30:00 PM 3.91 39.038 0.078 7.39 37.28 12.88
12/25/2020 12:45:00 PM 3.88 38.984 0.114 7.33 837.71 12.86
12/25/2020 1:00:00 PM 3.84 38.912 0.107 7.36 485.65 12.85
12/25/2020 1:15:00 PM 3.81 38.858 0.102 7.34 477.02 12.84
12/25/2020 1:30:00 PM 3.79 38.822 0.102 7.36 436.75 12.84
12/25/2020 1:45:00 PM 3.76 38.768 0.098 7.35 407.29 12.82
12/25/2020 2:00:00 PM 3.73 38.714 0.097 7.35 415.04 12.87
12/25/2020 2:15:00 PM 3.71 38.678 0.097 7.36 351.29 12.87
12/25/2020 2:30:00 PM 3.68 38.624 0.097 7.37 406.58 12.78
12/25/2020 2:45:00 PM 3.63 38.534 0.092 7.36 475.58 12.95
12/25/2020 3:00:00 PM 3.61 38.498 0.088 7.36 400.29 12.89
12/25/2020 3:15:00 PM 3.59 38.462 0.087 7.37 388.96 12.73
12/25/2020 3:30:00 PM 3.57 38.426 0.088 7.37 286.39 12.75
12/25/2020 3:45:00 PM 3.54 38.372 0.084 7.38 358.93 12.83
12/25/2020 4:00:00 PM 3.51 38.318 0.083 7.37 450.92 12.83
12/25/2020 4:15:00 PM 3.48 38.264 0.082 7.37 468.29 12.88
12/25/2020 4:30:00 PM 3.45 38.21 0.079 7.37 428.5 12.89
12/25/2020 4:45:00 PM 3.43 38.174 0.074 7.37 331.06 12.87
12/25/2020 5:00:00 PM 3.41 38.138 0.074 7.34 521.81 12.89
12/25/2020 5:15:00 PM 3.38 38.084 0.073 7.37 485.42 12.89
12/25/2020 5:30:00 PM 3.37 38.066 0.071 7.34 656.7 12.87
12/25/2020 5:45:00 PM 3.34 38.012 0.07 7.37 496.88 12.96
12/25/2020 6:00:00 PM 3.31 37.958 0.069 7.37 35.37 13
12/25/2020 6:15:00 PM 3.29 37.922 0.117 7.34 710.92 12.95
12/25/2020 6:30:00 PM 3.27 37.886 0.107 7.35 448.13 12.97
12/25/2020 6:45:00 PM 3.24 37.832 0.106 7.35 247.69 13
12/25/2020 7:00:00 PM 3.21 37.778 0.1 7.35 160 13
12/25/2020 7:15:00 PM 3.18 37.724 0.099 7.34 127.84 13.03
12/25/2020 7:30:00 PM 3.15 37.67 0.092 7.36 117.67 13.05
12/25/2020 7:45:00 PM 3.11 37.598 0.093 7.33 122.63 13.06
12/25/2020 8:00:00 PM 3.08 37.544 0.091 7.33 130.64 13.06
12/25/2020 8:15:00 PM 3.03 37.454 0.093 7.35 150.7 13.08
12/25/2020 8:30:00 PM 3 37.4 0.095 7.33 156.63 13.07
12/25/2020 8:45:00 PM 2.97 37.346 0.09 7.35 176.92 13.09
12/25/2020 9:00:00 PM 2.94 37.292 0.092 7.35 182.1 13.12
12/25/2020 9:15:00 PM 2.92 37.256 0.091 7.35 190.84 13.14
12/25/2020 9:30:00 PM 2.91 37.238 0.09 7.35 208.58 13.14
12/25/2020 9:45:00 PM 2.88 37.184 0.089 7.35 263.78 13.15
12/25/2020 10:00:00 PM 2.86 37.148 0.088 7.35 270.96 13.17
12/25/2020 10:15:00 PM 2.85 37.13 0.086 7.35 278.76 13.18
12/25/2020 10:30:00 PM 2.83 37.094 0.086 7.35 280.02 13.19
12/25/2020 10:45:00 PM 2.82 37.076 0.083 7.35 266.7 13.2
12/25/2020 11:00:00 PM 2.81 37.058 0.079 7.35 243.33 13.22
12/25/2020 11:15:00 PM 2.8 37.04 0.08 7.33 179.68 13.21
12/25/2020 11:30:00 PM 2.79 37.022 0.077 7.35 57.7 13.21
12/25/2020 11:45:00 PM 2.77 36.986 0.078 7.35 49.79 13.22
12/26/2020 12:00:00 AM 2.76 36.968 0.075 7.35 34.33 13.23
12/26/2020 12:15:00 AM 2.74 36.932 0.07 7.35 21.12 13.23
12/26/2020 12:30:00 AM 2.72 36.896 0.068 7.34 17.94 13.24
12/26/2020 12:45:00 AM 2.7 36.86 0.1 7.33 347.33 13.23
12/26/2020 1:00:00 AM 2.68 36.824 0.098 7.34 281.32 13.25
12/26/2020 1:15:00 AM 2.66 36.788 0.093 7.34 249.68 13.25
12/26/2020 1:30:00 AM 2.64 36.752 0.093 7.34 220.36 13.25
12/26/2020 1:45:00 AM 2.62 36.716 0.089 7.34 175.53 13.26
12/26/2020 2:00:00 AM 2.59 36.662 0.085 7.34 140.07 13.26
12/26/2020 2:15:00 AM 2.57 36.626 0.083 7.34 112.4 13.27
12/26/2020 2:30:00 AM 2.54 36.572 0.082 7.34 95.99 13.29
12/26/2020 2:45:00 AM 2.52 36.536 0.082 7.34 85.11 13.29
12/26/2020 3:00:00 AM 2.5 36.5 0.081 7.34 55.09 13.29
12/26/2020 3:15:00 AM 2.48 36.464 0.077 7.34 31.92 13.3
12/26/2020 3:30:00 AM 2.46 36.428 0.072 7.34 20.02 13.32
12/26/2020 3:45:00 AM 2.45 36.41 0.103 7.32 284.8 13.32
12/26/2020 4:00:00 AM 2.44 36.392 0.096 7.33 202.06 13.33
12/26/2020 4:15:00 AM 2.44 36.392 0.097 7.33 197.49 13.33
12/26/2020 4:30:00 AM 2.42 36.356 0.095 7.32 176.24 13.33
12/26/2020 4:45:00 AM 2.41 36.338 0.092 7.33 207.4 13.34
12/26/2020 5:00:00 AM 2.4 36.32 0.089 7.33 198.92 13.34
12/26/2020 5:15:00 AM 2.39 36.302 0.088 7.33 196.71 13.34
12/26/2020 5:30:00 AM 2.38 36.284 0.087 7.33 186.09 13.34
12/26/2020 5:45:00 AM 2.37 36.266 0.084 7.33 158.69 13.35
12/26/2020 6:00:00 AM 2.36 36.248 0.083 7.33 96.17 13.35
12/26/2020 6:15:00 AM 2.36 36.248 0.082 7.33 73.14 13.35
12/26/2020 6:30:00 AM 2.35 36.23 0.08 7.33 82.66 13.35
12/26/2020 6:45:00 AM 2.35 36.23 0.077 7.33 61.49 13.36
12/26/2020 7:00:00 AM 2.34 36.212 0.074 7.33 54 13.36
12/26/2020 7:15:00 AM 2.33 36.194 0.103 7.32 267.82 13.36
12/26/2020 7:30:00 AM 2.32 36.176 0.096 7.32 233.48 13.36
12/26/2020 7:45:00 AM 2.31 36.158 0.098 7.32 206.79 13.37
12/26/2020 8:00:00 AM 2.3 36.14 0.092 7.33 189.16 13.38
12/26/2020 8:15:00 AM 2.29 36.122 0.091 7.32 158.89 13.39
12/26/2020 8:30:00 AM 2.29 36.122 0.09 7.32 133.69 13.4
12/26/2020 8:45:00 AM 2.29 36.122 0.087 7.32 113.36 13.41
12/26/2020 9:00:00 AM 2.3 36.14 0.085 7.33 103.55 13.43
12/26/2020 9:15:00 AM 2.31 36.158 0.084 7.33 99.64 13.45
12/26/2020 9:30:00 AM 2.32 36.176 0.081 7.33 85.91 13.45
12/26/2020 9:45:00 AM 2.32 36.176 0.077 7.34 71.71 13.45
12/26/2020 10:00:00 AM 2.35 36.23 0.074 7.34 40.26 13.47
12/26/2020 10:15:00 AM 2.39 36.302 0.075 7.34 26.55 13.47
12/26/2020 10:30:00 AM 2.43 36.374 0.103 7.33 297.23 13.47
12/26/2020 10:45:00 AM 2.46 36.428 0.096 7.34 167.06 13.47
12/26/2020 11:00:00 AM 2.49 36.482 0.093 7.34 131.1 13.47
12/26/2020 11:15:00 AM 2.53 36.554 0.091 7.34 112.62 13.46
12/26/2020 11:30:00 AM 2.56 36.608 0.088 7.35 100.5 13.46
12/26/2020 11:45:00 AM 2.59 36.662 0.089 7.35 90.04 13.44
12/26/2020 12:00:00 PM 2.62 36.716 0.085 7.35 80.85 13.44
12/26/2020 12:15:00 PM 2.64 36.752 0.085 7.35 71.38 13.42
12/26/2020 12:30:00 PM 2.65 36.77 0.086 7.35 64.95 13.42
12/26/2020 12:45:00 PM 2.65 36.77 0.084 7.35 61.08 13.42
12/26/2020 1:00:00 PM 2.66 36.788 0.082 7.35 59.49 13.41
12/26/2020 1:15:00 PM 2.67 36.806 0.081 7.35 64.89 13.4
12/26/2020 1:30:00 PM 2.67 36.806 0.081 7.35 61.33 13.4
12/26/2020 1:45:00 PM 2.68 36.824 0.079 7.35 62 13.39
12/26/2020 2:00:00 PM 2.68 36.824 0.079 7.34 68.5 13.39
12/26/2020 2:15:00 PM 2.67 36.806 0.078 7.35 46.68 13.38
12/26/2020 2:30:00 PM 2.66 36.788 0.075 7.34 33.76 13.39
12/26/2020 2:45:00 PM 2.65 36.77 0.071 7.35 26.13 13.38
12/26/2020 3:00:00 PM 2.64 36.752 0.092 7.33 125.77 13.37
12/26/2020 3:15:00 PM 2.62 36.716 0.084 7.33 84.91 13.38
12/26/2020 3:30:00 PM 2.61 36.698 0.082 7.34 51.31 13.37
12/26/2020 3:45:00 PM 2.6 36.68 0.073 7.34 26.07 13.37
12/26/2020 4:00:00 PM 2.58 36.644 0.078 7.33 39.64 13.35
12/26/2020 4:15:00 PM 2.56 36.608 0.079 7.33 79.32 13.34
12/26/2020 4:30:00 PM 2.54 36.572 0.13 7.29 40.22 13.34
12/26/2020 4:45:00 PM 2.52 36.536 0.125 7.32 124.35 13.33
12/26/2020 5:00:00 PM 2.49 36.482 0.118 7.3 60.12 13.32
12/26/2020 5:15:00 PM 2.48 36.464 0.115 7.32 53.79 13.32
12/26/2020 5:30:00 PM 2.46 36.428 0.11 7.31 49.09 13.32
12/26/2020 5:45:00 PM 2.45 36.41 0.108 7.27 47.87 13.32
12/26/2020 6:00:00 PM 2.44 36.392 0.109 7.3 46.11 13.32
12/26/2020 6:15:00 PM 2.43 36.374 0.104 7.31 48.89 13.33
12/26/2020 6:30:00 PM 2.42 36.356 0.101 7.3 44.11 13.33
12/26/2020 6:45:00 PM 2.41 36.338 0.099 7.3 48.47 13.33
12/26/2020 7:00:00 PM 2.4 36.32 0.097 7.3 50.58 13.33
12/26/2020 7:15:00 PM 2.4 36.32 0.094 7.31 55.16 13.34
12/26/2020 7:30:00 PM 2.39 36.302 0.094 7.31 56.1 13.34
12/26/2020 7:45:00 PM 2.38 36.284 0.09 7.31 60.22 13.34
12/26/2020 8:00:00 PM 2.36 36.248 0.087 7.29 61.46 13.35
12/26/2020 8:15:00 PM 2.33 36.194 0.084 7.31 50.44 13.36
12/26/2020 8:30:00 PM 2.31 36.158 0.082 7.31 48.42 13.36
12/26/2020 8:45:00 PM 2.29 36.122 0.077 7.3 37.41 13.37
12/26/2020 9:00:00 PM 2.28 36.104 0.106 7.3 86.52 13.36
12/26/2020 9:15:00 PM 2.26 36.068 0.101 7.3 52.82 13.38
12/26/2020 9:30:00 PM 2.25 36.05 0.096 7.29 65.9 13.38
12/26/2020 9:45:00 PM 2.24 36.032 0.094 7.28 56.53 13.39
12/26/2020 10:00:00 PM 2.23 36.014 0.09 7.29 55.9 13.41
12/26/2020 10:15:00 PM 2.23 36.014 0.086 7.3 50.97 13.41
12/26/2020 10:30:00 PM 2.22 35.996 0.083 7.29 47.46 13.42
12/26/2020 10:45:00 PM 2.2 35.96 0.079 7.3 45.6 13.42
12/26/2020 11:00:00 PM 2.19 35.942 0.08 7.3 41.27 13.43
12/26/2020 11:15:00 PM 2.17 35.906 0.078 7.29 35.6 13.43
12/26/2020 11:30:00 PM 2.16 35.888 0.075 7.29 29.81 13.43
12/26/2020 11:45:00 PM 2.14 35.852 0.07 7.29 28.59 13.44
12/27/2020 12:00:00 AM 2.13 35.834 0.092 7.3 55.01 13.43
12/27/2020 12:15:00 AM 2.12 35.816 0.074 7.29 34.57 13.45
12/27/2020 12:30:00 AM 2.11 35.798 0.085 7.31 68.6 13.44
12/27/2020 12:45:00 AM 2.1 35.78 0.081 7.3 43.01 13.46
12/27/2020 1:00:00 AM 2.09 35.762 0.076 7.3 26.11 13.47
12/27/2020 1:15:00 AM 2.08 35.744 0.12 7.28 36.44 13.47
12/27/2020 1:30:00 AM 2.07 35.726 0.113 7.28 152.08 13.48
12/27/2020 1:45:00 AM 2.07 35.726 0.11 7.3 202.58 13.48
12/27/2020 2:00:00 AM 2.06 35.708 0.101 7.29 239.66 13.48
12/27/2020 2:15:00 AM 2.06 35.708 0.097 7.28 230.44 13.5
12/27/2020 2:30:00 AM 2.07 35.726 0.096 7.28 206.94 13.5
12/27/2020 2:45:00 AM 2.08 35.744 0.091 7.28 165.63 13.5
12/27/2020 3:00:00 AM 2.08 35.744 0.083 7.29 104.27 13.5
12/27/2020 3:15:00 AM 2.09 35.762 0.082 7.28 72.73 13.5
12/27/2020 3:30:00 AM 2.1 35.78 0.09 7.31 96.38 13.5
12/27/2020 3:45:00 AM 2.1 35.78 0.08 7.29 36.73 13.49
12/27/2020 4:00:00 AM 2.1 35.78 0.082 7.31 528.23 13.49
12/27/2020 4:15:00 AM 2.1 35.78 0.094 7.32 210.82 13.5
12/27/2020 4:30:00 AM 2.1 35.78 0.085 7.29 782.77 13.51
12/27/2020 4:45:00 AM 2.1 35.78 0.083 7.29 902.42 13.51
12/27/2020 5:00:00 AM 2.11 35.798 0.116 7.26 46.36 13.5
12/27/2020 5:15:00 AM 2.11 35.798 0.106 7.31 35.06 13.52
12/27/2020 5:30:00 AM 2.12 35.816 0.092 7.29 35.4 13.51
12/27/2020 5:45:00 AM 2.12 35.816 0.12 7.28 42.01 13.51
12/27/2020 6:00:00 AM 2.12 35.816 0.094 7.32 39.93 13.51
12/27/2020 6:15:00 AM 2.13 35.834 0.12 7.29 38.91 13.52
12/27/2020 6:30:00 AM 2.13 35.834 0.104 7.29 35.18 13.49
12/27/2020 6:45:00 AM 2.14 35.852 0.147 7.34 71.31 13.51
12/27/2020 7:00:00 AM 2.14 35.852 0.099 7.26 27.5 13.51
12/27/2020 7:15:00 AM 2.15 35.87 0.114 7.29 31.69 13.52
12/27/2020 7:30:00 AM 2.15 35.87 0.151 7.31 32.75 13.52
12/27/2020 7:45:00 AM 2.16 35.888 0.148 7.3 28.92 13.52
12/27/2020 8:00:00 AM 2.16 35.888 0.148 7.27 29.11 13.52
12/27/2020 8:15:00 AM 2.17 35.906 0.147 7.3 34.21 13.54
12/27/2020 8:30:00 AM 2.18 35.924 0.147 7.28 28.5 13.54
12/27/2020 8:45:00 AM 2.19 35.942 0.151 7.3 26.12 13.55
12/27/2020 9:00:00 AM 2.21 35.978 0.149 7.3 30.94 13.56
12/27/2020 9:15:00 AM 2.23 36.014 0.146 7.31 29.73 13.57
12/27/2020 9:30:00 AM 2.25 36.05 0.149 7.29 29.65 13.59
12/27/2020 9:45:00 AM 2.29 36.122 0.147 7.31 31.17 13.59
12/27/2020 10:00:00 AM 2.33 36.194 0.149 7.32 27.48 13.6
12/27/2020 10:15:00 AM 2.37 36.266 0.145 7.32 28.56 13.6
12/27/2020 10:30:00 AM 2.41 36.338 0.146 7.33 30.59 13.6
12/27/2020 10:45:00 AM 2.46 36.428 0.146 7.33 26.92 13.61
12/27/2020 11:00:00 AM 2.51 36.518 0.147 7.33 28.19 13.61
12/27/2020 11:15:00 AM 2.55 36.59 0.146 7.33 29.85 13.59
12/27/2020 11:30:00 AM 2.58 36.644 0.141 7.33 28.75 13.57
12/27/2020 11:45:00 AM 2.63 36.734 0.146 7.34 27.27 13.56
12/27/2020 12:00:00 PM 2.7 36.86 0.146 7.33 29.07 13.56
12/27/2020 12:15:00 PM 2.75 36.95 0.145 7.34 28.17 13.54
12/27/2020 12:30:00 PM 2.8 37.04 0.145 7.32 28.21 13.53
12/27/2020 12:45:00 PM 2.81 37.058 0.146 7.33 32.16 13.52
12/27/2020 1:00:00 PM 2.82 37.076 0.148 7.32 29.04 13.5
12/27/2020 1:15:00 PM 2.85 37.13 0.153 7.35 29.13 13.49
12/27/2020 1:30:00 PM 2.87 37.166 0.146 7.32 30.15 13.48
12/27/2020 1:45:00 PM 2.88 37.184 0.149 7.34 29.3 13.47
12/27/2020 2:00:00 PM 2.89 37.202 0.151 7.32 30.82 13.45
12/27/2020 2:15:00 PM 2.88 37.184 0.15 7.34 29.3 13.45
12/27/2020 2:30:00 PM 2.87 37.166 0.148 7.32 29 13.45
12/27/2020 2:45:00 PM 2.86 37.148 0.151 7.34 29.43 13.43
12/27/2020 3:00:00 PM 2.85 37.13 0.147 7.31 24.99 13.42
12/27/2020 3:15:00 PM 2.83 37.094 0.148 7.33 30.21 13.42
12/27/2020 3:30:00 PM 2.81 37.058 0.148 7.31 28.01 13.41
12/27/2020 3:45:00 PM 2.78 37.004 0.149 7.31 29.8 13.4
12/27/2020 4:00:00 PM 2.75 36.95 0.147 7.31 28.78 13.41
12/27/2020 4:15:00 PM 2.72 36.896 0.149 7.3 28.37 13.39
12/27/2020 4:30:00 PM 2.69 36.842 0.149 7.3 28.6 13.39
12/27/2020 4:45:00 PM 2.66 36.788 0.149 7.31 30.72 13.39
12/27/2020 5:00:00 PM 2.63 36.734 0.144 7.3 29.59 13.36
12/27/2020 5:15:00 PM 2.59 36.662 0.146 7.3 28.17 13.38
12/27/2020 5:30:00 PM 2.56 36.608 0.146 7.3 30.28 13.38
12/27/2020 5:45:00 PM 2.54 36.572 0.142 7.28 27.02 13.37
12/27/2020 6:00:00 PM 2.51 36.518 0.144 7.27 28.88 13.38
12/27/2020 6:15:00 PM 2.48 36.464 0.148 7.28 27.84 13.38
12/27/2020 6:30:00 PM 2.46 36.428 0.147 7.27 32.43 13.39
12/27/2020 6:45:00 PM 2.43 36.374 0.145 7.27 32.51 13.39
12/27/2020 7:00:00 PM 2.4 36.32 0.149 7.28 30.05 13.4
12/27/2020 7:15:00 PM 2.38 36.284 0.148 7.26 30.46 13.39
12/27/2020 7:30:00 PM 2.36 36.248 0.148 7.27 28.1 13.4
12/27/2020 7:45:00 PM 2.34 36.212 0.149 7.26 30.61 13.42
12/27/2020 8:00:00 PM 2.32 36.176 0.151 7.28 28.36 13.42
12/27/2020 8:15:00 PM 2.31 36.158 0.148 7.28 28.64 13.43
12/27/2020 8:30:00 PM 2.28 36.104 0.148 7.24 29.39 13.43
12/27/2020 8:45:00 PM 2.27 36.086 0.149 7.26 29.31 13.43
12/27/2020 9:00:00 PM 2.25 36.05 0.144 7.27 28.19 13.44
12/27/2020 9:15:00 PM 2.24 36.032 0.145 7.26 29.77 13.45
12/27/2020 9:30:00 PM 2.23 36.014 0.145 7.28 35.02 13.46
12/27/2020 9:45:00 PM 2.22 35.996 0.145 7.24 27.47 13.46
12/27/2020 10:00:00 PM 2.22 35.996 0.142 7.27 1823.03 13.46
12/27/2020 10:15:00 PM 2.22 35.996 0.132 7.27 19.04 13.45
12/27/2020 10:30:00 PM 2.21 35.978 0.146 7.27 29.93 13.46
12/27/2020 10:45:00 PM 2.21 35.978 0.149 7.27 28.4 13.46
12/27/2020 11:00:00 PM 2.21 35.978 0.15 7.27 28.26 13.46
12/27/2020 11:15:00 PM 2.21 35.978 0.146 7.27 31.33 13.46
12/27/2020 11:30:00 PM 2.21 35.978 0.147 7.27 29.6 13.45
12/27/2020 11:45:00 PM 2.2 35.96 0.15 7.28 29.81 13.47
12/28/2020 12:00:00 AM 2.2 35.96 0.144 7.24 30.21 13.46
12/28/2020 12:15:00 AM 2.21 35.978 0.146 7.25 27.41 13.47
12/28/2020 12:30:00 AM 2.22 35.996 0.153 7.27 27.77 13.46
12/28/2020 12:45:00 AM 2.22 35.996 0.15 7.24 28.94 13.44
12/28/2020 1:00:00 AM 2.23 36.014 0.152 7.25 27.16 13.44
12/28/2020 1:15:00 AM 2.24 36.032 0.15 7.27 30.31 13.44
12/28/2020 1:30:00 AM 2.25 36.05 0.149 7.25 27.35 13.43
12/28/2020 1:45:00 AM 2.26 36.068 0.154 7.27 28.87 13.43
12/28/2020 2:00:00 AM 2.27 36.086 0.154 7.25 28.98 13.41
12/28/2020 2:15:00 AM 2.28 36.104 0.149 7.28 28.96 13.41
12/28/2020 2:30:00 AM 2.28 36.104 0.145 7.27 28.82 13.42
12/28/2020 2:45:00 AM 2.28 36.104 0.147 7.28 27.6 13.41
12/28/2020 3:00:00 AM 2.28 36.104 0.149 7.24 32.35 13.41
12/28/2020 3:15:00 AM 2.28 36.104 0.151 7.27 28.48 13.4
12/28/2020 3:30:00 AM 2.28 36.104 0.15 7.25 30.27 13.4
12/28/2020 3:45:00 AM 2.29 36.122 0.15 7.28 28.23 13.38
12/28/2020 4:00:00 AM 2.3 36.14 0.149 7.28 29.52 13.39
12/28/2020 4:15:00 AM 2.3 36.14 0.146 7.26 32.27 13.37
12/28/2020 4:30:00 AM 2.32 36.176 0.151 7.28 29.36 13.38
12/28/2020 4:45:00 AM 2.33 36.194 0.151 7.23 30.7 13.36
12/28/2020 5:00:00 AM 2.34 36.212 0.149 7.27 30.31 13.36
12/28/2020 5:15:00 AM 2.35 36.23 0.152 7.28 29.68 13.36
12/28/2020 5:30:00 AM 2.36 36.248 0.151 7.26 28.51 13.35
12/28/2020 5:45:00 AM 2.37 36.266 0.148 7.28 28.43 13.33
12/28/2020 6:00:00 AM 2.39 36.302 0.146 7.25 31.26 13.35
12/28/2020 6:15:00 AM 2.41 36.338 0.149 7.27 30.32 13.33
12/28/2020 6:30:00 AM 2.43 36.374 0.145 7.27 30.91 13.32
12/28/2020 6:45:00 AM 2.45 36.41 0.146 7.28 28.96 13.32
12/28/2020 7:00:00 AM 2.46 36.428 0.144 7.24 30.69 13.32
12/28/2020 7:15:00 AM 2.45 36.41 0.145 7.28 30.85 13.29
12/28/2020 7:30:00 AM 2.48 36.464 0.146 7.25 29.48 13.28
12/28/2020 7:45:00 AM 2.5 36.5 0.149 7.28 28.09 13.27
12/28/2020 8:00:00 AM 2.52 36.536 0.143 7.25 30.76 13.28
12/28/2020 8:15:00 AM 2.54 36.572 0.147 7.28 28.86 13.28
12/28/2020 8:30:00 AM 2.56 36.608 0.147 7.24 29.45 13.3
12/28/2020 8:45:00 AM 2.59 36.662 0.15 7.29 32.03 13.26
12/28/2020 9:00:00 AM 2.62 36.716 0.152 7.27 30.05 13.3